Provisional Data: Conodoguinet Creek near Schlusser, PA


Please select a monitoring station.
Please select start date.
Please select start date.

Toggle Unit: C/F Toggle Unit: C/F
Sample Time Temperature (C) Temperature (F) Specific Conductivity (mS/cm) pH   Turbidity (NTU+) DO (mg/L)
3/7/2021 12:00:00 AM 4.38 39.884 0.34 6.84 3.67 0.07
3/7/2021 12:15:00 AM 4.37 39.866 0.342 6.86 2.82 0.07
3/7/2021 12:30:00 AM 4.37 39.866 0.343 6.85 2.98 0.07
3/7/2021 12:45:00 AM 4.37 39.866 0.344 6.86 2.75 0.08
3/7/2021 1:00:00 AM 4.36 39.848 0.345 6.86 3.14 0.07
3/7/2021 1:15:00 AM 4.36 39.848 0.346 6.85 4.04 0.07
3/7/2021 1:30:00 AM 4.35 39.83 0.348 6.85 2.85 0.07
3/7/2021 1:45:00 AM 4.35 39.83 0.349 6.87 2.79 0.07
3/7/2021 2:00:00 AM 4.34 39.812 0.347 6.87 2.7 0.07
3/7/2021 2:15:00 AM 4.33 39.794 0.347 6.87 2.62 0.07
3/7/2021 2:30:00 AM 4.32 39.776 0.347 6.87 3.19 0.07
3/7/2021 2:45:00 AM 4.31 39.758 0.347 6.87 3.38 0.07
3/7/2021 3:00:00 AM 4.31 39.758 0.347 6.87 3.76 0.11
3/7/2021 3:15:00 AM 4.3 39.74 0.348 6.87 3.28 0.09
3/7/2021 3:30:00 AM 4.3 39.74 0.348 6.86 3.14 0.07
3/7/2021 3:45:00 AM 4.29 39.722 0.348 6.87 2.99 0.07
3/7/2021 4:00:00 AM 4.28 39.704 0.348 6.87 3.2 0.07
3/7/2021 4:15:00 AM 4.26 39.668 0.348 6.86 3.1 0.07
3/7/2021 4:30:00 AM 4.25 39.65 0.348 6.86 2.93 0.07
3/7/2021 4:45:00 AM 4.24 39.632 0.348 6.86 3.32 0.07
3/7/2021 5:00:00 AM 4.24 39.632 0.348 6.86 2.83 0.07
3/7/2021 5:15:00 AM 4.23 39.614 0.349 6.86 2.76 0.07
3/7/2021 5:30:00 AM 4.22 39.596 0.348 6.86 2.97 0.07
3/7/2021 5:45:00 AM 4.21 39.578 0.348 6.87 2.95 0.07
3/7/2021 6:00:00 AM 4.21 39.578 0.348 6.88 2.83 0.07
3/7/2021 6:15:00 AM 4.19 39.542 0.349 6.88 2.78 0.07
3/7/2021 6:30:00 AM 4.18 39.524 0.348 6.88 3.32 0.07
3/7/2021 6:45:00 AM 4.17 39.506 0.349 6.88 2.63 0.07
3/7/2021 7:00:00 AM 4.16 39.488 0.349 6.89 2.57 0.07
3/7/2021 7:15:00 AM 4.15 39.47 0.35 6.89 2.58 0.07
3/7/2021 7:30:00 AM 4.14 39.452 0.35 6.89 2.81 0.07
3/7/2021 7:45:00 AM 4.12 39.416 0.351 6.88 2.58 0.07
3/7/2021 8:00:00 AM 4.11 39.398 0.351 6.88 2.63 0.06
3/7/2021 8:15:00 AM 4.1 39.38 0.352 6.89 2.74 0.07
3/7/2021 8:30:00 AM 4.08 39.344 0.352 6.89 2.68 0.07
3/7/2021 8:45:00 AM 4.06 39.308 0.353 6.88 3 0.07
3/7/2021 9:00:00 AM 4.05 39.29 0.353 6.88 3.43 0.07
3/7/2021 9:15:00 AM 4.03 39.254 0.353 6.88 3.01 0.07
3/7/2021 9:30:00 AM 4.01 39.218 0.353 6.87 3.47 0.08
3/7/2021 9:45:00 AM 3.99 39.182 0.354 6.88 3.3 0.07
3/7/2021 10:00:00 AM 3.97 39.146 0.354 6.87 5.35 0.07
3/7/2021 10:15:00 AM 3.96 39.128 0.354 6.86 4.78 0.07
3/7/2021 10:30:00 AM 3.95 39.11 0.354 6.86 2.87 0.07
3/7/2021 10:45:00 AM 3.94 39.092 0.354 6.86 2.69 0.07
3/7/2021 11:00:00 AM 3.93 39.074 0.354 6.86 4.47 0.07
3/7/2021 11:15:00 AM 3.92 39.056 0.354 6.86 3 0.07
3/7/2021 11:30:00 AM 3.91 39.038 0.355 6.86 2.99 0.07
3/7/2021 11:45:00 AM 3.9 39.02 0.355 6.85 2.7 0.08
3/7/2021 12:00:00 PM 3.89 39.002 0.355 6.84 2.8 0.07
3/7/2021 12:15:00 PM 3.88 38.984 0.356 6.84 2.99 0.07
3/7/2021 12:30:00 PM 3.88 38.984 0.356 6.84 2.84 0.07
3/7/2021 12:45:00 PM 3.87 38.966 0.357 6.83 3.19 0.07
3/7/2021 1:00:00 PM 3.87 38.966 0.357 6.82 9.76 0.07
3/7/2021 1:15:00 PM 3.87 38.966 0.357 6.81 6.36 0.07
3/7/2021 1:30:00 PM 3.87 38.966 0.358 6.79 3.38 0.07
3/7/2021 1:45:00 PM 3.87 38.966 0.358 6.8 3.04 0.07
3/7/2021 2:00:00 PM 3.88 38.984 0.358 6.79 3.28 0.06
3/7/2021 2:15:00 PM 3.89 39.002 0.359 6.79 2.95 0.07
3/7/2021 2:30:00 PM 3.9 39.02 0.359 6.79 2.77 0.07
3/7/2021 2:45:00 PM 3.91 39.038 0.36 6.79 2.84 0.07
3/7/2021 3:00:00 PM 3.93 39.074 0.36 6.79 2.77 0.07
3/7/2021 3:15:00 PM 3.95 39.11 0.361 6.79 2.94 0.07
3/7/2021 3:30:00 PM 3.96 39.128 0.361 6.79 2.83 0.06
3/7/2021 3:45:00 PM 3.99 39.182 0.362 6.8 3.1 0.07
3/7/2021 4:00:00 PM 4.01 39.218 0.363 6.8 2.95 0.07
3/7/2021 4:15:00 PM 4.03 39.254 0.364 6.82 2.81 0.07
3/7/2021 4:30:00 PM 4.05 39.29 0.365 6.83 2.78 0.07
3/7/2021 4:45:00 PM 4.07 39.326 0.366 6.84 2.95 0.06
3/7/2021 5:00:00 PM 4.09 39.362 0.367 6.85 2.76 0.06
3/7/2021 5:15:00 PM 4.11 39.398 0.367 6.87 3.65 0.07
3/7/2021 5:30:00 PM 4.13 39.434 0.367 6.86 4.9 0.06
3/7/2021 5:45:00 PM 4.15 39.47 0.367 6.88 3.63 0.06
3/7/2021 6:00:00 PM 4.17 39.506 0.368 6.88 2.91 0.06
3/7/2021 6:15:00 PM 4.19 39.542 0.368 6.89 2.8 0.08
3/7/2021 6:30:00 PM 4.21 39.578 0.368 6.89 4.02 0.06
3/7/2021 6:45:00 PM 4.23 39.614 0.368 6.89 2.88 0.07
3/7/2021 7:00:00 PM 4.25 39.65 0.368 6.88 3.01 0.08
3/7/2021 7:15:00 PM 4.27 39.686 0.367 6.88 2.83 0.06
3/7/2021 7:30:00 PM 4.28 39.704 0.367 6.89 2.69 0.07
3/7/2021 7:45:00 PM 4.3 39.74 0.367 6.88 3.04 0.07
3/7/2021 8:00:00 PM 4.31 39.758 0.367 6.89 2.96 0.06
3/7/2021 8:15:00 PM 4.33 39.794 0.366 6.9 2.57 0.06
3/7/2021 8:30:00 PM 4.34 39.812 0.366 6.89 2.61 0.06
3/7/2021 8:45:00 PM 4.36 39.848 0.366 6.9 2.67 0.06
3/7/2021 9:00:00 PM 4.37 39.866 0.365 6.9 2.73 0.06
3/7/2021 9:15:00 PM 4.39 39.902 0.365 6.89 3.6 0.06
3/7/2021 9:30:00 PM 4.4 39.92 0.364 6.89 3.01 0.06
3/7/2021 9:45:00 PM 4.41 39.938 0.363 6.89 3.81 0.06
3/7/2021 10:00:00 PM 4.43 39.974 0.362 6.89 6.09 0.06
3/7/2021 10:15:00 PM 4.44 39.992 0.361 6.88 4.17 0.06
3/7/2021 10:30:00 PM 4.45 40.01 0.361 6.87 4.97 0.06
3/7/2021 10:45:00 PM 4.46 40.028 0.359 6.88 4.17 0.06
3/7/2021 11:00:00 PM 4.47 40.046 0.359 6.88 5.79 0.06
3/7/2021 11:15:00 PM 4.48 40.064 0.359 6.88 3.85 0.09
3/7/2021 11:30:00 PM 4.49 40.082 0.359 6.88 3.36 0.07
3/7/2021 11:45:00 PM 4.5 40.1 0.359 6.88 3.7 0.06
3/8/2021 12:00:00 AM 4.51 40.118 0.359 6.87 4.69 0.06
3/8/2021 12:15:00 AM 4.51 40.118 0.359 6.87 2.65 0.06
3/8/2021 12:30:00 AM 4.52 40.136 0.359 6.88 2.64 0.06
3/8/2021 12:45:00 AM 4.52 40.136 0.358 6.87 2.81 0.06
3/8/2021 1:00:00 AM 4.53 40.154 0.359 6.86 2.82 0.06
3/8/2021 1:15:00 AM 4.53 40.154 0.359 6.86 2.87 0.07
3/8/2021 1:30:00 AM 4.54 40.172 0.359 6.86 2.75 0.06
3/8/2021 1:45:00 AM 4.54 40.172 0.359 6.86 3.09 0.06
3/8/2021 2:00:00 AM 4.54 40.172 0.359 6.87 3.03 0.06
3/8/2021 2:15:00 AM 4.54 40.172 0.359 6.87 3.2 0.06
3/8/2021 2:30:00 AM 4.54 40.172 0.36 6.88 2.89 0.06
3/8/2021 2:45:00 AM 4.54 40.172 0.36 6.88 2.75 0.06
3/8/2021 3:00:00 AM 4.54 40.172 0.36 6.88 2.7 0.06
3/8/2021 3:15:00 AM 4.54 40.172 0.36 6.88 2.73 0.06
3/8/2021 3:30:00 AM 4.53 40.154 0.36 6.89 3.12 0.06
3/8/2021 3:45:00 AM 4.53 40.154 0.36 6.89 3.09 0.06
3/8/2021 4:00:00 AM 4.53 40.154 0.359 6.89 2.78 0.07
3/8/2021 4:15:00 AM 4.52 40.136 0.357 6.89 2.93 0.06
3/8/2021 4:30:00 AM 4.52 40.136 0.358 6.88 8.25 0.07
3/8/2021 4:45:00 AM 4.51 40.118 0.358 6.89 2.91 0.06
3/8/2021 5:00:00 AM 4.5 40.1 0.358 6.89 3.12 0.07
3/8/2021 5:15:00 AM 4.49 40.082 0.358 6.88 3.01 0.11
3/8/2021 5:30:00 AM 4.49 40.082 0.357 6.88 2.8 0.07
3/8/2021 5:45:00 AM 4.48 40.064 0.357 6.88 2.76 0.07
3/8/2021 6:00:00 AM 4.47 40.046 0.357 6.87 2.82 0.06
3/8/2021 6:15:00 AM 4.46 40.028 0.356 6.88 2.86 0.07
3/8/2021 6:30:00 AM 4.45 40.01 0.356 6.88 3.12 0.22
3/8/2021 6:45:00 AM 4.44 39.992 0.356 6.87 2.78 0.11
3/8/2021 7:00:00 AM 4.41 39.938 0.355 6.88 3.01 0.07
3/8/2021 7:15:00 AM 4.41 39.938 0.355 6.88 2.73 0.07
3/8/2021 7:30:00 AM 4.4 39.92 0.355 6.86 2.76 0.07
3/8/2021 7:45:00 AM 4.39 39.902 0.355 6.87 3.19 0.07
3/8/2021 8:00:00 AM 4.37 39.866 0.355 6.86 2.85 0.07
3/8/2021 8:15:00 AM 4.37 39.866 0.354 6.86 3.15 0.07
3/8/2021 8:30:00 AM 4.35 39.83 0.354 6.87 2.63 0.07
3/8/2021 8:45:00 AM 4.34 39.812 0.354 6.86 2.92 0.08
3/8/2021 9:00:00 AM 4.33 39.794 0.354 6.86 3.1 0.09
3/8/2021 9:15:00 AM 4.32 39.776 0.354 6.86 3.36 0.07
3/8/2021 9:30:00 AM 4.3 39.74 0.354 6.86 2.98 0.07
3/8/2021 9:45:00 AM 4.29 39.722 0.355 6.85 3 0.07
3/8/2021 10:00:00 AM 4.28 39.704 0.355 6.84 3.14 0.07
3/8/2021 10:15:00 AM 4.27 39.686 0.355 6.83 2.97 0.06
3/8/2021 10:30:00 AM 4.26 39.668 0.355 6.82 3.52 0.07
3/8/2021 10:45:00 AM 4.25 39.65 0.355 6.81 12.3 0.07
3/8/2021 11:00:00 AM 4.24 39.632 0.355 6.81 2.75 0.07
3/8/2021 11:15:00 AM 4.24 39.632 0.356 6.8 3.82 0.07
3/8/2021 11:30:00 AM 4.23 39.614 0.356 6.79 2.99 0.07
3/8/2021 11:45:00 AM 4.22 39.596 0.354 6.77 2.91 0.07
3/8/2021 12:00:00 PM 4.22 39.596 0.355 6.77 3.04 0.07
3/8/2021 12:15:00 PM 4.22 39.596 0.355 6.76 2.74 0.07
3/8/2021 12:30:00 PM 4.22 39.596 0.355 6.74 2.81 0.07
3/8/2021 12:45:00 PM 4.23 39.614 0.355 6.73 2.79 0.07
3/8/2021 1:00:00 PM 4.23 39.614 0.355 6.72 3.33 0.07
3/8/2021 1:15:00 PM 4.24 39.632 0.356 6.71 3.69 0.07
3/8/2021 1:30:00 PM 4.25 39.65 0.356 6.68 3.77 0.06
3/8/2021 1:45:00 PM 4.26 39.668 0.356 6.66 2.94 0.06
3/8/2021 2:00:00 PM 4.28 39.704 0.357 6.65 3.14 0.06
3/8/2021 2:15:00 PM 4.3 39.74 0.357 6.65 2.85 0.06
3/8/2021 2:30:00 PM 4.32 39.776 0.358 6.66 3.23 0.08
3/8/2021 2:45:00 PM 4.34 39.812 0.358 6.65 3.24 0.06
3/8/2021 3:00:00 PM 4.36 39.848 0.358 6.67 3 0.08
3/8/2021 3:15:00 PM 4.38 39.884 0.359 6.67 3.01 0.06
3/8/2021 3:30:00 PM 4.41 39.938 0.359 6.68 3.24 0.06
3/8/2021 3:45:00 PM 4.44 39.992 0.36 6.68 4.39 0.06
3/8/2021 4:00:00 PM 4.46 40.028 0.361 6.67 7.19 0.06
3/8/2021 4:15:00 PM 4.49 40.082 0.362 6.69 3.54 0.06
3/8/2021 4:30:00 PM 4.52 40.136 0.363 6.7 3.5 0.06
3/8/2021 4:45:00 PM 4.55 40.19 0.364 6.71 4.17 0.06
3/8/2021 5:00:00 PM 4.58 40.244 0.365 6.71 3.51 0.06
3/8/2021 5:15:00 PM 4.61 40.298 0.366 6.71 4.97 0.06
3/8/2021 5:30:00 PM 4.64 40.352 0.366 6.71 3.56 0.08
3/8/2021 5:45:00 PM 4.67 40.406 0.367 6.72 3.1 0.08
3/8/2021 6:00:00 PM 4.7 40.46 0.367 6.73 6.53 0.06
3/8/2021 6:15:00 PM 4.73 40.514 0.368 6.71 4.12 0.06
3/8/2021 6:30:00 PM 4.76 40.568 0.368 6.72 3.26 0.06
3/8/2021 6:45:00 PM 4.78 40.604 0.368 6.71 3.1 0.06
3/8/2021 7:00:00 PM 4.81 40.658 0.368 6.72 3.1 0.06
3/8/2021 7:15:00 PM 4.83 40.694 0.368 6.72 3.26 0.06
3/8/2021 7:30:00 PM 4.85 40.73 0.367 6.71 3.19 0.06
3/8/2021 7:45:00 PM 4.87 40.766 0.367 6.72 3.26 0.06
3/8/2021 8:00:00 PM 4.89 40.802 0.367 6.73 4.49 0.06
3/8/2021 8:15:00 PM 4.91 40.838 0.367 6.72 3.96 0.06
3/8/2021 8:30:00 PM 4.93 40.874 0.368 6.73 4 0.06
3/8/2021 8:45:00 PM 4.95 40.91 0.369 6.72 3.82 0.34
3/8/2021 9:00:00 PM 4.96 40.928 0.369 6.73 3.23 0.06
3/8/2021 9:15:00 PM 4.98 40.964 0.37 6.73 3.46 0.06
3/8/2021 9:30:00 PM 4.99 40.982 0.372 6.74 3.84 0.06
3/8/2021 9:45:00 PM 5.01 41.018 0.372 6.75 3.53 0.06
3/8/2021 10:00:00 PM 5.02 41.036 0.371 6.75 4.1 0.06
3/8/2021 10:15:00 PM 5.04 41.072 0.372 6.75 3.31 0.06
3/8/2021 10:30:00 PM 5.06 41.108 0.372 6.77 4.12 0.06
3/8/2021 10:45:00 PM 5.07 41.126 0.373 6.77 89.44 0.06
3/8/2021 11:00:00 PM 5.09 41.162 0.373 6.78 3.53 0.06
3/8/2021 11:15:00 PM 5.1 41.18 0.373 6.78 3.49 0.06
3/8/2021 11:30:00 PM 5.12 41.216 0.372 6.78 3.42 0.06
3/8/2021 11:45:00 PM 5.13 41.234 0.372 6.79 3.21 0.06
3/9/2021 12:00:00 AM 5.14 41.252 0.372 6.8 3.29 0.06
3/9/2021 12:15:00 AM 5.16 41.288 0.372 6.8 3.08 0.06
3/9/2021 12:30:00 AM 5.17 41.306 0.372 6.81 3.28 0.06
3/9/2021 12:45:00 AM 5.18 41.324 0.372 6.81 3.62 0.06
3/9/2021 1:00:00 AM 5.19 41.342 0.372 6.81 3.23 0.06
3/9/2021 1:15:00 AM 5.19 41.342 0.372 6.82 2.96 0.06
3/9/2021 1:30:00 AM 5.2 41.36 0.373 6.82 6.36 0.06
3/9/2021 1:45:00 AM 5.21 41.378 0.373 6.84 3.33 0.06
3/9/2021 2:00:00 AM 5.22 41.396 0.373 6.85 3.43 0.06
3/9/2021 2:15:00 AM 5.23 41.414 0.373 6.86 3.43 0.06
3/9/2021 2:30:00 AM 5.23 41.414 0.373 6.86 3.55 0.06
3/9/2021 2:45:00 AM 5.24 41.432 0.373 6.84 3.49 0.06
3/9/2021 3:00:00 AM 5.24 41.432 0.373 6.85 3.44 0.06
3/9/2021 3:15:00 AM 5.24 41.432 0.374 6.85 2.94 0.06
3/9/2021 3:30:00 AM 5.25 41.45 0.374 6.85 3.48 0.06
3/9/2021 3:45:00 AM 5.25 41.45 0.374 6.85 3.12 0.06
3/9/2021 4:00:00 AM 5.25 41.45 0.374 6.86 3.09 0.06
3/9/2021 4:15:00 AM 5.25 41.45 0.374 6.87 3.15 0.06
3/9/2021 4:30:00 AM 5.26 41.468 0.374 6.87 3.05 0.06
3/9/2021 4:45:00 AM 5.26 41.468 0.375 6.86 3.15 0.06
3/9/2021 5:00:00 AM 5.26 41.468 0.375 6.88 3.08 0.06
3/9/2021 5:15:00 AM 5.26 41.468 0.375 6.87 3.06 0.06
3/9/2021 5:30:00 AM 5.26 41.468 0.375 6.88 3.23 0.06
3/9/2021 5:45:00 AM 5.26 41.468 0.374 6.88 3.7 0.06
3/9/2021 6:00:00 AM 5.26 41.468 0.374 6.87 3.43 0.06
3/9/2021 6:15:00 AM 5.26 41.468 0.374 6.88 3.84 0.06
3/9/2021 6:30:00 AM 5.26 41.468 0.374 6.88 3.52 0.06
3/9/2021 6:45:00 AM 5.26 41.468 0.374 6.87 3.22 0.06
3/9/2021 7:00:00 AM 5.25 41.45 0.374 6.86 3.15 0.06
3/9/2021 7:15:00 AM 5.25 41.45 0.374 6.86 3.47 0.06
3/9/2021 7:30:00 AM 5.25 41.45 0.374 6.86 3.23 0.06
3/9/2021 7:45:00 AM 5.24 41.432 0.374 6.86 3.08 0.06
3/9/2021 8:00:00 AM 5.24 41.432 0.374 6.85 2.95 0.06
3/9/2021 8:15:00 AM 5.23 41.414 0.374 6.84 3 0.06
3/9/2021 8:30:00 AM 5.23 41.414 0.374 6.86 2.9 0.06
3/9/2021 8:45:00 AM 5.23 41.414 0.375 6.85 3.53 0.06
3/9/2021 9:00:00 AM 5.23 41.414 0.375 6.85 3.54 0.06
3/9/2021 9:15:00 AM 5.22 41.396 0.376 6.85 3.59 0.06
3/9/2021 9:30:00 AM 5.22 41.396 0.376 6.83 2.53 0.06
3/9/2021 9:45:00 AM 5.22 41.396 0.376 6.82 2.87 0.06
3/9/2021 10:00:00 AM 5.22 41.396 0.376 6.81 3.86 0.06
3/9/2021 10:15:00 AM 5.22 41.396 0.376 6.82 3.01 0.06
3/9/2021 10:30:00 AM 5.22 41.396 0.377 6.82 3.34 0.06
3/9/2021 10:45:00 AM 5.22 41.396 0.377 6.81 3.47 0.06
3/9/2021 11:00:00 AM 5.22 41.396 0.377 6.81 3.66 0.06
3/9/2021 11:15:00 AM 5.22 41.396 0.377 6.79 3.46 0.06
3/9/2021 11:30:00 AM 5.22 41.396 0.377 6.8 3.26 0.06
3/9/2021 11:45:00 AM 5.23 41.414 0.378 6.8 3.86 0.06
3/9/2021 12:00:00 PM 5.23 41.414 0.378 6.8 3.31 0.06
3/9/2021 12:15:00 PM 5.24 41.432 0.378 6.79 3.12 0.06
3/9/2021 12:30:00 PM 5.25 41.45 0.378 6.78 2.9 0.14
3/9/2021 12:45:00 PM 5.25 41.45 0.379 6.78 3.05 0.06
3/9/2021 1:00:00 PM 5.26 41.468 0.379 6.77 3.02 0.06
3/9/2021 1:15:00 PM 5.28 41.504 0.379 6.77 3.03 0.06
3/9/2021 1:30:00 PM 5.29 41.522 0.38 6.77 2.94 0.06
3/9/2021 1:45:00 PM 5.3 41.54 0.38 6.77 3.01 0.06
3/9/2021 2:00:00 PM 5.31 41.558 0.38 6.77 6.98 0.06
3/9/2021 2:15:00 PM 5.33 41.594 0.38 6.76 2.94 0.06
3/9/2021 2:30:00 PM 5.35 41.63 0.38 6.76 2.74 0.06
3/9/2021 2:45:00 PM 5.37 41.666 0.381 6.77 2.83 0.06
3/9/2021 3:00:00 PM 5.39 41.702 0.381 6.78 2.86 0.06
3/9/2021 3:15:00 PM 5.41 41.738 0.381 6.77 3.46 0.06
3/9/2021 3:30:00 PM 5.44 41.792 0.38 6.77 3.11 0.05
3/9/2021 3:45:00 PM 5.46 41.828 0.38 6.78 4.61 0.06
3/9/2021 4:00:00 PM 5.49 41.882 0.38 6.78 3.11 0.06
3/9/2021 4:15:00 PM 5.51 41.918 0.379 6.78 2.83 0.06
3/9/2021 4:30:00 PM 5.54 41.972 0.38 6.77 2.81 0.06
3/9/2021 4:45:00 PM 5.56 42.008 0.38 6.76 2.86 0.06
3/9/2021 5:00:00 PM 5.58 42.044 0.38 6.76 3.07 0.05
3/9/2021 5:15:00 PM 5.6 42.08 0.381 6.75 2.86 0.06
3/9/2021 5:30:00 PM 5.63 42.134 0.379 6.75 2.76 0.06
3/9/2021 5:45:00 PM 5.65 42.17 0.38 6.76 2.82 0.06
3/9/2021 6:00:00 PM 5.68 42.224 0.381 6.77 2.94 0.06
3/9/2021 6:15:00 PM 5.7 42.26 0.382 6.78 2.75 0.06
3/9/2021 6:30:00 PM 5.72 42.296 0.382 6.79 3.25 0.06
3/9/2021 6:45:00 PM 5.74 42.332 0.383 6.79 3.05 0.05
3/9/2021 7:00:00 PM 5.77 42.386 0.384 6.81 2.89 0.05
3/9/2021 7:15:00 PM 5.79 42.422 0.385 6.82 2.78 0.06
3/9/2021 7:30:00 PM 5.82 42.476 0.386 6.82 2.9 0.05
3/9/2021 7:45:00 PM 5.86 42.548 0.386 6.83 3.51 0.05
3/9/2021 8:00:00 PM 5.86 42.548 0.387 6.83 3.03 0.05
3/9/2021 8:15:00 PM 5.89 42.602 0.386 6.84 3.29 0.05
3/9/2021 8:30:00 PM 5.91 42.638 0.384 6.84 2.77 0.05
3/9/2021 8:45:00 PM 5.93 42.674 0.386 6.85 3.05 0.05
3/9/2021 9:00:00 PM 5.96 42.728 0.385 6.85 2.87 0.05
3/9/2021 9:15:00 PM 5.98 42.764 0.384 6.85 2.87 0.05
3/9/2021 9:30:00 PM 6 42.8 0.384 6.85 2.73 0.05
3/9/2021 9:45:00 PM 6.02 42.836 0.383 6.86 3.18 0.05
3/9/2021 10:00:00 PM 6.04 42.872 0.384 6.87 3.11 0.05
3/9/2021 10:15:00 PM 6.06 42.908 0.385 6.87 2.91 0.05
3/9/2021 10:30:00 PM 6.08 42.944 0.385 6.88 3 0.05
3/9/2021 10:45:00 PM 6.1 42.98 0.385 6.88 2.95 0.05
3/9/2021 11:00:00 PM 6.11 42.998 0.386 6.88 2.88 0.05
3/9/2021 11:15:00 PM 6.12 43.016 0.387 6.88 16.38 0.05
3/9/2021 11:30:00 PM 6.14 43.052 0.388 6.89 3.1 0.05
3/9/2021 11:45:00 PM 6.15 43.07 0.389 6.91 2.68 0.05
3/10/2021 12:00:00 AM 6.17 43.106 0.39 6.92 2.81 0.05
3/10/2021 12:15:00 AM 6.18 43.124 0.39 6.93 2.74 0.05
3/10/2021 12:30:00 AM 6.2 43.16 0.391 6.93 3.3 0.05
3/10/2021 12:45:00 AM 6.2 43.16 0.392 6.95 2.89 0.05
3/10/2021 1:00:00 AM 6.22 43.196 0.392 6.96 3.04 0.05
3/10/2021 1:15:00 AM 6.23 43.214 0.394 6.96 2.81 0.05
3/10/2021 1:30:00 AM 6.24 43.232 0.395 6.97 3.07 0.05
3/10/2021 1:45:00 AM 6.25 43.25 0.395 6.98 2.93 0.05
3/10/2021 2:00:00 AM 6.26 43.268 0.396 7 3.02 0.05
3/10/2021 2:15:00 AM 6.27 43.286 0.397 7.01 2.95 0.05
3/10/2021 2:30:00 AM 6.28 43.304 0.399 7.01 3.14 0.06
3/10/2021 2:45:00 AM 6.3 43.34 0.401 7.02 3.12 0.05
3/10/2021 3:00:00 AM 6.31 43.358 0.403 7.03 4.17 0.05
3/10/2021 3:15:00 AM 6.32 43.376 0.404 7.04 4.26 0.05
3/10/2021 3:30:00 AM 6.33 43.394 0.405 7.05 4.48 0.05
3/10/2021 3:45:00 AM 6.33 43.394 0.406 7.06 5.54 0.05
3/10/2021 4:00:00 AM 6.34 43.412 0.407 7.06 4.08 0.05
3/10/2021 4:15:00 AM 6.35 43.43 0.407 7.06 3.65 0.05
3/10/2021 4:30:00 AM 6.36 43.448 0.408 7.08 3.49 0.05
3/10/2021 4:45:00 AM 6.36 43.448 0.408 7.09 4.26 0.05
3/10/2021 5:00:00 AM 6.37 43.466 0.408 7.1 4.17 0.05
3/10/2021 5:15:00 AM 6.37 43.466 0.408 7.11 3.51 0.05
3/10/2021 5:30:00 AM 6.38 43.484 0.407 7.11 3.46 0.05
3/10/2021 5:45:00 AM 6.38 43.484 0.407 7.12 3.47 0.05
3/10/2021 6:00:00 AM 6.38 43.484 0.407 7.12 3.31 0.05
3/10/2021 6:15:00 AM 6.38 43.484 0.406 7.13 3.31 0.05
3/10/2021 6:30:00 AM 6.39 43.502 0.406 7.13 2.92 0.05
3/10/2021 6:45:00 AM 6.39 43.502 0.405 7.13 3.1 0.06
3/10/2021 7:00:00 AM 6.39 43.502 0.404 7.14 3.39 0.05
3/10/2021 7:15:00 AM 6.39 43.502 0.403 7.14 3.21 0.05
3/10/2021 7:30:00 AM 6.39 43.502 0.403 7.14 3.3 0.05
3/10/2021 7:45:00 AM 6.39 43.502 0.402 7.13 3.33 0.05
3/10/2021 8:00:00 AM 6.39 43.502 0.402 7.14 3.42 0.05
3/10/2021 8:15:00 AM 6.38 43.484 0.401 7.14 2.9 0.05
3/10/2021 8:30:00 AM 6.38 43.484 0.401 7.14 2.82 0.05
3/10/2021 8:45:00 AM 6.38 43.484 0.4 7.14 2.91 0.05
3/10/2021 9:00:00 AM 6.38 43.484 0.4 7.13 3.07 0.05
3/10/2021 9:15:00 AM 6.38 43.484 0.4 7.1 3.11 0.05
3/10/2021 9:30:00 AM 6.37 43.466 0.4 7.09 3.8 0.05
3/10/2021 9:45:00 AM 6.37 43.466 0.4 7.08 3.87 0.05
3/10/2021 10:00:00 AM 6.37 43.466 0.4 7.08 2.93 0.05
3/10/2021 10:15:00 AM 6.37 43.466 0.4 7.07 2.8 0.05
3/10/2021 10:30:00 AM 6.37 43.466 0.4 7.07 2.78 0.05
3/10/2021 10:45:00 AM 6.37 43.466 0.401 7.06 2.86 0.05
3/10/2021 11:00:00 AM 6.37 43.466 0.401 7.06 2.69 0.05
3/10/2021 11:15:00 AM 6.37 43.466 0.401 7.06 2.71 0.05
3/10/2021 11:30:00 AM 6.38 43.484 0.402 7.05 2.79 0.05
3/10/2021 11:45:00 AM 6.38 43.484 0.402 7.05 2.79 0.05
3/10/2021 12:00:00 PM 6.38 43.484 0.403 7.05 2.69 0.05
3/10/2021 12:15:00 PM 6.39 43.502 0.403 7.04 2.73 0.05
3/10/2021 12:30:00 PM 6.4 43.52 0.404 7.03 2.75 0.05
3/10/2021 12:45:00 PM 6.4 43.52 0.405 7.02 2.75 0.05
3/10/2021 1:00:00 PM 6.42 43.556 0.406 7.02 3.38 0.05
3/10/2021 1:15:00 PM 6.43 43.574 0.408 7.01 2.94 0.05
3/10/2021 1:30:00 PM 6.44 43.592 0.41 7 2.96 0.05
3/10/2021 1:45:00 PM 6.46 43.628 0.411 7 3.02 0.05
3/10/2021 2:00:00 PM 6.47 43.646 0.412 6.99 2.99 0.05
3/10/2021 2:15:00 PM 6.49 43.682 0.414 6.99 3.45 0.05
3/10/2021 2:30:00 PM 6.5 43.7 0.415 6.98 4.74 0.05
3/10/2021 2:45:00 PM 6.52 43.736 0.416 6.98 5.56 0.05
3/10/2021 3:00:00 PM 6.54 43.772 0.417 6.96 3.8 0.05
3/10/2021 3:15:00 PM 6.56 43.808 0.419 6.96 3.58 0.05
3/10/2021 3:30:00 PM 6.58 43.844 0.421 6.95 4.36 0.05
3/10/2021 3:45:00 PM 6.61 43.898 0.423 6.96 5.97 0.05
3/10/2021 4:00:00 PM 6.63 43.934 0.425 6.96 4.1 0.05
3/10/2021 4:15:00 PM 6.66 43.988 0.426 6.97 3.81 0.05
3/10/2021 4:30:00 PM 6.69 44.042 0.428 6.97 3.35 0.05
3/10/2021 4:45:00 PM 6.72 44.096 0.429 6.99 3.56 0.05
3/10/2021 5:00:00 PM 6.75 44.15 0.43 7 4.05 0.05
3/10/2021 5:15:00 PM 6.78 44.204 0.431 7 3.8 0.05
3/10/2021 5:30:00 PM 6.82 44.276 0.432 7.02 4.01 0.05
3/10/2021 5:45:00 PM 6.84 44.312 0.433 7.04 3.85 0.05
3/10/2021 6:00:00 PM 6.87 44.366 0.433 7.04 3.74 0.05
3/10/2021 6:15:00 PM 6.89 44.402 0.434 7.05 3.71 0.05
3/10/2021 6:30:00 PM 6.92 44.456 0.434 7.05 3.49 0.05
3/10/2021 6:45:00 PM 6.94 44.492 0.435 7.06 3.5 0.05
3/10/2021 7:00:00 PM 6.97 44.546 0.435 7.06 3.36 0.05
3/10/2021 7:15:00 PM 6.99 44.582 0.435 7.06 3.44 0.05
3/10/2021 7:30:00 PM 7.01 44.618 0.436 7.07 3.66 0.05
3/10/2021 7:45:00 PM 7.03 44.654 0.436 7.07 3.33 0.05
3/10/2021 8:00:00 PM 7.05 44.69 0.437 7.07 3.32 0.05
3/10/2021 8:15:00 PM 7.08 44.744 0.438 7.07 3.39 0.05
3/10/2021 8:30:00 PM 7.1 44.78 0.439 7.07 3.35 0.05
3/10/2021 8:45:00 PM 7.12 44.816 0.44 7.07 3.27 0.05
3/10/2021 9:00:00 PM 7.15 44.87 0.441 7.06 3.52 0.05
3/10/2021 9:15:00 PM 7.17 44.906 0.442 7.07 3.61 0.05
3/10/2021 9:30:00 PM 7.19 44.942 0.442 7.07 3.85 0.05
3/10/2021 9:45:00 PM 7.22 44.996 0.443 7.08 4.04 0.05
3/10/2021 10:00:00 PM 7.24 45.032 0.443 7.08 3.88 0.05
3/10/2021 10:15:00 PM 7.27 45.086 0.444 7.08 4.51 0.05
3/10/2021 10:30:00 PM 7.29 45.122 0.444 7.09 4.42 0.05
3/10/2021 10:45:00 PM 7.31 45.158 0.444 7.1 4.03 0.05
3/10/2021 11:00:00 PM 7.34 45.212 0.444 7.11 4.12 0.05
3/10/2021 11:15:00 PM 7.36 45.248 0.444 7.11 4.19 0.05
3/10/2021 11:30:00 PM 7.37 45.266 0.445 7.12 4.17 0.05
3/10/2021 11:45:00 PM 7.39 45.302 0.445 7.12 3.99 0.05
3/11/2021 12:00:00 AM 7.41 45.338 0.445 7.13 4.33 0.05
3/11/2021 12:15:00 AM 7.43 45.374 0.446 7.14 3.78 0.05
3/11/2021 12:30:00 AM 7.44 45.392 0.446 7.15 3.62 0.05
3/11/2021 12:45:00 AM 7.46 45.428 0.446 7.16 3.74 0.05
3/11/2021 1:00:00 AM 7.47 45.446 0.447 7.17 3.61 0.05
3/11/2021 1:15:00 AM 7.49 45.482 0.448 7.18 3.8 0.05
3/11/2021 1:30:00 AM 7.5 45.5 0.448 7.18 5.44 0.05
3/11/2021 1:45:00 AM 7.52 45.536 0.449 7.19 4.84 0.05
3/11/2021 2:00:00 AM 7.54 45.572 0.449 7.2 5.08 0.05
3/11/2021 2:15:00 AM 7.55 45.59 0.45 7.21 5.45 0.05
3/11/2021 2:30:00 AM 7.57 45.626 0.45 7.22 5.35 0.05
3/11/2021 2:45:00 AM 7.58 45.644 0.451 7.23 5.04 0.05
3/11/2021 3:00:00 AM 7.59 45.662 0.452 7.24 4.85 0.05
3/11/2021 3:15:00 AM 7.61 45.698 0.452 7.25 4.75 0.05
3/11/2021 3:30:00 AM 7.62 45.716 0.453 7.27 4.43 0.05
3/11/2021 3:45:00 AM 7.64 45.752 0.453 7.27 5.33 0.05
3/11/2021 4:00:00 AM 7.65 45.77 0.454 7.28 4.55 0.04
3/11/2021 4:15:00 AM 7.66 45.788 0.454 7.29 4.38 0.05
3/11/2021 4:30:00 AM 7.67 45.806 0.455 7.3 4.55 0.05
3/11/2021 4:45:00 AM 7.68 45.824 0.455 7.31 4.7 0.05
3/11/2021 5:00:00 AM 7.68 45.824 0.455 7.31 4.23 0.05
3/11/2021 5:15:00 AM 7.69 45.842 0.456 7.32 4.73 0.05
3/11/2021 5:30:00 AM 7.7 45.86 0.456 7.33 10.14 0.05
3/11/2021 5:45:00 AM 7.71 45.878 0.456 7.34 16.67 0.05
3/11/2021 6:00:00 AM 7.71 45.878 0.457 7.34 16.73 0.05
3/11/2021 6:15:00 AM 7.72 45.896 0.457 7.35 35.23 0.05
3/11/2021 6:30:00 AM 7.73 45.914 0.458 7.36 31.67 0.05
3/11/2021 6:45:00 AM 7.73 45.914 0.458 7.36 27.26 0.05
3/11/2021 7:00:00 AM 7.73 45.914 0.459 7.37 24.35 0.05
3/11/2021 7:15:00 AM 7.74 45.932 0.459 7.38 22.64 0.05
3/11/2021 7:30:00 AM 7.74 45.932 0.459 7.38 21.29 0.05
3/11/2021 7:45:00 AM 7.75 45.95 0.46 7.39 3.45 0.05
3/11/2021 8:00:00 AM 7.75 45.95 0.46 7.4 3.45 0.05
3/11/2021 8:15:00 AM 7.75 45.95 0.461 7.4 3.31 0.05
3/11/2021 8:30:00 AM 7.76 45.968 0.461 7.4 3.38 0.05
3/11/2021 8:45:00 AM 7.76 45.968 0.461 7.41 3.43 0.05
3/11/2021 9:00:00 AM 7.76 45.968 0.461 7.41 3.34 0.05
3/11/2021 9:15:00 AM 7.76 45.968 0.462 7.41 3.69 0.05
3/11/2021 9:30:00 AM 7.76 45.968 0.462 7.41 3.42 0.05
3/11/2021 9:45:00 AM 7.76 45.968 0.462 7.41 3.32 0.05
3/11/2021 10:00:00 AM 7.77 45.986 0.462 7.41 3.48 0.05
3/11/2021 10:15:00 AM 7.77 45.986 0.462 7.41 3.39 0.05
3/11/2021 10:30:00 AM 7.77 45.986 0.462 7.41 4.17 0.05
3/11/2021 10:45:00 AM 18.75 65.75 0 5.28 0.88 8.7
3/11/2021 11:00:00 AM 23.35 74.03 0 6.34 0.44 7.95
3/11/2021 11:15:00 AM 9.48 49.064 0.367 6.08 10.62 10.42
3/11/2021 11:30:00 AM 9.35 48.83 0.367 7.47 3.98 10.99
3/11/2021 11:45:00 AM 9.47 49.046 0.367 7.79 3.34 10.96
3/11/2021 12:00:00 PM 9.61 49.298 0.367 7.89 2.98 10.95
3/11/2021 12:15:00 PM 9.76 49.568 0.367 7.91 3.53 10.95
3/11/2021 12:30:00 PM 9.86 49.748 0.367 7.88 3.56 10.93
3/11/2021 12:45:00 PM 10 50 0.367 7.89 4.01 10.93
3/11/2021 1:00:00 PM 10.18 50.324 0.367 7.93 3.07 10.93
3/11/2021 1:15:00 PM 10.33 50.594 0.367 7.97 2.79 10.95
3/11/2021 1:30:00 PM 10.42 50.756 0.367 8 3.15 10.93
3/11/2021 1:45:00 PM 10.57 51.026 0.368 8.05 2.97 10.92
3/11/2021 2:00:00 PM 10.69 51.242 0.368 8.05 3.27 10.9
3/11/2021 2:15:00 PM 10.8 51.44 0.368 8.05 2.93 10.9
3/11/2021 2:30:00 PM 10.9 51.62 0.368 8.06 3.18 10.89
3/11/2021 2:45:00 PM 10.85 51.53 0.368 8.07 2.48 10.86
3/11/2021 3:00:00 PM 10.79 51.422 0.368 8.08 2.69 10.82
3/11/2021 3:15:00 PM 10.76 51.368 0.368 8.09 3.13 10.82
3/11/2021 3:30:00 PM 10.71 51.278 0.369 8.11 2.98 10.78
3/11/2021 3:45:00 PM 10.72 51.296 0.369 8.12 3.26 10.77
3/11/2021 4:00:00 PM 10.73 51.314 0.369 8.12 2.71 10.74
3/11/2021 4:15:00 PM 10.68 51.224 0.369 8.12 3.68 10.71
3/11/2021 4:30:00 PM 10.68 51.224 0.369 8.1 2.66 10.69
3/11/2021 4:45:00 PM 10.67 51.206 0.369 8.09 3.04 10.65
3/11/2021 5:00:00 PM 10.67 51.206 0.369 8.09 2.64 10.58
3/11/2021 5:15:00 PM 10.68 51.224 0.369 8.09 3.27 10.53
3/11/2021 5:30:00 PM 10.71 51.278 0.369 8.09 2.91 10.47
3/11/2021 5:45:00 PM 10.75 51.35 0.369 8.09 3.37 10.44
3/11/2021 6:00:00 PM 10.8 51.44 0.369 8.09 3.09 10.42
3/11/2021 6:15:00 PM 10.84 51.512 0.368 8.1 2.78 10.36
3/11/2021 6:30:00 PM 10.89 51.602 0.368 8.1 3.13 10.36
3/11/2021 6:45:00 PM 10.93 51.674 0.368 8.1 3 10.34
3/11/2021 7:00:00 PM 10.98 51.764 0.368 8.12 3.2 10.32
3/11/2021 7:15:00 PM 11.01 51.818 0.368 8.12 3.05 10.31
3/11/2021 7:30:00 PM 11.04 51.872 0.368 8.11 2.89 10.31
3/11/2021 7:45:00 PM 11.09 51.962 0.368 8.11 3.59 10.27
3/11/2021 8:00:00 PM 11.14 52.052 0.368 8.11 3.42 10.29
3/11/2021 8:15:00 PM 11.17 52.106 0.368 8.1 3.42 10.28
3/11/2021 8:30:00 PM 11.19 52.142 0.368 8.09 2.96 10.27
3/11/2021 8:45:00 PM 11.21 52.178 0.368 8.1 3.12 10.27
3/11/2021 9:00:00 PM 11.23 52.214 0.368 8.09 3.72 10.25
3/11/2021 9:15:00 PM 11.23 52.214 0.368 8.1 3.25 10.28
3/11/2021 9:30:00 PM 11.25 52.25 0.368 8.1 3.37 10.25
3/11/2021 9:45:00 PM 11.25 52.25 0.368 8.09 3 10.27
3/11/2021 10:00:00 PM 11.26 52.268 0.368 8.08 3.05 10.25
3/11/2021 10:15:00 PM 11.26 52.268 0.368 8.09 2.95 10.26
3/11/2021 10:30:00 PM 11.26 52.268 0.368 8.08 3.53 10.25
3/11/2021 10:45:00 PM 11.26 52.268 0.368 8.08 3.14 10.26
3/11/2021 11:00:00 PM 11.26 52.268 0.368 8.08 2.97 10.23
3/11/2021 11:15:00 PM 11.25 52.25 0.368 8.07 3.12 10.25
3/11/2021 11:30:00 PM 11.24 52.232 0.368 8.08 2.84 10.22
3/11/2021 11:45:00 PM 11.22 52.196 0.368 8.07 3.28 10.23
3/12/2021 12:00:00 AM 11.22 52.196 0.368 8.08 3.74 10.2
3/12/2021 12:15:00 AM 11.22 52.196 0.367 8.08 2.91 10.18
3/12/2021 12:30:00 AM 11.21 52.178 0.368 8.06 3.2 10.17
3/12/2021 12:45:00 AM 11.22 52.196 0.368 8.06 3.18 10.15
3/12/2021 1:00:00 AM 11.21 52.178 0.368 8.06 3.32 10.12
3/12/2021 1:15:00 AM 11.21 52.178 0.368 8.05 2.93 10.11
3/12/2021 1:30:00 AM 11.2 52.16 0.367 8.06 3.88 10.1
3/12/2021 1:45:00 AM 11.19 52.142 0.367 8.05 3.38 10.11
3/12/2021 2:00:00 AM 11.17 52.106 0.367 8.04 3.01 10.09
3/12/2021 2:15:00 AM 11.15 52.07 0.366 8.04 2.89 10.06
3/12/2021 2:30:00 AM 11.13 52.034 0.366 8.04 2.76 10.05
3/12/2021 2:45:00 AM 11.11 51.998 0.366 8.03 3.49 10.01
3/12/2021 3:00:00 AM 11.09 51.962 0.366 8.03 2.89 10.02
3/12/2021 3:15:00 AM 11.07 51.926 0.366 8.02 3.88 10.03
3/12/2021 3:30:00 AM 11.06 51.908 0.366 8.02 3.31 10.02
3/12/2021 3:45:00 AM 11.04 51.872 0.366 8.02 3.01 10
3/12/2021 4:00:00 AM 11.02 51.836 0.366 8.02 2.85 9.99
3/12/2021 4:15:00 AM 10.99 51.782 0.366 8.02 3.59 9.99
3/12/2021 4:30:00 AM 10.97 51.746 0.366 8.01 3.67 9.96
3/12/2021 4:45:00 AM 10.96 51.728 0.367 8.01 3.74 9.93
3/12/2021 5:00:00 AM 10.94 51.692 0.366 8 3.79 9.94
3/12/2021 5:15:00 AM 10.93 51.674 0.366 8 3.43 9.93
3/12/2021 5:30:00 AM 10.92 51.656 0.366 8 3.17 9.89
3/12/2021 5:45:00 AM 10.9 51.62 0.366 7.99 3.83 9.92
3/12/2021 6:00:00 AM 10.89 51.602 0.366 7.99 2.89 9.91
3/12/2021 6:15:00 AM 10.88 51.584 0.366 7.99 3.33 9.91
3/12/2021 6:30:00 AM 10.87 51.566 0.366 7.99 3.42 9.91
3/12/2021 6:45:00 AM 10.87 51.566 0.366 8 3.55 9.9
3/12/2021 7:00:00 AM 10.86 51.548 0.366 7.99 3.23 9.9
3/12/2021 7:15:00 AM 10.85 51.53 0.366 7.99 2.84 9.88
3/12/2021 7:30:00 AM 10.84 51.512 0.367 8 2.76 9.9
3/12/2021 7:45:00 AM 10.83 51.494 0.366 7.99 3.41 9.95
3/12/2021 8:00:00 AM 10.83 51.494 0.366 7.99 2.88 9.97
3/12/2021 8:15:00 AM 10.84 51.512 0.366 7.99 3.01 10.01
3/12/2021 8:30:00 AM 10.85 51.53 0.366 7.99 3.06 10.04
3/12/2021 8:45:00 AM 10.9 51.62 0.367 7.99 3.45 10.13
3/12/2021 9:00:00 AM 10.89 51.602 0.367 8 3.71 10.13
3/12/2021 9:15:00 AM 10.88 51.584 0.367 8 3.02 10.19
3/12/2021 9:30:00 AM 10.94 51.692 0.367 8.01 3.48 10.21
3/12/2021 9:45:00 AM 11 51.8 0.367 8.01 3 10.2
3/12/2021 10:00:00 AM 11.05 51.89 0.367 8.02 2.65 10.22
3/12/2021 10:15:00 AM 11.14 52.052 0.367 8.02 2.47 10.29
3/12/2021 10:30:00 AM 11.2 52.16 0.367 8.03 2.74 10.28
3/12/2021 10:45:00 AM 11.26 52.268 0.367 8.03 2.77 10.35
3/12/2021 11:00:00 AM 11.35 52.43 0.367 8.03 2.95 10.34
3/12/2021 11:15:00 AM 11.43 52.574 0.368 8.04 2.78 10.39
3/12/2021 11:30:00 AM 11.52 52.736 0.368 8.04 2.5 10.41
3/12/2021 11:45:00 AM 11.65 52.97 0.368 8.04 3.37 10.38
3/12/2021 12:00:00 PM 11.77 53.186 0.368 8.05 2.72 10.42
3/12/2021 12:15:00 PM 11.94 53.492 0.368 8.06 2.33 10.38
3/12/2021 12:30:00 PM 12.09 53.762 0.368 8.06 2.6 10.43
3/12/2021 12:45:00 PM 12.24 54.032 0.368 8.07 2.71 10.42
3/12/2021 1:00:00 PM 12.38 54.284 0.368 8.07 4.05 10.41
3/12/2021 1:15:00 PM 12.52 54.536 0.369 8.07 2.32 10.43
3/12/2021 1:30:00 PM 12.66 54.788 0.369 8.07 2.47 10.42
3/12/2021 1:45:00 PM 12.74 54.932 0.369 8.08 2.58 10.41
3/12/2021 2:00:00 PM 12.82 55.076 0.369 8.08 2.39 10.43
3/12/2021 2:15:00 PM 12.91 55.238 0.369 8.09 2.27 10.41
3/12/2021 2:30:00 PM 12.99 55.382 0.369 8.09 2.98 10.4
3/12/2021 2:45:00 PM 13.02 55.436 0.369 8.09 2.53 10.38
3/12/2021 3:00:00 PM 12.97 55.346 0.369 8.1 2.45 10.34
3/12/2021 3:15:00 PM 12.99 55.382 0.369 8.1 2.78 10.36
3/12/2021 3:30:00 PM 13.01 55.418 0.37 8.11 2.54 10.34
3/12/2021 3:45:00 PM 13 55.4 0.37 8.12 2.74 10.33
3/12/2021 4:00:00 PM 12.95 55.31 0.37 8.13 2.52 10.27
3/12/2021 4:15:00 PM 12.93 55.274 0.371 8.14 2.86 10.3
3/12/2021 4:30:00 PM 12.87 55.166 0.371 8.14 2.72 10.25
3/12/2021 4:45:00 PM 12.79 55.022 0.371 8.13 3.29 10.24
3/12/2021 5:00:00 PM 12.74 54.932 0.371 8.14 2.66 10.2
3/12/2021 5:15:00 PM 12.67 54.806 0.371 8.14 3.06 10.14
3/12/2021 5:30:00 PM 12.62 54.716 0.371 8.14 2.92 10.07
3/12/2021 5:45:00 PM 12.58 54.644 0.371 8.14 2.42 10.04
3/12/2021 6:00:00 PM 12.56 54.608 0.371 8.14 2.43 9.98
3/12/2021 6:15:00 PM 12.55 54.59 0.371 8.14 2.29 9.93
3/12/2021 6:30:00 PM 12.55 54.59 0.371 8.14 2.77 9.89
3/12/2021 6:45:00 PM 12.55 54.59 0.371 8.14 2.83 9.86
3/12/2021 7:00:00 PM 12.55 54.59 0.372 8.13 2.89 9.83
3/12/2021 7:15:00 PM 12.55 54.59 0.372 8.13 3.09 9.81
3/12/2021 7:30:00 PM 12.57 54.626 0.372 8.13 2.78 9.8
3/12/2021 7:45:00 PM 12.58 54.644 0.372 8.14 2.62 9.79
3/12/2021 8:00:00 PM 12.59 54.662 0.373 8.14 3.76 9.79
3/12/2021 8:15:00 PM 12.59 54.662 0.373 8.14 3.57 9.78
3/12/2021 8:30:00 PM 12.6 54.68 0.374 8.15 2.77 9.79
3/12/2021 8:45:00 PM 12.59 54.662 0.374 8.15 2.74 9.78
3/12/2021 9:00:00 PM 12.58 54.644 0.374 8.16 3.34 9.82
3/12/2021 9:15:00 PM 12.59 54.662 0.373 8.17 3.16 9.81
3/12/2021 9:30:00 PM 12.58 54.644 0.373 8.17 3.12 9.8
3/12/2021 9:45:00 PM 12.56 54.608 0.373 8.18 3.01 9.82
3/12/2021 10:00:00 PM 12.54 54.572 0.373 8.18 2.96 9.81
3/12/2021 10:15:00 PM 12.52 54.536 0.372 8.19 3.18 9.82
3/12/2021 10:30:00 PM 12.48 54.464 0.372 8.19 2.75 9.81
3/12/2021 10:45:00 PM 12.44 54.392 0.372 8.19 3.27 9.78
3/12/2021 11:00:00 PM 12.4 54.32 0.372 8.19 2.68 9.82
3/12/2021 11:15:00 PM 12.35 54.23 0.372 8.19 3.31 9.83
3/12/2021 11:30:00 PM 12.29 54.122 0.372 8.19 2.95 9.84
3/12/2021 11:45:00 PM 12.23 54.014 0.372 8.19 3.09 9.85
3/13/2021 12:00:00 AM 12.18 53.924 0.372 8.19 3.79 9.84
3/13/2021 12:15:00 AM 12.12 53.816 0.372 8.19 3.17 9.85
3/13/2021 12:30:00 AM 12.07 53.726 0.372 8.18 2.94 9.83
3/13/2021 12:45:00 AM 12 53.6 0.372 8.17 2.84 9.85
3/13/2021 1:00:00 AM 11.95 53.51 0.372 8.17 3.35 9.84
3/13/2021 1:15:00 AM 11.89 53.402 0.372 8.17 3.09 9.86
3/13/2021 1:30:00 AM 11.82 53.276 0.372 8.16 2.35 9.82
3/13/2021 1:45:00 AM 11.74 53.132 0.372 8.16 2.94 9.84
3/13/2021 2:00:00 AM 11.68 53.024 0.371 8.16 4.34 9.83
3/13/2021 2:15:00 AM 11.61 52.898 0.371 8.15 3.75 9.84
3/13/2021 2:30:00 AM 11.52 52.736 0.371 8.15 3.64 9.82
3/13/2021 2:45:00 AM 11.46 52.628 0.371 8.15 3.66 9.84
3/13/2021 3:00:00 AM 11.38 52.484 0.371 8.15 4.54 9.83
3/13/2021 3:15:00 AM 11.29 52.322 0.371 8.14 2.75 9.84
3/13/2021 3:30:00 AM 11.22 52.196 0.371 8.14 2.67 9.82
3/13/2021 3:45:00 AM 11.14 52.052 0.371 8.14 3.11 9.83
3/13/2021 4:00:00 AM 11.04 51.872 0.371 8.13 3.75 9.85
3/13/2021 4:15:00 AM 10.95 51.71 0.371 8.13 3.22 9.84
3/13/2021 4:30:00 AM 10.86 51.548 0.371 8.13 3.66 9.83
3/13/2021 4:45:00 AM 10.81 51.458 0.371 8.13 3.37 9.84
3/13/2021 5:00:00 AM 10.75 51.35 0.37 8.12 2.94 9.86
3/13/2021 5:15:00 AM 10.68 51.224 0.37 8.12 3.48 9.84
3/13/2021 5:30:00 AM 10.62 51.116 0.371 8.12 4.07 9.86
3/13/2021 5:45:00 AM 10.55 50.99 0.371 8.12 3.78 9.85
3/13/2021 6:00:00 AM 10.48 50.864 0.371 8.11 3.56 9.86
3/13/2021 6:15:00 AM 10.4 50.72 0.371 8.11 2.84 9.89
3/13/2021 6:30:00 AM 10.34 50.612 0.371 8.12 3.67 9.88
3/13/2021 6:45:00 AM 10.29 50.522 0.37 8.12 3.07 9.89
3/13/2021 7:00:00 AM 10.24 50.432 0.37 8.12 2.86 9.91
3/13/2021 7:15:00 AM 10.2 50.36 0.37 8.13 3.68 9.92
3/13/2021 7:30:00 AM 10.15 50.27 0.37 8.13 2.48 9.96
3/13/2021 7:45:00 AM 10.1 50.18 0.371 8.13 6.06 9.97
3/13/2021 8:00:00 AM 10.08 50.144 0.371 8.13 3.17 10.02
3/13/2021 8:15:00 AM 10.05 50.09 0.371 8.13 2.7 10.07
3/13/2021 8:30:00 AM 10.04 50.072 0.371 8.13 3.86 10.13
3/13/2021 8:45:00 AM 10.02 50.036 0.371 8.14 3.4 10.16
3/13/2021 9:00:00 AM 10.03 50.054 0.371 8.14 3.61 10.24
3/13/2021 9:15:00 AM 10.04 50.072 0.371 8.15 2.63 10.28
3/13/2021 9:30:00 AM 10.05 50.09 0.371 8.16 3.16 10.34
3/13/2021 9:45:00 AM 10.08 50.144 0.371 8.16 3.31 10.34
3/13/2021 10:00:00 AM 10.08 50.144 0.371 8.16 3.04 10.42
3/13/2021 10:15:00 AM 10.16 50.288 0.371 8.17 3.02 10.47
3/13/2021 10:30:00 AM 10.23 50.414 0.371 8.17 3.2 10.52
3/13/2021 10:45:00 AM 10.3 50.54 0.371 8.18 2.94 10.54
3/13/2021 11:00:00 AM 10.38 50.684 0.371 8.18 2.96 10.56
3/13/2021 11:15:00 AM 10.47 50.846 0.371 8.18 2.97 10.57
3/13/2021 11:30:00 AM 10.56 51.008 0.371 8.19 2.13 10.59
3/13/2021 11:45:00 AM 10.66 51.188 0.371 8.19 2.16 10.62
3/13/2021 12:00:00 PM 10.79 51.422 0.371 8.19 2.68 10.65
3/13/2021 12:15:00 PM 10.91 51.638 0.371 8.2 2.39 10.66
3/13/2021 12:30:00 PM 11.09 51.962 0.371 8.19 2.56 10.66
3/13/2021 12:45:00 PM 11.18 52.124 0.371 8.2 2.13 10.68
3/13/2021 1:00:00 PM 11.32 52.376 0.371 8.2 3.85 10.69
3/13/2021 1:15:00 PM 11.44 52.592 0.371 8.2 2.93 10.69
3/13/2021 1:30:00 PM 11.52 52.736 0.372 8.2 2.26 10.72
3/13/2021 1:45:00 PM 11.63 52.934 0.372 8.2 2.65 10.73
3/13/2021 2:00:00 PM 11.71 53.078 0.371 8.2 4.22 10.72
3/13/2021 2:15:00 PM 11.77 53.186 0.372 8.21 2.2 10.65
3/13/2021 2:30:00 PM 11.79 53.222 0.372 8.21 2.44 10.71
3/13/2021 2:45:00 PM 11.8 53.24 0.371 8.19 2.04 10.71
3/13/2021 3:00:00 PM 11.8 53.24 0.372 8.19 2.32 10.71
3/13/2021 3:15:00 PM 11.8 53.24 0.372 8.2 14.22 10.66
3/13/2021 3:30:00 PM 11.77 53.186 0.372 8.21 2.15 10.7
3/13/2021 3:45:00 PM 11.72 53.096 0.373 8.21 2.08 10.69
3/13/2021 4:00:00 PM 11.62 52.916 0.372 8.21 2.92 10.68
3/13/2021 4:15:00 PM 11.52 52.736 0.372 8.22 3.04 10.68
3/13/2021 4:30:00 PM 11.43 52.574 0.372 8.22 2.4 10.64
3/13/2021 4:45:00 PM 11.3 52.34 0.372 8.22 2.12 10.6
3/13/2021 5:00:00 PM 11.18 52.124 0.373 8.21 3.52 10.53
3/13/2021 5:15:00 PM 11.1 51.98 0.373 8.22 2.76 10.51
3/13/2021 5:30:00 PM 11.04 51.872 0.373 8.22 2.21 10.48
3/13/2021 5:45:00 PM 10.99 51.782 0.374 8.22 1.99 10.43
3/13/2021 6:00:00 PM 10.94 51.692 0.374 8.21 2.45 10.4
3/13/2021 6:15:00 PM 10.91 51.638 0.374 8.21 2.71 10.36
3/13/2021 6:30:00 PM 10.9 51.62 0.374 8.22 1.76 10.32
3/13/2021 6:45:00 PM 10.9 51.62 0.374 8.21 2.82 10.28
3/13/2021 7:00:00 PM 10.89 51.602 0.374 8.21 2 10.24
3/13/2021 7:15:00 PM 10.91 51.638 0.374 8.21 3.72 10.22
3/13/2021 7:30:00 PM 10.92 51.656 0.374 8.21 5.53 10.2
3/13/2021 7:45:00 PM 10.93 51.674 0.374 8.21 2.39 10.17
3/13/2021 8:00:00 PM 10.96 51.728 0.375 8.22 2.78 10.21
3/13/2021 8:15:00 PM 10.97 51.746 0.375 8.23 2.54 10.2
3/13/2021 8:30:00 PM 10.97 51.746 0.375 8.23 2.56 10.19
3/13/2021 8:45:00 PM 11.01 51.818 0.376 8.23 3.3 10.2
3/13/2021 9:00:00 PM 11.02 51.836 0.376 8.23 3.17 10.2
3/13/2021 9:15:00 PM 11.03 51.854 0.376 8.24 2.44 10.19
3/13/2021 9:30:00 PM 11.05 51.89 0.376 8.24 2.57 10.22
3/13/2021 9:45:00 PM 11.05 51.89 0.376 8.24 3.25 10.23
3/13/2021 10:00:00 PM 11.04 51.872 0.376 8.25 3.25 10.23
3/13/2021 10:15:00 PM 11.02 51.836 0.375 8.25 3.24 10.24
3/13/2021 10:30:00 PM 11 51.8 0.375 8.26 2.76 10.25
3/13/2021 10:45:00 PM 10.97 51.746 0.375 8.26 3.1 10.26
3/13/2021 11:00:00 PM 10.93 51.674 0.375 8.25 3.16 10.26
3/13/2021 11:15:00 PM 10.9 51.62 0.375 8.25 2.62 10.25
3/13/2021 11:30:00 PM 10.87 51.566 0.375 8.25 2.49 10.28
3/13/2021 11:45:00 PM 10.81 51.458 0.376 8.25 3.64 10.26
3/14/2021 12:00:00 AM 10.77 51.386 0.376 8.25 2.64 10.26
3/14/2021 12:15:00 AM 10.73 51.314 0.376 8.24 2.41 10.29
3/14/2021 12:30:00 AM 10.67 51.206 0.376 8.24 2.92 10.28
3/14/2021 12:45:00 AM 10.61 51.098 0.376 8.24 3.22 10.29
3/14/2021 1:00:00 AM 10.56 51.008 0.375 8.24 2.92 10.27
3/14/2021 1:15:00 AM 10.5 50.9 0.375 8.23 2.95 10.28
3/14/2021 1:30:00 AM 10.45 50.81 0.375 8.23 3.39 10.26
3/14/2021 1:45:00 AM 10.39 50.702 0.375 8.23 2.96 10.27
3/14/2021 4:15:00 AM 10.02 50.036 0.376 8.2 2.72 10.25
3/14/2021 4:30:00 AM 9.96 49.928 0.376 8.2 2.81 10.26
3/14/2021 4:45:00 AM 9.89 49.802 0.376 8.19 2.47 10.24
3/14/2021 5:00:00 AM 9.82 49.676 0.376 8.18 2.63 10.25
3/14/2021 5:15:00 AM 9.76 49.568 0.376 8.17 2.73 10.22
3/14/2021 5:30:00 AM 9.68 49.424 0.376 8.17 2.68 10.24
3/14/2021 5:45:00 AM 9.62 49.316 0.376 8.17 3.07 10.23
3/14/2021 6:00:00 AM 9.56 49.208 0.376 8.17 2.33 10.23
3/14/2021 6:15:00 AM 9.5 49.1 0.376 8.17 3.08 10.23
3/14/2021 6:30:00 AM 9.45 49.01 0.376 8.16 2.81 10.22
3/14/2021 6:45:00 AM 9.38 48.884 0.376 8.16 4.2 10.24
3/14/2021 7:00:00 AM 9.33 48.794 0.376 8.15 2.78 10.24
3/14/2021 7:15:00 AM 9.28 48.704 0.376 8.15 2.93 10.22
3/14/2021 7:30:00 AM 9.22 48.596 0.376 8.15 2.68 10.24
3/14/2021 7:45:00 AM 9.17 48.506 0.376 8.15 3.27 10.23
3/14/2021 8:00:00 AM 9.14 48.452 0.376 8.15 2.75 10.24
3/14/2021 8:15:00 AM 9.09 48.362 0.376 8.16 3.14 10.28
3/14/2021 8:30:00 AM 9.04 48.272 0.376 8.16 2.1 10.3
3/14/2021 8:45:00 AM 9.01 48.218 0.375 8.15 2.79 10.33
3/14/2021 9:00:00 AM 8.99 48.182 0.375 8.15 2.59 10.36
3/14/2021 9:15:00 AM 8.99 48.182 0.376 8.15 2.23 10.42
3/14/2021 9:30:00 AM 8.99 48.182 0.375 8.16 3.29 10.48
3/14/2021 9:45:00 AM 9 48.2 0.375 8.16 2.68 10.52
3/14/2021 10:00:00 AM 9.02 48.236 0.375 8.16 2.48 10.58
3/14/2021 10:15:00 AM 9.04 48.272 0.375 8.17 2.43 10.63
3/14/2021 10:30:00 AM 9.07 48.326 0.375 8.17 1.98 10.67
3/14/2021 10:45:00 AM 9.09 48.362 0.375 8.17 3.11 10.67
3/14/2021 11:00:00 AM 9.12 48.416 0.375 8.18 2.73 10.77
3/14/2021 11:15:00 AM 9.17 48.506 0.375 8.18 2.54 10.8
3/14/2021 11:30:00 AM 9.25 48.65 0.375 8.18 2.94 10.82
3/14/2021 11:45:00 AM 9.32 48.776 0.375 8.18 3.07 10.85
3/14/2021 12:00:00 PM 9.39 48.902 0.375 8.18 2.33 10.88
3/14/2021 12:15:00 PM 9.5 49.1 0.375 8.17 3.06 10.89
3/14/2021 12:30:00 PM 9.61 49.298 0.375 8.18 2.55 10.91
3/14/2021 12:45:00 PM 9.7 49.46 0.375 8.19 2.34 10.93
3/14/2021 1:00:00 PM 9.83 49.694 0.375 8.18 2.25 10.95
3/14/2021 1:15:00 PM 9.94 49.892 0.376 8.19 3.19 10.95
3/14/2021 1:30:00 PM 10.05 50.09 0.376 8.19 2.36 10.97
3/14/2021 1:45:00 PM 10.15 50.27 0.376 8.19 2.88 10.96
3/14/2021 2:00:00 PM 10.26 50.468 0.376 8.2 2.65 10.98
3/14/2021 2:15:00 PM 10.38 50.684 0.376 8.21 2.9 10.99
3/14/2021 2:30:00 PM 10.48 50.864 0.376 8.21 2.47 11
3/14/2021 2:45:00 PM 10.57 51.026 0.376 8.21 2.67 11.01
3/14/2021 3:00:00 PM 10.61 51.098 0.376 8.22 2.4 10.99
3/14/2021 3:15:00 PM 10.66 51.188 0.376 8.22 2.7 11
3/14/2021 3:30:00 PM 10.69 51.242 0.376 8.22 2.45 11
3/14/2021 3:45:00 PM 10.69 51.242 0.376 8.23 2.65 11.02
3/14/2021 4:00:00 PM 10.7 51.26 0.377 8.23 2.56 10.99
3/14/2021 4:15:00 PM 10.68 51.224 0.377 8.23 2.5 10.99
3/14/2021 4:30:00 PM 10.66 51.188 0.376 8.24 2.48 10.98
3/14/2021 4:45:00 PM 10.65 51.17 0.376 8.24 2.96 10.98
3/14/2021 5:00:00 PM 10.6 51.08 0.377 8.24 2.84 10.93
3/14/2021 5:15:00 PM 10.5 50.9 0.378 8.25 2.21 10.91
3/14/2021 5:30:00 PM 10.39 50.702 0.378 8.25 2.59 10.91
3/14/2021 5:45:00 PM 10.26 50.468 0.379 8.24 3.08 10.87
3/14/2021 6:00:00 PM 10.13 50.234 0.379 8.26 2.21 10.83
3/14/2021 6:15:00 PM 10.03 50.054 0.379 8.26 2.94 10.78
3/14/2021 6:30:00 PM 9.94 49.892 0.378 8.26 2.59 10.74
3/14/2021 6:45:00 PM 9.88 49.784 0.379 8.26 2.92 10.68
3/14/2021 7:00:00 PM 9.81 49.658 0.379 8.26 3.05 10.63
3/14/2021 7:15:00 PM 9.78 49.604 0.379 8.26 3.07 10.59
3/14/2021 7:30:00 PM 9.76 49.568 0.38 8.26 2.93 10.55
3/14/2021 7:45:00 PM 9.74 49.532 0.38 8.25 2.37 10.52
3/14/2021 8:00:00 PM 9.73 49.514 0.381 8.25 2.33 10.47
3/14/2021 8:15:00 PM 9.73 49.514 0.381 8.25 2.93 10.45
3/14/2021 8:30:00 PM 9.72 49.496 0.381 8.25 2.8 10.44
3/14/2021 8:45:00 PM 9.72 49.496 0.381 8.25 2.7 10.45
3/14/2021 9:00:00 PM 9.71 49.478 0.381 8.25 2.52 10.44
3/14/2021 9:15:00 PM 9.72 49.496 0.381 8.25 2.43 10.44
3/14/2021 9:30:00 PM 9.71 49.478 0.381 8.26 2.54 10.46
3/14/2021 9:45:00 PM 9.7 49.46 0.382 8.26 3.1 10.46
3/14/2021 10:00:00 PM 9.69 49.442 0.382 8.26 3.17 10.46
3/14/2021 10:15:00 PM 9.66 49.388 0.382 8.26 3.47 10.45
3/14/2021 10:30:00 PM 9.65 49.37 0.382 8.26 3.23 10.46
3/14/2021 10:45:00 PM 9.62 49.316 0.382 8.27 2.56 10.49
3/14/2021 11:00:00 PM 9.61 49.298 0.382 8.27 2.66 10.48
3/14/2021 11:15:00 PM 9.6 49.28 0.382 8.28 2.61 10.49
3/14/2021 11:30:00 PM 9.57 49.226 0.382 8.28 2.81 10.49
3/14/2021 11:45:00 PM 9.55 49.19 0.382 8.28 2.62 10.52
3/15/2021 12:00:00 AM 9.51 49.118 0.382 8.28 3.53 10.49
3/15/2021 12:15:00 AM 9.43 48.974 0.382 8.28 3 10.54
3/15/2021 12:30:00 AM 9.35 48.83 0.382 8.28 2.71 10.54
3/15/2021 12:45:00 AM 9.27 48.686 0.382 8.29 3.56 10.53
3/15/2021 1:00:00 AM 9.19 48.542 0.382 8.29 3.29 10.57
3/15/2021 1:15:00 AM 9.13 48.434 0.381 8.29 2.73 10.57
3/15/2021 1:30:00 AM 9.07 48.326 0.382 8.28 3.08 10.59
3/15/2021 1:45:00 AM 9.01 48.218 0.382 8.28 3.29 10.61
3/15/2021 2:00:00 AM 8.95 48.11 0.382 8.29 2.89 10.62
3/15/2021 2:15:00 AM 8.89 48.002 0.382 8.29 3.05 10.62
3/15/2021 2:30:00 AM 8.83 47.894 0.382 8.29 2.96 10.62
3/15/2021 2:45:00 AM 8.76 47.768 0.382 8.28 2.38 10.64
3/15/2021 3:00:00 AM 8.69 47.642 0.382 8.27 3.12 10.65
3/15/2021 3:15:00 AM 8.62 47.516 0.382 8.27 2.93 10.66
3/15/2021 3:30:00 AM 8.54 47.372 0.382 8.26 3.37 10.66
3/15/2021 3:45:00 AM 8.46 47.228 0.382 8.25 2.78 10.68
3/15/2021 4:00:00 AM 8.36 47.048 0.382 8.24 3.45 10.69
3/15/2021 4:15:00 AM 8.29 46.922 0.382 8.24 2.82 10.7
3/15/2021 4:30:00 AM 8.2 46.76 0.382 8.24 2.73 10.71
3/15/2021 4:45:00 AM 8.14 46.652 0.379 8.23 2.25 10.71
3/15/2021 5:00:00 AM 8.07 46.526 0.382 8.23 4.21 10.71
3/15/2021 5:15:00 AM 7.99 46.382 0.382 8.23 2.83 10.73
3/15/2021 5:30:00 AM 7.91 46.238 0.382 8.22 3.41 10.73
3/15/2021 5:45:00 AM 7.83 46.094 0.382 8.22 3.37 10.73
3/15/2021 6:00:00 AM 7.76 45.968 0.382 8.21 3.31 10.74
3/15/2021 6:15:00 AM 7.68 45.824 0.381 8.2 3.01 10.75
3/15/2021 6:30:00 AM 7.62 45.716 0.381 8.2 2.99 10.77
3/15/2021 6:45:00 AM 7.55 45.59 0.381 8.19 3.65 10.79
3/15/2021 7:00:00 AM 7.48 45.464 0.381 8.19 3.08 10.78
3/15/2021 7:15:00 AM 7.4 45.32 0.381 8.18 4.14 10.79
3/15/2021 7:30:00 AM 7.3 45.14 0.381 8.18 2.66 10.82
3/15/2021 7:45:00 AM 7.24 45.032 0.382 8.18 3.08 10.82
3/15/2021 8:00:00 AM 7.18 44.924 0.381 8.18 2.45 10.85
3/15/2021 8:15:00 AM 7.13 44.834 0.382 8.18 2.51 10.87
3/15/2021 8:30:00 AM 7.07 44.726 0.381 8.17 2.32 10.91
3/15/2021 8:45:00 AM 7.05 44.69 0.381 8.17 2.48 10.95
3/15/2021 9:00:00 AM 7.03 44.654 0.381 8.17 2.53 11
3/15/2021 9:15:00 AM 7.01 44.618 0.382 8.17 2.46 11.05
3/15/2021 9:30:00 AM 7 44.6 0.382 8.17 3.01 11.09
3/15/2021 9:45:00 AM 6.99 44.582 0.382 8.18 2.17 11.14
3/15/2021 10:00:00 AM 7 44.6 0.382 8.18 2.66 11.19
3/15/2021 10:15:00 AM 7.02 44.636 0.382 8.18 2.4 11.24
3/15/2021 10:30:00 AM 7.05 44.69 0.382 8.18 2.34 11.29
3/15/2021 10:45:00 AM 7.07 44.726 0.382 8.19 2.18 11.31
3/15/2021 11:00:00 AM 7.1 44.78 0.382 8.2 2.36 11.37
3/15/2021 11:15:00 AM 7.15 44.87 0.382 8.19 2.38 11.39
3/15/2021 11:30:00 AM 7.22 44.996 0.383 8.19 2.3 11.42
3/15/2021 11:45:00 AM 7.29 45.122 0.383 8.2 2.43 11.46
3/15/2021 12:00:00 PM 7.38 45.284 0.383 8.2 2.3 11.46
3/15/2021 12:15:00 PM 7.48 45.464 0.383 8.2 2.3 11.49
3/15/2021 12:30:00 PM 7.58 45.644 0.383 8.19 2.19 11.51
3/15/2021 12:45:00 PM 7.68 45.824 0.383 8.19 1.83 11.53
3/15/2021 1:00:00 PM 7.79 46.022 0.383 8.19 1.74 11.54
3/15/2021 1:15:00 PM 7.91 46.238 0.383 8.18 1.92 11.55
3/15/2021 1:30:00 PM 8.01 46.418 0.383 8.19 1.76 11.55
3/15/2021 1:45:00 PM 8.1 46.58 0.383 8.19 2.24 11.56
3/15/2021 2:00:00 PM 8.25 46.85 0.383 8.18 2.1 11.56
3/15/2021 2:15:00 PM 8.38 47.084 0.383 8.18 1.87 11.57
3/15/2021 2:30:00 PM 8.47 47.246 0.384 8.18 2.15 11.59
3/15/2021 2:45:00 PM 8.55 47.39 0.384 8.18 1.75 11.6
3/15/2021 3:00:00 PM 8.65 47.57 0.383 8.19 2.1 11.59
3/15/2021 3:15:00 PM 8.69 47.642 0.384 8.19 1.8 11.59
3/15/2021 3:30:00 PM 8.76 47.768 0.384 8.2 1.97 11.57
3/15/2021 3:45:00 PM 8.78 47.804 0.384 8.2 2.27 11.58
3/15/2021 4:00:00 PM 8.8 47.84 0.384 8.2 2.41 11.58
3/15/2021 4:15:00 PM 8.75 47.75 0.384 8.21 1.9 11.57
3/15/2021 4:30:00 PM 8.69 47.642 0.385 8.2 2 11.54
3/15/2021 4:45:00 PM 8.67 47.606 0.385 8.2 1.66 11.56
3/15/2021 5:00:00 PM 8.52 47.336 0.385 8.2 1.8 11.54
3/15/2021 5:15:00 PM 8.41 47.138 0.385 8.2 1.72 11.51
3/15/2021 5:30:00 PM 8.31 46.958 0.385 8.2 1.97 11.47
3/15/2021 5:45:00 PM 8.24 46.832 0.386 8.2 2.1 11.48
3/15/2021 6:00:00 PM 8.15 46.67 0.386 8.19 1.86 11.46
3/15/2021 6:15:00 PM 8.08 46.544 0.386 8.2 1.64 11.43
3/15/2021 6:30:00 PM 8.02 46.436 0.386 8.21 2.09 11.4
3/15/2021 6:45:00 PM 7.97 46.346 0.386 8.19 2.63 11.36
3/15/2021 7:00:00 PM 7.93 46.274 0.387 8.19 1.46 11.32
3/15/2021 7:15:00 PM 7.9 46.22 0.387 8.19 1.66 11.25
3/15/2021 7:30:00 PM 7.88 46.184 0.387 8.19 1.56 11.22
3/15/2021 7:45:00 PM 7.88 46.184 0.388 8.2 2.08 11.18
3/15/2021 8:00:00 PM 7.9 46.22 0.388 8.2 1.76 11.13
3/15/2021 8:15:00 PM 7.91 46.238 0.388 8.2 2.26 11.13
3/15/2021 8:30:00 PM 7.92 46.256 0.369 8.2 1.94 11.1
3/15/2021 8:45:00 PM 7.95 46.31 0.388 8.19 1.97 11.1
3/15/2021 9:00:00 PM 7.98 46.364 0.388 8.19 2.29 11.07
3/15/2021 9:15:00 PM 8.01 46.418 0.388 8.19 1.94 11.09
3/15/2021 9:30:00 PM 8.04 46.472 0.388 8.2 1.7 11.08
3/15/2021 9:45:00 PM 8.07 46.526 0.388 8.21 1.68 11.09
3/15/2021 10:00:00 PM 8.12 46.616 0.388 8.21 2.41 11.12
3/15/2021 10:15:00 PM 8.15 46.67 0.39 8.21 2.32 11.1
3/15/2021 10:30:00 PM 8.19 46.742 0.389 8.21 1.96 11.1
3/15/2021 10:45:00 PM 8.21 46.778 0.39 8.21 1.83 11.09
3/15/2021 11:00:00 PM 8.25 46.85 0.39 8.21 1.67 11.11
3/15/2021 11:15:00 PM 8.27 46.886 0.39 8.21 1.71 11.11
3/15/2021 11:30:00 PM 8.29 46.922 0.39 8.21 1.64 11.12
3/15/2021 11:45:00 PM 8.3 46.94 0.39 8.21 2.44 11.12
3/16/2021 12:00:00 AM 8.31 46.958 0.389 8.22 2.09 11.12
3/16/2021 12:15:00 AM 8.3 46.94 0.389 8.22 1.96 11.1
3/16/2021 12:30:00 AM 8.3 46.94 0.387 8.22 2.21 11.13
3/16/2021 12:45:00 AM 8.28 46.904 0.388 8.23 2.12 11.13
3/16/2021 1:00:00 AM 8.26 46.868 0.388 8.23 2.94 11.14
3/16/2021 1:15:00 AM 8.24 46.832 0.337 8.23 2.6 11.15
3/16/2021 1:30:00 AM 8.21 46.778 0.388 8.23 3.45 11.11
3/16/2021 1:45:00 AM 8.18 46.724 0.387 8.22 4.45 11.12
3/16/2021 2:00:00 AM 8.15 46.67 0.385 8.22 2.37 11.15
3/16/2021 2:15:00 AM 8.12 46.616 0.387 8.23 1.91 11.12
3/16/2021 2:30:00 AM 8.1 46.58 0.388 8.22 2.39 11.14
3/16/2021 2:45:00 AM 8.06 46.508 0.386 8.22 2.22 11.16
3/16/2021 3:00:00 AM 8.01 46.418 0.39 8.22 2.34 11.13
3/16/2021 3:15:00 AM 7.96 46.328 0.381 8.21 1.73 11.12
3/16/2021 3:30:00 AM 7.92 46.256 0.375 8.21 2.05 11.12
3/16/2021 3:45:00 AM 7.88 46.184 0.374 8.2 2.29 11.12
3/16/2021 4:00:00 AM 7.83 46.094 0.376 8.2 3.06 11.13
3/16/2021 4:15:00 AM 7.8 46.04 0.378 8.2 2.6 11.11
3/16/2021 4:30:00 AM 7.76 45.968 0.379 8.19 2.02 11.1
3/16/2021 4:45:00 AM 7.71 45.878 0.385 8.19 1.97 11.08
3/16/2021 5:00:00 AM 7.65 45.77 0.384 8.19 2.29 11.08
3/16/2021 5:15:00 AM 7.62 45.716 0.388 8.18 2.04 11.07
3/16/2021 5:30:00 AM 7.58 45.644 0.39 8.17 2.19 11.06
3/16/2021 5:45:00 AM 7.54 45.572 0.381 8.17 2.17 11.05
3/16/2021 6:00:00 AM 7.49 45.482 0.391 8.17 2.83 11.06
3/16/2021 6:15:00 AM 7.45 45.41 0.391 8.16 2.7 11.04
3/16/2021 6:30:00 AM 7.4 45.32 0.391 8.16 3.18 11.04
3/16/2021 6:45:00 AM 7.37 45.266 0.385 8.15 2.02 11.04
3/16/2021 7:00:00 AM 7.33 45.194 0.374 8.15 1.83 11.03
3/16/2021 7:15:00 AM 7.3 45.14 0.392 8.15 2.54 11.02
3/16/2021 7:30:00 AM 7.26 45.068 0.392 8.14 2.26 11.02
3/16/2021 7:45:00 AM 7.23 45.014 0.392 8.14 2.04 11.03
3/16/2021 8:00:00 AM 7.21 44.978 0.392 8.14 2.18 11
3/16/2021 8:15:00 AM 7.19 44.942 0.392 8.13 2.19 11
3/16/2021 8:30:00 AM 7.17 44.906 0.392 8.13 2.2 11.03
3/16/2021 8:45:00 AM 7.14 44.852 0.392 8.12 2.04 11.07
3/16/2021 9:00:00 AM 7.12 44.816 0.392 8.12 4.17 11.06
3/16/2021 9:15:00 AM 7.11 44.798 0.392 8.13 2.5 11.1
3/16/2021 9:30:00 AM 7.08 44.744 0.392 8.13 2.14 11.13
3/16/2021 9:45:00 AM 7.05 44.69 0.391 8.13 2.67 11.15
3/16/2021 10:00:00 AM 7.04 44.672 0.392 8.13 2.49 11.2
3/16/2021 10:15:00 AM 7.03 44.654 0.392 8.13 2.1 11.23
3/16/2021 10:30:00 AM 7.03 44.654 0.391 8.14 1.77 11.26
3/16/2021 10:45:00 AM 7.04 44.672 0.391 8.14 3.6 11.28
3/16/2021 11:00:00 AM 7.04 44.672 0.391 8.14 2.23 11.36
3/16/2021 11:15:00 AM 7.07 44.726 0.391 8.15 1.73 11.39
3/16/2021 11:30:00 AM 7.09 44.762 0.391 8.15 1.89 11.44
3/16/2021 11:45:00 AM 7.11 44.798 0.391 8.15 1.79 11.47
3/16/2021 12:00:00 PM 7.11 44.798 0.391 8.15 1.92 11.49
3/16/2021 12:15:00 PM 7.12 44.816 0.391 8.15 2.51 11.52
3/16/2021 12:30:00 PM 7.12 44.816 0.391 8.15 2.58 11.53
3/16/2021 12:45:00 PM 7.09 44.762 0.391 8.16 2.15 11.51
3/16/2021 1:00:00 PM 7.07 44.726 0.391 8.16 1.57 11.52
3/16/2021 1:15:00 PM 7.06 44.708 0.391 8.16 1.83 11.51
3/16/2021 1:30:00 PM 7.05 44.69 0.391 8.16 1.77 11.52
3/16/2021 1:45:00 PM 7.05 44.69 0.39 8.16 1.92 11.51
3/16/2021 2:00:00 PM 7.05 44.69 0.391 8.16 1.71 11.51
3/16/2021 2:15:00 PM 7.06 44.708 0.391 8.16 1.99 11.51
3/16/2021 2:30:00 PM 7.11 44.798 0.391 8.16 1.97 11.52
3/16/2021 2:45:00 PM 7.2 44.96 0.39 8.16 1.83 11.57
3/16/2021 3:00:00 PM 7.23 45.014 0.39 8.16 1.82 11.57
3/16/2021 3:15:00 PM 7.24 45.032 0.39 8.17 1.89 11.6
3/16/2021 3:30:00 PM 7.24 45.032 0.39 8.17 1.7 11.58
3/16/2021 3:45:00 PM 7.23 45.014 0.39 8.17 2.09 11.6
3/16/2021 4:00:00 PM 7.19 44.942 0.39 8.17 2.08 11.58
3/16/2021 4:15:00 PM 7.16 44.888 0.39 8.17 1.77 11.57
3/16/2021 4:30:00 PM 7.13 44.834 0.39 8.17 1.66 11.53
3/16/2021 4:45:00 PM 7.09 44.762 0.39 8.17 1.46 11.5
3/16/2021 5:00:00 PM 7.06 44.708 0.39 8.17 1.62 11.48
3/16/2021 5:15:00 PM 7.04 44.672 0.39 8.17 1.76 11.43
3/16/2021 5:30:00 PM 7.02 44.636 0.39 8.17 1.71 11.42
3/16/2021 5:45:00 PM 7 44.6 0.39 8.16 1.62 11.38
3/16/2021 6:00:00 PM 6.98 44.564 0.39 8.16 1.54 11.34
3/16/2021 6:15:00 PM 6.96 44.528 0.39 8.15 1.81 11.32
3/16/2021 6:30:00 PM 6.94 44.492 0.391 8.15 2.27 11.3
3/16/2021 6:45:00 PM 6.93 44.474 0.391 8.15 1.7 11.27
3/16/2021 7:00:00 PM 6.92 44.456 0.391 8.15 1.88 11.26
3/16/2021 7:15:00 PM 6.92 44.456 0.391 8.15 1.83 11.25
3/16/2021 7:30:00 PM 6.91 44.438 0.391 8.15 1.77 11.22
3/16/2021 7:45:00 PM 6.91 44.438 0.391 8.14 4.39 11.19
3/16/2021 8:00:00 PM 6.91 44.438 0.391 8.15 1.78 11.19
3/16/2021 8:15:00 PM 6.91 44.438 0.391 8.15 1.69 11.19
3/16/2021 8:30:00 PM 6.91 44.438 0.392 8.15 1.98 11.19
3/16/2021 8:45:00 PM 6.92 44.456 0.392 8.16 2.78 11.18
3/16/2021 9:00:00 PM 6.92 44.456 0.392 8.16 1.61 11.19
3/16/2021 9:15:00 PM 6.94 44.492 0.392 8.16 1.77 11.19
3/16/2021 9:30:00 PM 6.95 44.51 0.392 8.16 1.74 11.21
3/16/2021 9:45:00 PM 6.96 44.528 0.392 8.16 1.98 11.22
3/16/2021 10:00:00 PM 6.97 44.546 0.392 8.16 1.5 11.2
3/16/2021 10:15:00 PM 6.99 44.582 0.393 8.17 1.95 11.21
3/16/2021 10:30:00 PM 7 44.6 0.393 8.17 1.77 11.24
3/16/2021 10:45:00 PM 7.01 44.618 0.392 8.17 1.74 11.25
3/16/2021 11:00:00 PM 7.02 44.636 0.393 8.17 2.14 11.27
3/16/2021 11:15:00 PM 7.03 44.654 0.393 8.17 1.92 11.25
3/16/2021 11:30:00 PM 7.04 44.672 0.394 8.17 2.01 11.26
3/16/2021 11:45:00 PM 7.04 44.672 0.394 8.18 1.7 11.27
3/17/2021 12:00:00 AM 7.05 44.69 0.394 8.18 1.97 11.25
3/17/2021 12:15:00 AM 7.05 44.69 0.394 8.18 1.81 11.29
3/17/2021 12:30:00 AM 7.05 44.69 0.394 8.18 1.69 11.28
3/17/2021 12:45:00 AM 7.05 44.69 0.394 8.18 1.93 11.27
3/17/2021 1:00:00 AM 7.05 44.69 0.394 8.18 2.47 11.29
3/17/2021 1:15:00 AM 7.04 44.672 0.394 8.18 2.23 11.29
3/17/2021 1:30:00 AM 7.03 44.654 0.394 8.18 1.94 11.28
3/17/2021 1:45:00 AM 7.02 44.636 0.394 8.19 1.68 11.29
3/17/2021 2:00:00 AM 7 44.6 0.394 8.18 4.59 11.29
3/17/2021 2:15:00 AM 6.99 44.582 0.394 8.19 1.68 11.29
3/17/2021 2:30:00 AM 6.97 44.546 0.395 8.18 2.27 11.27
3/17/2021 2:45:00 AM 6.96 44.528 0.395 8.18 2.1 11.27
3/17/2021 3:00:00 AM 6.94 44.492 0.395 8.18 1.57 11.28
3/17/2021 3:15:00 AM 6.93 44.474 0.395 8.17 1.92 11.26
3/17/2021 3:30:00 AM 6.91 44.438 0.395 8.17 1.92 11.25
3/17/2021 3:45:00 AM 6.9 44.42 0.395 8.17 1.87 11.25
3/17/2021 4:00:00 AM 6.88 44.384 0.395 8.17 1.88 11.24
3/17/2021 4:15:00 AM 6.86 44.348 0.395 8.16 1.91 11.23
3/17/2021 4:30:00 AM 6.85 44.33 0.396 8.16 1.89 11.24
3/17/2021 4:45:00 AM 6.83 44.294 0.396 8.15 1.87 11.23
3/17/2021 5:00:00 AM 6.81 44.258 0.396 8.15 1.86 11.19
3/17/2021 5:15:00 AM 6.79 44.222 0.396 8.14 1.85 11.21
3/17/2021 5:30:00 AM 6.77 44.186 0.396 8.14 1.67 11.19
3/17/2021 5:45:00 AM 6.75 44.15 0.396 8.14 2.25 11.19
3/17/2021 6:00:00 AM 6.73 44.114 0.396 8.14 2.21 11.16
3/17/2021 6:15:00 AM 6.71 44.078 0.396 8.13 2.05 11.17
3/17/2021 6:30:00 AM 6.69 44.042 0.384 8.13 1.74 11.18
3/17/2021 6:45:00 AM 6.67 44.006 0.396 8.13 1.49 11.16
3/17/2021 7:00:00 AM 6.65 43.97 0.396 8.12 1.51 11.17
3/17/2021 7:15:00 AM 6.64 43.952 0.396 8.12 2.08 11.15
3/17/2021 7:30:00 AM 6.62 43.916 0.396 8.12 1.72 11.16
3/17/2021 7:45:00 AM 6.6 43.88 0.396 8.12 1.74 11.16
3/17/2021 8:00:00 AM 6.59 43.862 0.396 8.12 10.09 11.14
3/17/2021 8:15:00 AM 6.58 43.844 0.396 8.12 2.74 11.16
3/17/2021 8:30:00 AM 6.58 43.844 0.396 8.12 2.4 11.2
3/17/2021 8:45:00 AM 6.59 43.862 0.397 8.12 2.25 11.24
3/17/2021 9:00:00 AM 6.6 43.88 0.396 8.11 2.12 11.25
3/17/2021 9:15:00 AM 6.61 43.898 0.396 8.12 1.96 11.3
3/17/2021 9:30:00 AM 6.62 43.916 0.396 8.12 1.88 11.36
3/17/2021 9:45:00 AM 6.64 43.952 0.396 8.12 1.96 11.42
3/17/2021 10:00:00 AM 6.66 43.988 0.396 8.12 2.2 11.47
3/17/2021 10:15:00 AM 6.68 44.024 0.396 8.13 1.88 11.5
3/17/2021 10:30:00 AM 6.7 44.06 0.396 8.13 2.52 11.54
3/17/2021 10:45:00 AM 6.72 44.096 0.396 8.13 2.12 11.56
3/17/2021 11:00:00 AM 6.75 44.15 0.396 8.13 1.99 11.6
3/17/2021 11:15:00 AM 6.77 44.186 0.396 8.13 2.6 11.63
3/17/2021 11:30:00 AM 6.78 44.204 0.396 8.14 2.07 11.63
3/17/2021 11:45:00 AM 6.8 44.24 0.396 8.14 2.04 11.64
3/17/2021 12:00:00 PM 6.82 44.276 0.395 8.14 2.23 11.64
3/17/2021 12:15:00 PM 6.84 44.312 0.395 8.15 2.13 11.67
3/17/2021 12:30:00 PM 6.87 44.366 0.395 8.15 2.44 11.69
3/17/2021 12:45:00 PM 6.89 44.402 0.395 8.15 1.92 11.7
3/17/2021 1:00:00 PM 6.91 44.438 0.395 8.15 2.27 11.7
3/17/2021 1:15:00 PM 6.92 44.456 0.395 8.15 2.32 11.69
3/17/2021 1:30:00 PM 6.93 44.474 0.395 8.15 2.05 11.71
3/17/2021 1:45:00 PM 6.96 44.528 0.395 8.15 2.12 11.71
3/17/2021 2:00:00 PM 6.98 44.564 0.395 8.14 2.18 11.71
3/17/2021 2:15:00 PM 6.98 44.564 0.395 8.15 2.01 11.72
3/17/2021 2:30:00 PM 6.98 44.564 0.395 8.15 1.97 11.72
3/17/2021 2:45:00 PM 6.98 44.564 0.395 8.15 2.55 11.71
3/17/2021 3:00:00 PM 6.99 44.582 0.395 8.15 2.18 11.69
3/17/2021 3:15:00 PM 6.99 44.582 0.395 8.15 1.91 11.68
3/17/2021 3:30:00 PM 7.01 44.618 0.395 8.15 2.34 11.69
3/17/2021 3:45:00 PM 7.03 44.654 0.395 8.15 2.2 11.69
3/17/2021 4:00:00 PM 7.06 44.708 0.395 8.15 1.91 11.68
3/17/2021 4:15:00 PM 7.09 44.762 0.395 8.15 2.21 11.7
3/17/2021 4:30:00 PM 7.11 44.798 0.395 8.15 2.39 11.7
3/17/2021 4:45:00 PM 7.13 44.834 0.394 8.15 1.94 11.7
3/17/2021 5:00:00 PM 7.15 44.87 0.395 8.15 2.76 11.67
3/17/2021 5:15:00 PM 7.17 44.906 0.394 8.16 2.61 11.68
3/17/2021 5:30:00 PM 7.16 44.888 0.394 8.16 2.22 11.68
3/17/2021 5:45:00 PM 7.16 44.888 0.394 8.16 2.09 11.66
3/17/2021 6:00:00 PM 7.15 44.87 0.394 8.16 2.21 11.63
3/17/2021 6:15:00 PM 7.13 44.834 0.394 8.16 1.95 11.6
3/17/2021 6:30:00 PM 7.11 44.798 0.394 8.15 1.9 11.54
3/17/2021 6:45:00 PM 7.1 44.78 0.395 8.16 1.98 11.49
3/17/2021 7:00:00 PM 7.1 44.78 0.395 8.15 2.27 11.45
3/17/2021 7:15:00 PM 7.09 44.762 0.395 8.15 2.33 11.41
3/17/2021 7:30:00 PM 7.1 44.78 0.395 8.15 2.31 11.38
3/17/2021 7:45:00 PM 7.1 44.78 0.395 8.15 2.11 11.37
3/17/2021 8:00:00 PM 7.11 44.798 0.395 8.15 2.27 11.34
3/17/2021 8:15:00 PM 7.13 44.834 0.396 8.15 2.32 11.32
3/17/2021 8:30:00 PM 7.14 44.852 0.396 8.14 2.4 11.32
3/17/2021 8:45:00 PM 7.16 44.888 0.396 8.15 2.82 11.3
3/17/2021 9:00:00 PM 7.19 44.942 0.396 8.15 2.9 11.31
3/17/2021 9:15:00 PM 7.2 44.96 0.396 8.16 2.4 11.31
3/17/2021 9:30:00 PM 7.22 44.996 0.396 8.15 2.71 11.31
3/17/2021 9:45:00 PM 7.25 45.05 0.397 8.16 3.41 11.32
3/17/2021 10:00:00 PM 7.27 45.086 0.397 8.16 2.49 11.31
3/17/2021 10:15:00 PM 7.29 45.122 0.397 8.17 2.82 11.33
3/17/2021 10:30:00 PM 7.31 45.158 0.397 8.17 2.44 11.33
3/17/2021 10:45:00 PM 7.33 45.194 0.397 8.17 2.17 11.35
3/17/2021 11:00:00 PM 7.34 45.212 0.397 8.18 2.05 11.33
3/17/2021 11:15:00 PM 7.36 45.248 0.398 8.18 2.55 11.34
3/17/2021 11:30:00 PM 7.37 45.266 0.398 8.18 3.08 11.36
3/17/2021 11:45:00 PM 7.38 45.284 0.398 8.18 2.21 11.34
3/18/2021 12:00:00 AM 7.4 45.32 0.398 8.19 2.27 11.33
3/18/2021 12:15:00 AM 7.41 45.338 0.369 8.19 1.94 11.33
3/18/2021 12:30:00 AM 7.43 45.374 0.398 8.19 2.11 11.33
3/18/2021 12:45:00 AM 7.44 45.392 0.398 8.19 1.85 11.33
3/18/2021 1:00:00 AM 7.45 45.41 0.397 8.19 1.95 11.31
3/18/2021 1:15:00 AM 7.46 45.428 0.395 8.19 2.14 11.31
3/18/2021 1:30:00 AM 7.48 45.464 0.334 8.19 2.1 11.33
3/18/2021 1:45:00 AM 7.49 45.482 0.385 8.19 2.01 11.31
3/18/2021 2:00:00 AM 7.49 45.482 0.397 8.19 1.95 11.31
3/18/2021 2:15:00 AM 7.5 45.5 0.386 8.19 3.02 11.28
3/18/2021 2:30:00 AM 7.51 45.518 0.35 8.19 2.52 11.28
3/18/2021 2:45:00 AM 7.52 45.536 0.391 8.19 2.45 11.27
3/18/2021 3:00:00 AM 7.52 45.536 0.369 8.19 1.84 11.26
3/18/2021 3:15:00 AM 7.53 45.554 0.398 8.19 2.33 11.24
3/18/2021 3:30:00 AM 7.53 45.554 0.397 8.19 1.75 11.23
3/18/2021 3:45:00 AM 7.53 45.554 0.341 8.18 2.39 11.23
3/18/2021 4:00:00 AM 7.52 45.536 0.376 8.18 2.32 11.2
3/18/2021 4:15:00 AM 7.52 45.536 0.362 8.18 1.96 11.19
3/18/2021 4:30:00 AM 7.52 45.536 0.372 8.17 2.34 11.17
3/18/2021 4:45:00 AM 7.51 45.518 0.393 8.17 2.4 11.14
3/18/2021 5:00:00 AM 7.51 45.518 0.375 8.16 2.32 11.13
3/18/2021 5:15:00 AM 7.51 45.518 0.396 8.16 2.21 11.1
3/18/2021 5:30:00 AM 7.51 45.518 0.388 8.15 2.18 11.1
3/18/2021 5:45:00 AM 7.5 45.5 0.38 8.15 1.92 11.07
3/18/2021 6:00:00 AM 7.5 45.5 0.365 8.14 2.4 11.05
3/18/2021 6:15:00 AM 7.5 45.5 0.378 8.14 2.05 11.05
3/18/2021 6:30:00 AM 7.49 45.482 0.392 8.13 2.17 11.01
3/18/2021 6:45:00 AM 7.49 45.482 0.393 8.13 2.65 11.01
3/18/2021 7:00:00 AM 7.48 45.464 0.393 8.13 1.89 11
3/18/2021 7:15:00 AM 7.47 45.446 0.392 8.13 2.46 10.98
3/18/2021 7:30:00 AM 7.47 45.446 0.395 8.12 2.03 10.96
3/18/2021 7:45:00 AM 7.46 45.428 0.394 8.12 1.97 10.94
3/18/2021 8:00:00 AM 7.45 45.41 0.393 8.12 2.54 10.92
3/18/2021 8:15:00 AM 7.45 45.41 0.392 8.11 2.49 10.92
3/18/2021 8:30:00 AM 7.45 45.41 0.392 8.11 2.87 10.92
3/18/2021 8:45:00 AM 7.44 45.392 0.392 8.11 2.4 10.93
3/18/2021 9:00:00 AM 7.44 45.392 0.392 8.11 2.52 10.92
3/18/2021 9:15:00 AM 7.44 45.392 0.392 8.1 3.01 10.92
3/18/2021 9:30:00 AM 7.44 45.392 0.392 8.1 2.48 10.93
3/18/2021 9:45:00 AM 7.45 45.41 0.392 8.1 2.71 10.91
3/18/2021 10:00:00 AM 7.45 45.41 0.392 8.1 2.81 10.94
3/18/2021 10:15:00 AM 7.46 45.428 0.391 8.1 2.72 10.95
3/18/2021 10:30:00 AM 7.46 45.428 0.391 8.1 2.85 10.95
3/18/2021 10:45:00 AM 7.47 45.446 0.392 8.1 2.98 10.95
3/18/2021 11:00:00 AM 7.48 45.464 0.392 8.1 2.48 10.99
3/18/2021 11:15:00 AM 7.49 45.482 0.392 8.1 2.42 10.98
3/18/2021 11:30:00 AM 7.52 45.536 0.393 8.1 3.26 11.01
3/18/2021 11:45:00 AM 7.53 45.554 0.393 8.1 2.86 11.03
3/18/2021 12:00:00 PM 7.54 45.572 0.394 8.1 3.55 11.04
3/18/2021 12:15:00 PM 7.55 45.59 0.394 8.09 2.74 11.04
3/18/2021 12:30:00 PM 7.56 45.608 0.395 8.09 2.97 11.04
3/18/2021 12:45:00 PM 7.56 45.608 0.395 8.09 3.64 11.03
3/18/2021 1:00:00 PM 7.57 45.626 0.395 8.09 2.61 11.02
3/18/2021 1:15:00 PM 7.57 45.626 0.396 8.09 3.59 11.01
3/18/2021 1:30:00 PM 7.58 45.644 0.395 8.09 2.46 11
3/18/2021 1:45:00 PM 7.59 45.662 0.395 8.09 2.96 11.01
3/18/2021 2:00:00 PM 7.6 45.68 0.395 8.09 2.51 11.01
3/18/2021 2:15:00 PM 7.61 45.698 0.395 8.08 2.88 11
3/18/2021 2:30:00 PM 7.61 45.698 0.393 8.09 3.07 10.99
3/18/2021 2:45:00 PM 7.62 45.716 0.393 8.09 2.41 10.98
3/18/2021 3:00:00 PM 7.62 45.716 0.392 8.09 3.07 10.98
3/18/2021 3:15:00 PM 7.63 45.734 0.391 8.08 2.98 10.96
3/18/2021 3:30:00 PM 7.64 45.752 0.39 8.08 3.12 10.95
3/18/2021 3:45:00 PM 7.65 45.77 0.39 8.08 3.53 10.93
3/18/2021 4:00:00 PM 7.66 45.788 0.39 8.08 3.99 10.92
3/18/2021 4:15:00 PM 7.67 45.806 0.39 8.07 3.44 10.87
3/18/2021 4:30:00 PM 7.68 45.824 0.39 8.07 3.71 10.91
3/18/2021 4:45:00 PM 7.69 45.842 0.39 8.07 3.3 10.9
3/18/2021 5:00:00 PM 7.69 45.842 0.389 8.07 4.15 10.88
3/18/2021 5:15:00 PM 7.7 45.86 0.39 8.07 3.93 10.87
3/18/2021 5:30:00 PM 7.71 45.878 0.389 8.07 3.46 10.88
3/18/2021 5:45:00 PM 7.74 45.932 0.39 8.07 3.92 10.88
3/18/2021 6:00:00 PM 7.75 45.95 0.39 8.08 3.5 10.88
3/18/2021 6:15:00 PM 7.75 45.95 0.39 8.07 4.03 10.86
3/18/2021 6:30:00 PM 7.76 45.968 0.39 8.07 3.77 10.83
3/18/2021 6:45:00 PM 7.76 45.968 0.391 8.07 3.66 10.82
3/18/2021 7:00:00 PM 7.77 45.986 0.391 8.07 4.35 10.81
3/18/2021 7:15:00 PM 7.77 45.986 0.391 8.06 4.2 10.77
3/18/2021 7:30:00 PM 7.77 45.986 0.391 8.06 4.11 10.76
3/18/2021 7:45:00 PM 7.77 45.986 0.341 8.06 4.48 10.75
3/18/2021 8:00:00 PM 7.77 45.986 0.351 8.06 4.5 10.75
3/18/2021 8:15:00 PM 7.77 45.986 0.389 8.06 4.4 10.74
3/18/2021 8:30:00 PM 7.76 45.968 0.376 8.06 4.28 10.74
3/18/2021 8:45:00 PM 7.76 45.968 0.388 8.05 4.6 10.73
3/18/2021 9:00:00 PM 7.76 45.968 0.35 8.05 6.04 10.75
3/18/2021 9:15:00 PM 7.76 45.968 0.384 8.05 4.98 10.75
3/18/2021 9:30:00 PM 7.75 45.95 0.371 8.04 5.85 10.73
3/18/2021 9:45:00 PM 7.75 45.95 0.377 8.04 6.28 10.76
3/18/2021 10:00:00 PM 7.75 45.95 0.365 8.04 5.75 10.75
3/18/2021 10:15:00 PM 7.76 45.968 0.377 8.04 5.04 10.78
3/18/2021 10:30:00 PM 7.76 45.968 0.36 8.04 4.69 10.77
3/18/2021 10:45:00 PM 7.76 45.968 0.383 8.04 5.07 10.75
3/18/2021 11:00:00 PM 7.76 45.968 0.379 8.03 6.02 10.78
3/18/2021 11:15:00 PM 7.75 45.95 0.367 8.03 6.61 10.78
3/18/2021 11:30:00 PM 7.75 45.95 0.344 8.03 7.36 10.8
3/18/2021 11:45:00 PM 7.74 45.932 0.348 8.03 5.55 10.81
3/19/2021 12:00:00 AM 7.73 45.914 0.368 8.02 7.2 10.8
3/19/2021 12:15:00 AM 7.73 45.914 0.374 8.02 9.32 10.8
3/19/2021 12:30:00 AM 7.72 45.896 0.349 8.02 7.42 10.79
3/19/2021 12:45:00 AM 7.69 45.842 0.366 8.02 7.29 10.8
3/19/2021 1:00:00 AM 7.67 45.806 0.373 8.01 7.14 10.8
3/19/2021 1:15:00 AM 7.65 45.77 0.372 8.01 7.25 10.8
3/19/2021 1:30:00 AM 7.63 45.734 0.37 8 7.68 10.79
3/19/2021 1:45:00 AM 7.61 45.698 0.364 8 7.44 10.8
3/19/2021 2:00:00 AM 7.58 45.644 0.366 8 7.23 10.79
3/19/2021 2:15:00 AM 7.56 45.608 0.362 7.99 7.61 10.8
3/19/2021 2:30:00 AM 7.52 45.536 0.33 7.99 6.62 10.8
3/19/2021 2:45:00 AM 7.51 45.518 0.37 7.98 9.01 10.8
3/19/2021 3:00:00 AM 7.48 45.464 0.37 7.98 7.34 10.79
3/19/2021 3:15:00 AM 7.45 45.41 0.369 7.98 6.03 10.8
3/19/2021 3:30:00 AM 7.43 45.374 0.338 7.97 7.86 10.8
3/19/2021 3:45:00 AM 7.39 45.302 0.362 7.97 7.14 10.79
3/19/2021 4:00:00 AM 7.34 45.212 0.366 7.97 8.46 10.81
3/19/2021 4:15:00 AM 7.31 45.158 0.336 7.97 7.73 10.81
3/19/2021 4:30:00 AM 7.27 45.086 0.334 7.97 7.38 10.83
3/19/2021 4:45:00 AM 7.22 44.996 0.346 7.96 7.67 10.83
3/19/2021 5:00:00 AM 7.17 44.906 0.356 7.96 7.56 10.83
3/19/2021 5:15:00 AM 7.13 44.834 0.358 7.96 8.35 10.83
3/19/2021 5:30:00 AM 7.09 44.762 0.349 7.95 8.8 10.84
3/19/2021 5:45:00 AM 7.04 44.672 0.341 7.95 14.3 10.85
3/19/2021 6:00:00 AM 6.99 44.582 0.349 7.95 8.59 10.84
3/19/2021 6:15:00 AM 6.96 44.528 0.357 7.95 8.41 10.87
3/19/2021 6:30:00 AM 6.91 44.438 0.356 7.95 10.66 10.88
3/19/2021 6:45:00 AM 6.87 44.366 0.355 7.95 8.99 10.88
3/19/2021 7:00:00 AM 6.84 44.312 0.337 7.95 9.46 10.89
3/19/2021 7:15:00 AM 6.81 44.258 0.354 7.94 9 10.9
3/19/2021 7:30:00 AM 6.79 44.222 0.353 7.94 8.81 10.91
3/19/2021 7:45:00 AM 6.76 44.168 0.353 7.94 11.11 10.92
3/19/2021 8:00:00 AM 6.73 44.114 0.352 7.94 9.15 10.95
3/19/2021 8:15:00 AM 6.7 44.06 0.345 7.94 9.4 10.95
3/19/2021 8:30:00 AM 6.65 43.97 0.351 7.94 8.23 10.98
3/19/2021 8:45:00 AM 6.6 43.88 0.35 7.94 9.05 11
3/19/2021 9:00:00 AM 6.58 43.844 0.349 7.93 12.24 11.03
3/19/2021 9:15:00 AM 6.58 43.844 0.347 7.93 11.33 11.05
3/19/2021 9:30:00 AM 6.57 43.826 0.348 7.93 10.14 11.09
3/19/2021 9:45:00 AM 6.54 43.772 0.348 7.93 10.97 11.11
3/19/2021 10:00:00 AM 6.54 43.772 0.346 7.93 11.15 11.15
3/19/2021 10:15:00 AM 6.57 43.826 0.345 7.93 10.61 11.17
3/19/2021 10:30:00 AM 6.57 43.826 0.344 7.93 10.57 11.19
3/19/2021 10:45:00 AM 6.57 43.826 0.344 7.93 10.67 11.23
3/19/2021 11:00:00 AM 6.56 43.808 0.342 7.94 10.87 11.24
3/19/2021 11:15:00 AM 6.57 43.826 0.34 7.93 10.51 11.25
3/19/2021 11:30:00 AM 6.6 43.88 0.34 7.93 10.64 11.27
3/19/2021 11:45:00 AM 6.65 43.97 0.342 7.93 11.01 11.27
3/19/2021 12:00:00 PM 6.7 44.06 0.342 7.93 12 11.29
3/19/2021 12:15:00 PM 6.78 44.204 0.34 7.93 12.7 11.31
3/19/2021 12:30:00 PM 6.87 44.366 0.336 7.94 12 11.33
3/19/2021 12:45:00 PM 6.97 44.546 0.334 7.94 11.97 11.33
3/19/2021 1:00:00 PM 7.07 44.726 0.338 7.94 10.98 11.36
3/19/2021 1:15:00 PM 7.17 44.906 0.338 7.94 11.26 11.37
3/19/2021 1:30:00 PM 7.26 45.068 0.337 7.94 12.45 11.38
3/19/2021 1:45:00 PM 7.36 45.248 0.324 7.95 12.19 11.39
3/19/2021 2:00:00 PM 7.44 45.392 0.321 7.95 13.74 11.39
3/19/2021 2:15:00 PM 7.52 45.536 0.335 7.95 12.81 11.43
3/19/2021 2:30:00 PM 7.64 45.752 0.334 7.96 14.23 11.39
3/19/2021 2:45:00 PM 7.73 45.914 0.32 7.96 12.82 11.42
3/19/2021 3:00:00 PM 7.81 46.058 0.33 7.96 13.23 11.42
3/19/2021 3:15:00 PM 7.88 46.184 0.331 7.96 13.4 11.42
3/19/2021 3:30:00 PM 7.99 46.382 0.33 7.97 13.15 11.42
3/19/2021 3:45:00 PM 8 46.4 0.329 7.97 12.54 11.43
3/19/2021 4:00:00 PM 8.04 46.472 0.329 7.98 12.63 11.42
3/19/2021 4:15:00 PM 8.11 46.598 0.329 7.98 12.16 11.43
3/19/2021 4:30:00 PM 8.14 46.652 0.31 7.99 11.79 11.42
3/19/2021 4:45:00 PM 8.19 46.742 0.332 7.99 12.16 11.42
3/19/2021 5:00:00 PM 8.16 46.688 0.332 8 11.95 11.41
3/19/2021 5:15:00 PM 8.15 46.67 0.332 8 11.2 11.41
3/19/2021 5:30:00 PM 8.12 46.616 0.332 8.01 12.08 11.41
3/19/2021 5:45:00 PM 8.11 46.598 0.332 8.01 12.09 11.39
3/19/2021 6:00:00 PM 8.05 46.49 0.332 8.01 12.91 11.36
3/19/2021 6:15:00 PM 8.01 46.418 0.332 8.01 12.3 11.36
3/19/2021 6:30:00 PM 7.98 46.364 0.332 8.01 12.07 11.34
3/19/2021 6:45:00 PM 7.95 46.31 0.332 8.01 13.04 11.32
3/19/2021 7:00:00 PM 7.93 46.274 0.332 8.01 11.56 11.29
3/19/2021 7:15:00 PM 7.92 46.256 0.301 8.01 12.92 11.3
3/19/2021 7:30:00 PM 7.9 46.22 0.331 8.01 11.92 11.27
3/19/2021 7:45:00 PM 7.88 46.184 0.331 8.01 11.23 11.27
3/19/2021 8:00:00 PM 7.88 46.184 0.31 8.01 12.05 11.27
3/19/2021 8:15:00 PM 7.86 46.148 0.331 8.01 11.6 11.27
3/19/2021 8:30:00 PM 7.86 46.148 0.33 8.01 12.47 11.27
3/19/2021 8:45:00 PM 7.82 46.076 0.33 8.01 11.44 11.27
3/19/2021 9:00:00 PM 7.82 46.076 0.33 8.01 11.57 11.25
3/19/2021 9:15:00 PM 7.82 46.076 0.329 8.01 12.56 11.27
3/19/2021 9:30:00 PM 7.77 45.986 0.329 8.01 12.04 11.27
3/19/2021 9:45:00 PM 7.75 45.95 0.329 8.02 11.32 11.25
3/19/2021 10:00:00 PM 7.73 45.914 0.328 8.01 11.88 11.27
3/19/2021 10:15:00 PM 7.71 45.878 0.328 8.01 11.58 11.27
3/19/2021 10:30:00 PM 7.68 45.824 0.328 8.01 12.32 11.27
3/19/2021 10:45:00 PM 7.64 45.752 0.327 8 11.69 11.26
3/19/2021 11:00:00 PM 7.6 45.68 0.327 8 12.36 11.27
3/19/2021 11:15:00 PM 7.57 45.626 0.327 8 12.48 11.26
3/19/2021 11:30:00 PM 7.53 45.554 0.326 8 13.43 11.27
3/19/2021 11:45:00 PM 7.5 45.5 0.326 8 12.21 11.27
3/20/2021 12:00:00 AM 7.46 45.428 0.325 8 11.47 11.27
3/20/2021 12:15:00 AM 7.43 45.374 0.324 7.99 12.2 11.27
3/20/2021 12:30:00 AM 7.37 45.266 0.324 7.99 12.03 11.25
3/20/2021 12:45:00 AM 7.32 45.176 0.323 7.98 11.54 11.25
3/20/2021 1:00:00 AM 7.28 45.104 0.323 7.98 11.28 11.26
3/20/2021 1:15:00 AM 7.24 45.032 0.322 7.98 11.36 11.26
3/20/2021 1:30:00 AM 7.2 44.96 0.321 7.97 12.17 11.24
3/20/2021 1:45:00 AM 7.16 44.888 0.32 7.97 10.87 11.23
3/20/2021 2:00:00 AM 7.12 44.816 0.32 7.97 11.3 11.23
3/20/2021 2:15:00 AM 7.09 44.762 0.319 7.97 10.82 11.25
3/20/2021 2:30:00 AM 7.06 44.708 0.318 7.96 11.05 11.25
3/20/2021 2:45:00 AM 7.02 44.636 0.318 7.96 11.08 11.26
3/20/2021 3:00:00 AM 6.98 44.564 0.317 7.95 11.1 11.24
3/20/2021 3:15:00 AM 6.93 44.474 0.317 7.95 11.74 11.24
3/20/2021 3:30:00 AM 6.9 44.42 0.316 7.95 10.65 11.24
3/20/2021 3:45:00 AM 6.86 44.348 0.312 7.95 11.36 11.25
3/20/2021 4:00:00 AM 6.82 44.276 0.286 7.94 11.3 11.24
3/20/2021 4:15:00 AM 6.8 44.24 0.315 7.94 12.61 11.24
3/20/2021 4:30:00 AM 6.76 44.168 0.313 7.94 11.43 11.23
3/20/2021 4:45:00 AM 6.72 44.096 0.314 7.94 11.25 11.23
3/20/2021 5:00:00 AM 6.68 44.024 0.314 7.93 11.32 11.24
3/20/2021 5:15:00 AM 6.65 43.97 0.313 7.93 11.09 11.23
3/20/2021 5:30:00 AM 6.61 43.898 0.314 7.93 10.82 11.24
3/20/2021 5:45:00 AM 6.56 43.808 0.274 7.93 10.06 11.25
3/20/2021 6:00:00 AM 6.51 43.718 0.306 7.92 11.61 11.26
3/20/2021 6:15:00 AM 6.48 43.664 0.306 7.92 10.99 11.26
3/20/2021 6:30:00 AM 6.44 43.592 0.3 7.92 10.89 11.26
3/20/2021 6:45:00 AM 6.4 43.52 0.31 7.92 10.92 11.27
3/20/2021 7:00:00 AM 6.37 43.466 0.31 7.92 10.61 11.26
3/20/2021 7:15:00 AM 6.32 43.376 0.31 7.92 10.59 11.28
3/20/2021 7:30:00 AM 6.29 43.322 0.31 7.91 10.67 11.29
3/20/2021 7:45:00 AM 6.27 43.286 0.31 7.91 11.34 11.29
3/20/2021 8:00:00 AM 6.24 43.232 0.309 7.91 10.12 11.31
3/20/2021 8:15:00 AM 6.22 43.196 0.309 7.91 11.07 11.32
3/20/2021 8:30:00 AM 6.21 43.178 0.307 7.91 10.42 11.34
3/20/2021 8:45:00 AM 6.2 43.16 0.307 7.91 10.16 11.36
3/20/2021 9:00:00 AM 6.2 43.16 0.304 7.91 10.43 11.39
3/20/2021 9:15:00 AM 6.21 43.178 0.275 7.92 9.93 11.43
3/20/2021 9:30:00 AM 6.23 43.214 0.287 7.91 9.81 11.46
3/20/2021 9:45:00 AM 6.26 43.268 0.299 7.92 9.56 11.49
3/20/2021 10:00:00 AM 6.29 43.322 0.272 7.92 9.83 11.51
3/20/2021 10:15:00 AM 6.34 43.412 0.286 7.92 8.91 11.53
3/20/2021 10:30:00 AM 6.39 43.502 0.273 7.93 9.55 11.55
3/20/2021 10:45:00 AM 6.44 43.592 0.271 7.92 9.07 11.59
3/20/2021 11:00:00 AM 6.5 43.7 0.277 7.92 10.46 11.6
3/20/2021 11:15:00 AM 6.57 43.826 0.282 7.93 12.51 11.63
3/20/2021 11:30:00 AM 6.65 43.97 0.27 7.93 10 11.64
3/20/2021 11:45:00 AM 6.75 44.15 0.277 7.93 9.56 11.63
3/20/2021 12:00:00 PM 6.84 44.312 0.295 7.93 8.59 11.64
3/20/2021 12:15:00 PM 6.95 44.51 0.305 7.94 8.98 11.65
3/20/2021 12:30:00 PM 7.06 44.708 0.305 7.94 8.93 11.66
3/20/2021 12:45:00 PM 7.2 44.96 0.304 7.95 9.12 11.66
3/20/2021 1:00:00 PM 7.32 45.176 0.304 7.95 9.12 11.66
3/20/2021 1:15:00 PM 7.47 45.446 0.304 7.95 8.26 11.66
3/20/2021 1:30:00 PM 7.61 45.698 0.304 7.95 7.74 11.66
3/20/2021 1:45:00 PM 7.76 45.968 0.304 7.96 8.9 11.66
3/20/2021 2:00:00 PM 7.89 46.202 0.304 7.96 8.6 11.65
3/20/2021 2:15:00 PM 8.03 46.454 0.304 7.96 8.41 11.65
3/20/2021 2:30:00 PM 8.12 46.616 0.304 7.97 8.45 11.66
3/20/2021 2:45:00 PM 8.26 46.868 0.304 7.97 8.32 11.65
3/20/2021 3:00:00 PM 8.34 47.012 0.304 7.97 8.14 11.66
3/20/2021 3:15:00 PM 8.49 47.282 0.304 7.97 7.81 11.64
3/20/2021 3:30:00 PM 8.5 47.3 0.305 7.98 8.05 11.66
3/20/2021 3:45:00 PM 8.6 47.48 0.304 7.98 7.88 11.62
3/20/2021 4:00:00 PM 8.68 47.624 0.304 7.98 8.87 11.64
3/20/2021 4:15:00 PM 8.69 47.642 0.304 7.99 8.08 11.64
3/20/2021 4:30:00 PM 8.77 47.786 0.305 7.99 7.96 11.63
3/20/2021 4:45:00 PM 8.82 47.876 0.305 8 7.9 11.62
3/20/2021 5:00:00 PM 8.8 47.84 0.305 8.01 7.51 11.61
3/20/2021 5:15:00 PM 8.81 47.858 0.305 8.01 7.56 11.61
3/20/2021 5:30:00 PM 8.76 47.768 0.305 8.01 7.53 11.58
3/20/2021 5:45:00 PM 8.72 47.696 0.305 8.01 7.05 11.58
3/20/2021 6:00:00 PM 8.68 47.624 0.305 8.02 7.12 11.54
3/20/2021 6:15:00 PM 8.64 47.552 0.305 8.02 6.92 11.51
3/20/2021 6:30:00 PM 8.61 47.498 0.304 8.03 7.88 11.47
3/20/2021 6:45:00 PM 8.59 47.462 0.305 8.03 7.4 11.44
3/20/2021 7:00:00 PM 8.58 47.444 0.305 8.03 7.12 11.39
3/20/2021 7:15:00 PM 8.58 47.444 0.305 8.03 7.19 11.37
3/20/2021 7:30:00 PM 8.57 47.426 0.305 8.03 7.19 11.33
3/20/2021 7:45:00 PM 8.58 47.444 0.283 8.03 7.07 11.3
3/20/2021 8:00:00 PM 8.59 47.462 0.295 8.03 7.01 11.29
3/20/2021 8:15:00 PM 8.58 47.444 0.306 8.03 7.73 11.27
3/20/2021 8:30:00 PM 8.59 47.462 0.307 8.03 7.05 11.25
3/20/2021 8:45:00 PM 8.59 47.462 0.307 8.03 7.53 11.25
3/20/2021 9:00:00 PM 8.59 47.462 0.307 8.03 6.7 11.24
3/20/2021 9:15:00 PM 8.59 47.462 0.308 8.03 6.88 11.22
3/20/2021 9:30:00 PM 8.59 47.462 0.308 8.03 7.48 11.22
3/20/2021 9:45:00 PM 8.61 47.498 0.308 8.03 7.45 11.23
3/20/2021 10:00:00 PM 8.59 47.462 0.308 8.04 7.14 11.24
3/20/2021 10:15:00 PM 8.58 47.444 0.309 8.04 7.02 11.24
3/20/2021 10:30:00 PM 8.56 47.408 0.296 8.05 6.94 11.25
3/20/2021 10:45:00 PM 8.54 47.372 0.303 8.05 7.13 11.24
3/20/2021 11:00:00 PM 8.51 47.318 0.298 8.05 6.86 11.24
3/20/2021 11:15:00 PM 8.48 47.264 0.284 8.05 6.63 11.24
3/20/2021 11:30:00 PM 8.44 47.192 0.311 8.05 7.44 11.26
3/20/2021 11:45:00 PM 8.4 47.12 0.301 8.04 6.61 11.24
3/21/2021 12:00:00 AM 8.36 47.048 0.308 8.05 6.98 11.23
3/21/2021 12:15:00 AM 8.32 46.976 0.31 8.05 7.48 11.25
3/21/2021 12:30:00 AM 8.28 46.904 0.312 8.05 6.96 11.25
3/21/2021 12:45:00 AM 8.23 46.814 0.313 8.05 7.56 11.24
3/21/2021 1:00:00 AM 8.17 46.706 0.309 8.05 7.74 11.23
3/21/2021 1:15:00 AM 8.13 46.634 0.313 8.04 6.37 11.24
3/21/2021 1:30:00 AM 8.09 46.562 0.313 8.04 6.75 11.25
3/21/2021 1:45:00 AM 8.03 46.454 0.286 8.04 7.88 11.23
3/21/2021 2:00:00 AM 7.97 46.346 0.312 8.03 7.15 11.24
3/21/2021 2:15:00 AM 7.93 46.274 0.273 8.03 6.77 11.22
3/21/2021 2:30:00 AM 7.88 46.184 0.287 8.02 6.85 11.21
3/21/2021 2:45:00 AM 7.82 46.076 0.315 8.02 7.58 11.2
3/21/2021 3:00:00 AM 7.78 46.004 0.315 8.02 6.98 11.18
3/21/2021 3:15:00 AM 7.73 45.914 0.314 8.01 6.78 11.19
3/21/2021 3:30:00 AM 7.68 45.824 0.314 8.01 6.48 11.17
3/21/2021 3:45:00 AM 7.63 45.734 0.297 8.01 6.09 11.17
3/21/2021 4:00:00 AM 7.59 45.662 0.317 8 6.53 11.17
3/21/2021 4:15:00 AM 7.54 45.572 0.317 8 6.51 11.16
3/21/2021 4:30:00 AM 7.49 45.482 0.281 7.99 8.55 11.17
3/21/2021 4:45:00 AM 7.44 45.392 0.309 7.99 9.39 11.16
3/21/2021 5:00:00 AM 7.39 45.302 0.318 7.99 6.53 11.14
3/21/2021 5:15:00 AM 7.35 45.23 0.317 7.99 6.4 11.14
3/21/2021 5:30:00 AM 7.3 45.14 0.318 7.99 6.26 11.15
3/21/2021 5:45:00 AM 7.25 45.05 0.313 7.98 6.18 11.12
3/21/2021 6:00:00 AM 7.21 44.978 0.319 7.98 6.62 11.13
3/21/2021 6:15:00 AM 7.16 44.888 0.319 7.98 6.77 11.14
3/21/2021 6:30:00 AM 7.12 44.816 0.319 7.97 7.05 11.13
3/21/2021 6:45:00 AM 7.07 44.726 0.32 7.97 6.07 11.12
3/21/2021 7:00:00 AM 7.02 44.636 0.32 7.97 6.37 11.13
3/21/2021 7:15:00 AM 6.98 44.564 0.32 7.97 6.39 11.11
3/21/2021 7:30:00 AM 6.94 44.492 0.32 7.96 6.32 11.12
3/21/2021 7:45:00 AM 6.9 44.42 0.32 7.96 6.35 11.14
3/21/2021 8:00:00 AM 6.87 44.366 0.32 7.96 6.94 11.17
3/21/2021 8:15:00 AM 6.85 44.33 0.321 7.96 5.78 11.18
3/21/2021 8:30:00 AM 6.84 44.312 0.321 7.97 6.26 11.21
3/21/2021 8:45:00 AM 6.83 44.294 0.322 7.97 5.63 11.25
3/21/2021 9:00:00 AM 6.83 44.294 0.322 7.97 5.68 11.26
3/21/2021 9:15:00 AM 6.85 44.33 0.322 7.97 5.81 11.31
3/21/2021 9:30:00 AM 6.88 44.384 0.323 7.98 5.37 11.34
3/21/2021 9:45:00 AM 6.92 44.456 0.323 7.98 5.25 11.37
3/21/2021 10:00:00 AM 6.98 44.564 0.323 7.98 5.88 11.41
3/21/2021 10:15:00 AM 7.04 44.672 0.324 7.98 6.34 11.44
3/21/2021 10:30:00 AM 7.1 44.78 0.324 7.99 5.41 11.47
3/21/2021 10:45:00 AM 7.18 44.924 0.324 7.99 5.89 11.49
3/21/2021 11:00:00 AM 7.26 45.068 0.324 8 6.87 11.52
3/21/2021 11:15:00 AM 7.34 45.212 0.324 8 6.45 11.53
3/21/2021 11:30:00 AM 7.43 45.374 0.325 8.01 6.13 11.54
3/21/2021 11:45:00 AM 7.53 45.554 0.325 8.01 5.57 11.55
3/21/2021 12:00:00 PM 7.65 45.77 0.325 8.01 6.77 11.56
3/21/2021 12:15:00 PM 7.76 45.968 0.325 8.01 5.48 11.56
3/21/2021 12:30:00 PM 7.9 46.22 0.325 8.02 5.9 11.56
3/21/2021 12:45:00 PM 8.03 46.454 0.326 8.02 5.66 11.56
3/21/2021 1:00:00 PM 8.18 46.724 0.326 8.02 5.6 11.56
3/21/2021 1:15:00 PM 8.31 46.958 0.326 8.02 6.19 11.57
3/21/2021 1:30:00 PM 8.46 47.228 0.327 8.02 5.9 11.56
3/21/2021 1:45:00 PM 8.6 47.48 0.327 8.02 6.02 11.56
3/21/2021 2:00:00 PM 8.75 47.75 0.327 8.03 5.91 11.55
3/21/2021 2:15:00 PM 8.89 48.002 0.327 8.03 5.33 11.55
3/21/2021 2:30:00 PM 9.04 48.272 0.327 8.04 5.4 11.53
3/21/2021 2:45:00 PM 9.15 48.47 0.328 8.04 5.21 11.54
3/21/2021 3:00:00 PM 9.23 48.614 0.328 8.04 5.14 11.53
3/21/2021 3:15:00 PM 9.35 48.83 0.328 8.04 5.24 11.52
3/21/2021 3:30:00 PM 9.43 48.974 0.329 8.04 5.32 11.52
3/21/2021 3:45:00 PM 9.5 49.1 0.329 8.05 5.61 11.52
3/21/2021 4:00:00 PM 9.58 49.244 0.329 8.05 6.33 11.5
3/21/2021 4:15:00 PM 9.59 49.262 0.33 8.05 4.83 11.5
3/21/2021 4:30:00 PM 9.62 49.316 0.33 8.06 5.38 11.48
3/21/2021 4:45:00 PM 9.66 49.388 0.33 8.06 5.05 11.47
3/21/2021 5:00:00 PM 9.67 49.406 0.331 8.07 5.14 11.47
3/21/2021 5:15:00 PM 9.67 49.406 0.331 8.07 5.07 11.43
3/21/2021 5:30:00 PM 9.66 49.388 0.331 8.08 5.89 11.42
3/21/2021 5:45:00 PM 9.6 49.28 0.331 8.08 5.58 11.39
3/21/2021 6:00:00 PM 9.55 49.19 0.331 8.08 5.6 11.34
3/21/2021 6:15:00 PM 9.5 49.1 0.331 8.08 5.21 11.31
3/21/2021 6:30:00 PM 9.46 49.028 0.331 8.08 6.13 11.27
3/21/2021 6:45:00 PM 9.44 48.992 0.331 8.08 5.4 11.22
3/21/2021 7:00:00 PM 9.42 48.956 0.331 8.08 5.23 11.17
3/21/2021 7:15:00 PM 9.42 48.956 0.331 8.08 5.04 11.1
3/21/2021 7:30:00 PM 9.42 48.956 0.331 8.08 5.74 11.07
3/21/2021 7:45:00 PM 9.42 48.956 0.331 8.08 5.26 11.04
3/21/2021 8:00:00 PM 9.43 48.974 0.331 8.07 5.52 10.99
3/21/2021 8:15:00 PM 9.45 49.01 0.331 8.07 5.38 10.96
3/21/2021 8:30:00 PM 9.46 49.028 0.331 8.07 5.82 10.95
3/21/2021 8:45:00 PM 9.47 49.046 0.331 8.07 5.51 10.94
3/21/2021 9:00:00 PM 9.49 49.082 0.333 8.07 5.97 10.93
3/21/2021 9:15:00 PM 9.51 49.118 0.329 8.08 6.01 10.92
3/21/2021 9:30:00 PM 9.51 49.118 0.332 8.08 5.82 10.93
3/21/2021 9:45:00 PM 9.52 49.136 0.331 8.09 5.45 10.92
3/21/2021 10:00:00 PM 9.54 49.172 0.331 8.09 5.39 10.93
3/21/2021 10:15:00 PM 9.54 49.172 0.33 8.1 5.54 10.94
3/21/2021 10:30:00 PM 9.55 49.19 0.332 8.11 5.1 10.93
3/21/2021 10:45:00 PM 9.55 49.19 0.315 8.11 6.16 10.94
3/21/2021 11:00:00 PM 9.53 49.154 0.312 8.12 5.48 10.95
3/21/2021 11:15:00 PM 9.51 49.118 0.321 8.12 5.16 10.95
3/21/2021 11:30:00 PM 9.48 49.064 0.333 8.12 5.44 10.94
3/21/2021 11:45:00 PM 9.45 49.01 0.332 8.12 5.64 10.94
3/22/2021 12:00:00 AM 9.42 48.956 0.333 8.12 5.5 10.95
3/22/2021 12:15:00 AM 9.39 48.902 0.334 8.12 5.79 10.96
3/22/2021 12:30:00 AM 9.34 48.812 0.311 8.12 5.29 10.94
3/22/2021 12:45:00 AM 9.29 48.722 0.315 8.12 5.12 10.94
3/22/2021 1:00:00 AM 9.25 48.65 0.301 8.12 5.26 10.95
3/22/2021 1:15:00 AM 9.19 48.542 0.316 8.11 6.3 10.95
3/22/2021 1:30:00 AM 9.14 48.452 0.29 8.1 7 10.94
3/22/2021 1:45:00 AM 9.09 48.362 0.335 8.09 5.51 10.94
3/22/2021 2:00:00 AM 9.04 48.272 0.335 8.09 5.74 10.94
3/22/2021 2:15:00 AM 8.98 48.164 0.333 8.09 5.72 10.93
3/22/2021 2:30:00 AM 8.93 48.074 0.335 8.08 6.17 10.92
3/22/2021 2:45:00 AM 8.87 47.966 0.335 8.08 5.67 10.91
3/22/2021 3:00:00 AM 8.81 47.858 0.335 8.07 5.22 10.88
3/22/2021 3:15:00 AM 8.76 47.768 0.315 8.07 6.87 10.9
3/22/2021 3:30:00 AM 8.69 47.642 0.335 8.06 6 10.89
3/22/2021 3:45:00 AM 8.64 47.552 0.336 8.06 5.62 10.86
3/22/2021 4:00:00 AM 8.58 47.444 0.328 8.06 5.98 10.88
3/22/2021 4:15:00 AM 8.52 47.336 0.324 8.05 5.38 10.86
3/22/2021 4:30:00 AM 8.46 47.228 0.333 8.05 5.3 10.87
3/22/2021 4:45:00 AM 8.41 47.138 0.336 8.05 5.73 10.87
3/22/2021 5:00:00 AM 8.35 47.03 0.336 8.04 5.05 10.86
3/22/2021 5:15:00 AM 8.3 46.94 0.336 8.04 5.11 10.85
3/22/2021 5:30:00 AM 8.24 46.832 0.336 8.03 6.52 10.84
3/22/2021 5:45:00 AM 8.19 46.742 0.335 8.03 5.34 10.83
3/22/2021 6:00:00 AM 8.14 46.652 0.335 8.03 5.46 10.83
3/22/2021 6:15:00 AM 8.09 46.562 0.336 8.03 5.06 10.82
3/22/2021 6:30:00 AM 8.04 46.472 0.293 8.02 5.29 10.82
3/22/2021 6:45:00 AM 7.99 46.382 0.336 8.02 4.74 10.82
3/22/2021 7:00:00 AM 7.94 46.292 0.336 8.02 4.79 10.82
3/22/2021 7:15:00 AM 7.89 46.202 0.336 8.01 4.73 10.82
3/22/2021 7:30:00 AM 7.84 46.112 0.337 8.01 5.06 10.82
3/22/2021 7:45:00 AM 7.8 46.04 0.337 8.01 4.84 10.84
3/22/2021 8:00:00 AM 7.77 45.986 0.337 8.01 5.33 10.86
3/22/2021 8:15:00 AM 7.74 45.932 0.337 8.01 5.3 10.88
3/22/2021 8:30:00 AM 7.72 45.896 0.337 8.02 4.92 10.89
3/22/2021 8:45:00 AM 7.71 45.878 0.337 8.02 4.98 10.92
3/22/2021 9:00:00 AM 7.73 45.914 0.337 8.02 5.86 10.98
3/22/2021 9:15:00 AM 7.75 45.95 0.337 8.02 5.24 11.01
3/22/2021 9:30:00 AM 7.78 46.004 0.337 8.02 5.07 11.05
3/22/2021 9:45:00 AM 7.82 46.076 0.337 8.03 4.71 11.09
3/22/2021 10:00:00 AM 7.86 46.148 0.338 8.03 5.7 11.15
3/22/2021 10:15:00 AM 7.93 46.274 0.338 8.04 4.47 11.18
3/22/2021 10:30:00 AM 7.99 46.382 0.338 8.04 5.25 11.22
3/22/2021 10:45:00 AM 8.07 46.526 0.338 8.05 4.73 11.23
3/22/2021 11:00:00 AM 8.15 46.67 0.338 8.06 5.48 11.25
3/22/2021 11:15:00 AM 8.24 46.832 0.338 8.06 4.55 11.29
3/22/2021 11:30:00 AM 8.33 46.994 0.338 8.06 4.58 11.3
3/22/2021 11:45:00 AM 8.43 47.174 0.338 8.07 5.38 11.3
3/22/2021 12:00:00 PM 8.54 47.372 0.338 8.07 4.31 11.32
3/22/2021 12:15:00 PM 8.67 47.606 0.338 8.08 5.1 11.32
3/22/2021 12:30:00 PM 8.81 47.858 0.338 8.08 4.73 11.32
3/22/2021 12:45:00 PM 8.93 48.074 0.338 8.08 4.39 11.34
3/22/2021 1:00:00 PM 9.09 48.362 0.338 8.08 5.11 11.34
3/22/2021 1:15:00 PM 9.22 48.596 0.338 8.09 5.23 11.34
3/22/2021 1:30:00 PM 9.38 48.884 0.339 8.09 4.8 11.34
3/22/2021 1:45:00 PM 9.52 49.136 0.339 8.09 6.27 11.35
3/22/2021 2:00:00 PM 9.66 49.388 0.339 8.09 6.42 11.34
3/22/2021 2:15:00 PM 9.81 49.658 0.339 8.09 4.85 11.33
3/22/2021 2:30:00 PM 9.95 49.91 0.339 8.1 4.76 11.32
3/22/2021 2:45:00 PM 10.06 50.108 0.339 8.1 5.18 11.32
3/22/2021 3:00:00 PM 10.15 50.27 0.339 8.1 4.96 11.32
3/22/2021 3:15:00 PM 10.28 50.504 0.339 8.09 4.85 11.3
3/22/2021 3:30:00 PM 10.36 50.648 0.34 8.1 4.83 11.31
3/22/2021 3:45:00 PM 10.42 50.756 0.34 8.1 5.03 11.28
3/22/2021 4:00:00 PM 10.47 50.846 0.34 8.1 5.2 11.28
3/22/2021 4:15:00 PM 10.47 50.846 0.34 8.11 4.39 11.27
3/22/2021 4:30:00 PM 10.5 50.9 0.341 8.11 5.01 11.26
3/22/2021 4:45:00 PM 10.52 50.936 0.341 8.12 4.66 11.25
3/22/2021 5:00:00 PM 10.52 50.936 0.341 8.13 4.88 11.23
3/22/2021 5:15:00 PM 10.5 50.9 0.342 8.13 4.57 11.22
3/22/2021 5:30:00 PM 10.48 50.864 0.342 8.13 5.58 11.2
3/22/2021 5:45:00 PM 10.41 50.738 0.342 8.13 5.4 11.16
3/22/2021 6:00:00 PM 10.35 50.63 0.342 8.13 4.98 11.12
3/22/2021 6:15:00 PM 10.29 50.522 0.342 8.13 5.05 11.06
3/22/2021 6:30:00 PM 10.26 50.468 0.342 8.13 5.92 11.02
3/22/2021 6:45:00 PM 10.24 50.432 0.342 8.13 4.74 10.98
3/22/2021 7:00:00 PM 10.22 50.396 0.342 8.13 4.76 10.9
3/22/2021 7:15:00 PM 10.21 50.378 0.342 8.13 5.23 10.87
3/22/2021 7:30:00 PM 10.21 50.378 0.342 8.13 4.77 10.77
3/22/2021 7:45:00 PM 10.22 50.396 0.342 8.13 4.83 10.75
3/22/2021 8:00:00 PM 10.24 50.432 0.342 8.12 4.94 10.71
3/22/2021 8:15:00 PM 10.25 50.45 0.342 8.11 5.44 10.68
3/22/2021 8:30:00 PM 10.27 50.486 0.342 8.12 4.99 10.63
3/22/2021 8:45:00 PM 10.28 50.504 0.331 8.12 5.96 10.62
3/22/2021 9:00:00 PM 10.31 50.558 0.342 8.12 5.09 10.6
3/22/2021 9:15:00 PM 10.33 50.594 0.342 8.12 5.98 10.61
3/22/2021 9:30:00 PM 10.34 50.612 0.321 8.13 5.28 10.6
3/22/2021 9:45:00 PM 10.37 50.666 0.312 8.13 5.31 10.61
3/22/2021 10:00:00 PM 10.4 50.72 0.317 8.14 4.94 10.61
3/22/2021 10:15:00 PM 10.39 50.702 0.318 8.14 6.08 10.61
3/22/2021 10:30:00 PM 10.42 50.756 0.342 8.15 5.23 10.62
3/22/2021 10:45:00 PM 10.42 50.756 0.307 8.15 5.03 10.62
3/22/2021 11:00:00 PM 10.41 50.738 0.329 8.15 5.49 10.62
3/22/2021 11:15:00 PM 10.41 50.738 0.302 8.16 5.77 10.63
3/22/2021 11:30:00 PM 10.39 50.702 0.338 8.17 5.18 10.64
3/22/2021 11:45:00 PM 10.37 50.666 0.336 8.17 5.09 10.64
3/23/2021 12:00:00 AM 10.34 50.612 0.334 8.17 5.45 10.63
3/23/2021 12:15:00 AM 10.32 50.576 0.334 8.18 5.62 10.66
3/23/2021 12:30:00 AM 10.28 50.504 0.329 8.18 5.4 10.65
3/23/2021 12:45:00 AM 10.24 50.432 0.341 8.18 5.74 10.67
3/23/2021 1:00:00 AM 10.19 50.342 0.292 8.18 5.62 10.66
3/23/2021 1:15:00 AM 10.14 50.252 0.328 8.18 5.4 10.66
3/23/2021 1:30:00 AM 10.09 50.162 0.323 8.17 5.38 10.64
3/23/2021 1:45:00 AM 10.05 50.09 0.335 8.18 5.35 10.65
3/23/2021 2:00:00 AM 10 50 0.338 8.17 5.55 10.64
3/23/2021 2:15:00 AM 9.93 49.874 0.337 8.17 5.39 10.62
3/23/2021 2:30:00 AM 9.89 49.802 0.342 8.16 6.29 10.63
3/23/2021 2:45:00 AM 9.83 49.694 0.342 8.16 5.72 10.63
3/23/2021 3:00:00 AM 9.77 49.586 0.289 8.15 5.81 10.62
3/23/2021 3:15:00 AM 9.71 49.478 0.339 8.15 5.71 10.59
3/23/2021 3:30:00 AM 9.65 49.37 0.335 8.14 5.29 10.6
3/23/2021 3:45:00 AM 9.6 49.28 0.331 8.13 5.51 10.59
3/23/2021 4:00:00 AM 9.54 49.172 0.341 8.13 5.84 10.59
3/23/2021 4:15:00 AM 9.47 49.046 0.342 8.12 6.18 10.57
3/23/2021 4:30:00 AM 9.41 48.938 0.342 8.12 7 10.56
3/23/2021 4:45:00 AM 9.36 48.848 0.341 8.11 6.01 10.57
3/23/2021 5:00:00 AM 9.3 48.74 0.313 8.11 6.81 10.55
3/23/2021 5:15:00 AM 9.24 48.632 0.313 8.1 5.65 10.55
3/23/2021 5:30:00 AM 9.18 48.524 0.342 8.09 5.5 10.55
3/23/2021 5:45:00 AM 9.13 48.434 0.343 8.09 5.11 10.52
3/23/2021 6:00:00 AM 9.07 48.326 0.338 8.08 5.16 10.53
3/23/2021 6:15:00 AM 9.02 48.236 0.342 8.08 5.59 10.53
3/23/2021 6:30:00 AM 8.96 48.128 0.342 8.08 6.01 10.53
3/23/2021 6:45:00 AM 8.9 48.02 0.342 8.08 5.6 10.51
3/23/2021 7:00:00 AM 8.84 47.912 0.343 8.07 5.74 10.52
3/23/2021 7:15:00 AM 8.8 47.84 0.342 8.07 5.76 10.49
3/23/2021 7:30:00 AM 8.75 47.75 0.343 8.06 5.74 10.51
3/23/2021 7:45:00 AM 8.71 47.678 0.342 8.06 5.57 10.54
3/23/2021 8:00:00 AM 8.68 47.624 0.343 8.06 6.12 10.56
3/23/2021 8:15:00 AM 8.66 47.588 0.343 8.06 6.32 10.59
3/23/2021 8:30:00 AM 8.65 47.57 0.343 8.06 5.55 10.63
3/23/2021 8:45:00 AM 8.64 47.552 0.342 8.06 5.72 10.65
3/23/2021 9:00:00 AM 8.64 47.552 0.342 8.06 6.11 10.7
3/23/2021 9:15:00 AM 8.66 47.588 0.342 8.07 6.15 10.75
3/23/2021 9:30:00 AM 8.69 47.642 0.342 8.08 5.87 10.82
3/23/2021 9:45:00 AM 8.74 47.732 0.343 8.08 5.75 10.86
3/23/2021 10:00:00 AM 8.77 47.786 0.343 8.09 6.84 10.94
3/23/2021 10:15:00 AM 8.82 47.876 0.343 8.09 5.35 10.97
3/23/2021 10:30:00 AM 8.88 47.984 0.343 8.1 5.83 11
3/23/2021 10:45:00 AM 8.94 48.092 0.343 8.1 5.82 11.04
3/23/2021 11:00:00 AM 9 48.2 0.343 8.11 6.62 11.08
3/23/2021 11:15:00 AM 9.08 48.344 0.343 8.12 6.25 11.1
3/23/2021 11:30:00 AM 9.18 48.524 0.343 8.12 5.9 11.13
3/23/2021 11:45:00 AM 9.28 48.704 0.343 8.12 6.19 11.14
3/23/2021 12:00:00 PM 9.38 48.884 0.343 8.13 6 11.15
3/23/2021 12:15:00 PM 9.5 49.1 0.343 8.14 6.15 11.18
3/23/2021 12:30:00 PM 9.61 49.298 0.343 8.14 6.15 11.19
3/23/2021 12:45:00 PM 9.72 49.496 0.343 8.14 7.91 11.2
3/23/2021 1:00:00 PM 9.82 49.676 0.343 8.14 6.1 11.21
3/23/2021 1:15:00 PM 9.92 49.856 0.343 8.15 5.93 11.2
3/23/2021 1:30:00 PM 10.08 50.144 0.343 8.15 5.74 11.23
3/23/2021 1:45:00 PM 10.2 50.36 0.343 8.15 5.75 11.24
3/23/2021 2:00:00 PM 10.3 50.54 0.344 8.15 5.88 11.24
3/23/2021 2:15:00 PM 10.36 50.648 0.344 8.15 6.01 11.22
3/23/2021 2:30:00 PM 10.41 50.738 0.344 8.15 5.1 11.21
3/23/2021 2:45:00 PM 10.56 51.008 0.344 8.15 5.8 11.21
3/23/2021 3:00:00 PM 10.57 51.026 0.344 8.16 6 11.2
3/23/2021 3:15:00 PM 10.66 51.188 0.344 8.17 6.09 11.2
3/23/2021 3:30:00 PM 10.68 51.224 0.345 8.16 5.88 11.19
3/23/2021 3:45:00 PM 10.65 51.17 0.345 8.15 5.85 11.16
3/23/2021 4:00:00 PM 10.68 51.224 0.345 8.15 6.07 11.15
3/23/2021 4:15:00 PM 10.66 51.188 0.345 8.14 7.74 11.13
3/23/2021 4:30:00 PM 10.69 51.242 0.346 8.15 5.54 11.12
3/23/2021 4:45:00 PM 10.63 51.134 0.346 8.15 5.28 11.11
3/23/2021 5:00:00 PM 10.62 51.116 0.346 8.15 5.87 11.07
3/23/2021 5:15:00 PM 10.62 51.116 0.347 8.15 5.91 11.04
3/23/2021 5:30:00 PM 10.62 51.116 0.347 8.16 5.81 10.99
3/23/2021 5:45:00 PM 10.61 51.098 0.347 8.16 5.61 10.97
3/23/2021 6:00:00 PM 10.63 51.134 0.347 8.16 6.06 10.92
3/23/2021 6:15:00 PM 10.65 51.17 0.347 8.16 5.71 10.89
3/23/2021 6:30:00 PM 10.67 51.206 0.348 8.16 6.52 10.85
3/23/2021 6:45:00 PM 10.69 51.242 0.348 8.16 5.5 10.82
3/23/2021 7:00:00 PM 10.7 51.26 0.346 8.16 5.81 10.77
3/23/2021 7:15:00 PM 10.72 51.296 0.345 8.16 5.68 10.71
3/23/2021 7:30:00 PM 10.74 51.332 0.342 8.16 6.07 10.66
3/23/2021 7:45:00 PM 10.75 51.35 0.348 8.15 6.24 10.59
3/23/2021 8:00:00 PM 10.77 51.386 0.348 8.15 6.09 10.56
3/23/2021 8:15:00 PM 10.8 51.44 0.348 8.15 6.3 10.48
3/23/2021 8:30:00 PM 10.83 51.494 0.334 8.14 5.82 10.47
3/23/2021 8:45:00 PM 10.89 51.602 0.347 8.15 6.4 10.45
3/23/2021 9:00:00 PM 10.92 51.656 0.328 8.15 7.32 10.44
3/23/2021 9:15:00 PM 10.97 51.746 0.348 8.15 5.89 10.42
3/23/2021 9:30:00 PM 11.02 51.836 0.348 8.15 5.48 10.42
3/23/2021 9:45:00 PM 11.05 51.89 0.334 8.15 5.58 10.44
3/23/2021 10:00:00 PM 11.08 51.944 0.348 8.14 6.14 10.43
3/23/2021 10:15:00 PM 11.09 51.962 0.347 8.16 5.64 10.45
3/23/2021 10:30:00 PM 11.11 51.998 0.349 8.17 6.3 10.45
3/23/2021 10:45:00 PM 11.11 51.998 0.349 8.18 6.4 10.45
3/23/2021 11:00:00 PM 11.12 52.016 0.349 8.19 6.1 10.47
3/23/2021 11:15:00 PM 11.12 52.016 0.349 8.19 5.97 10.46
3/23/2021 11:30:00 PM 11.11 51.998 0.349 8.2 7.27 10.47
3/23/2021 11:45:00 PM 11.11 51.998 0.349 8.21 6.65 10.45
3/24/2021 12:00:00 AM 11.11 51.998 0.348 8.22 6.12 10.5
3/24/2021 12:15:00 AM 11.11 51.998 0.348 8.21 5.84 10.49
3/24/2021 12:30:00 AM 11.13 52.034 0.348 8.21 5.92 10.49
3/24/2021 12:45:00 AM 11.13 52.034 0.338 8.22 5.57 10.5
3/24/2021 1:00:00 AM 11.14 52.052 0.345 8.22 5.91 10.5
3/24/2021 1:15:00 AM 11.14 52.052 0.346 8.22 5.95 10.48
3/24/2021 1:30:00 AM 11.14 52.052 0.338 8.22 5.98 10.47
3/24/2021 1:45:00 AM 11.13 52.034 0.33 8.22 5.99 10.48
3/24/2021 2:00:00 AM 11.12 52.016 0.348 8.22 7.15 10.45
3/24/2021 2:15:00 AM 11.11 51.998 0.348 8.22 7.69 10.46
3/24/2021 2:30:00 AM 11.09 51.962 0.343 8.21 6.39 10.45
3/24/2021 2:45:00 AM 11.07 51.926 0.333 8.21 5.9 10.44
3/24/2021 3:00:00 AM 11.04 51.872 0.348 8.2 6.79 10.4
3/24/2021 3:15:00 AM 11.02 51.836 0.325 8.2 6.96 10.38
3/24/2021 3:30:00 AM 10.99 51.782 0.297 8.19 6.37 10.37
3/24/2021 3:45:00 AM 10.96 51.728 0.346 8.18 6.93 10.35
3/24/2021 4:00:00 AM 10.94 51.692 0.348 8.17 5.59 10.35
3/24/2021 4:15:00 AM 10.91 51.638 0.35 8.17 6.79 10.31
3/24/2021 4:30:00 AM 10.88 51.584 0.303 8.16 6.41 10.29
3/24/2021 4:45:00 AM 10.85 51.53 0.339 8.15 6.77 10.29
3/24/2021 5:00:00 AM 10.82 51.476 0.348 8.15 7.59 10.26
3/24/2021 5:15:00 AM 10.8 51.44 0.347 8.14 6.28 10.25
3/24/2021 5:30:00 AM 10.77 51.386 0.345 8.13 6.93 10.23
3/24/2021 5:45:00 AM 10.74 51.332 0.346 8.12 6.25 10.21
3/24/2021 6:00:00 AM 10.72 51.296 0.339 8.12 7.76 10.21
3/24/2021 6:15:00 AM 10.69 51.242 0.346 8.11 7.96 10.18
3/24/2021 6:30:00 AM 10.66 51.188 0.322 8.11 6.59 10.17
3/24/2021 6:45:00 AM 10.64 51.152 0.348 8.1 6.43 10.16
3/24/2021 7:00:00 AM 10.62 51.116 0.348 8.09 6.43 10.12
3/24/2021 7:15:00 AM 10.59 51.062 0.348 8.09 6.87 10.13
3/24/2021 7:30:00 AM 10.56 51.008 0.349 8.08 9.06 10.08
3/24/2021 7:45:00 AM 10.53 50.954 0.348 8.08 6.82 10.11
3/24/2021 8:00:00 AM 10.51 50.918 0.348 8.07 10.82 10.1
3/24/2021 8:15:00 AM 10.49 50.882 0.347 8.07 8.11 10.09
3/24/2021 8:30:00 AM 10.46 50.828 0.346 8.06 7.58 10.09
3/24/2021 8:45:00 AM 10.44 50.792 0.345 8.07 7.73 10.12
3/24/2021 9:00:00 AM 10.42 50.756 0.344 8.06 8.61 10.1
3/24/2021 9:15:00 AM 10.41 50.738 0.343 8.06 9.03 10.12
3/24/2021 9:30:00 AM 10.41 50.738 0.343 8.06 9.17 10.13
3/24/2021 9:45:00 AM 10.42 50.756 0.343 8.06 15.59 10.17
3/24/2021 10:00:00 AM 10.41 50.738 0.344 8.05 9.46 10.17
3/24/2021 10:15:00 AM 10.4 50.72 0.341 8.06 10.44 10.2
3/24/2021 10:30:00 AM 10.4 50.72 0.338 8.05 13.36 10.2
3/24/2021 10:45:00 AM 10.42 50.756 0.336 8.05 13.05 10.2
3/24/2021 11:00:00 AM 10.42 50.756 0.336 8.05 11.91 10.21
3/24/2021 11:15:00 AM 10.42 50.756 0.337 8.04 12.06 10.2
3/24/2021 11:30:00 AM 10.44 50.792 0.338 8.04 12.35 10.21
3/24/2021 11:45:00 AM 10.46 50.828 0.295 8.04 11.24 10.25
3/24/2021 12:00:00 PM 10.48 50.864 0.341 8.03 11.94 10.26
3/24/2021 12:15:00 PM 10.5 50.9 0.342 8.03 10.92 10.3
3/24/2021 12:30:00 PM 10.53 50.954 0.343 8.04 9.49 10.32
3/24/2021 12:45:00 PM 10.57 51.026 0.344 8.05 9.49 10.37
3/24/2021 1:00:00 PM 10.61 51.098 0.335 8.05 10.12 10.42
3/24/2021 1:15:00 PM 10.63 51.134 0.344 8.06 8.61 10.42
3/24/2021 1:30:00 PM 10.64 51.152 0.325 8.06 8.37 10.41
3/24/2021 1:45:00 PM 10.65 51.17 0.313 8.06 7.98 10.41
3/24/2021 2:00:00 PM 10.66 51.188 0.344 8.06 8.83 10.4
3/24/2021 2:15:00 PM 10.67 51.206 0.345 8.06 7.02 10.39
3/24/2021 2:30:00 PM 10.68 51.224 0.346 8.06 8.29 10.36
3/24/2021 2:45:00 PM 10.7 51.26 0.346 8.06 7.5 10.36
3/24/2021 3:00:00 PM 10.73 51.314 0.346 8.06 7.72 10.35
3/24/2021 3:15:00 PM 10.76 51.368 0.346 8.06 7.6 10.36
3/24/2021 3:30:00 PM 10.78 51.404 0.347 8.06 6.84 10.36
3/24/2021 3:45:00 PM 10.79 51.422 0.346 8.07 6.68 10.36
3/24/2021 4:00:00 PM 10.8 51.44 0.346 8.07 8.42 10.35
3/24/2021 4:15:00 PM 10.8 51.44 0.339 8.06 7.48 10.31
3/24/2021 4:30:00 PM 10.81 51.458 0.331 8.07 7.61 10.28
3/24/2021 4:45:00 PM 10.82 51.476 0.34 8.07 7.28 10.28
3/24/2021 5:00:00 PM 10.83 51.494 0.339 8.07 6.69 10.26
3/24/2021 5:15:00 PM 10.85 51.53 0.324 8.06 6.77 10.23
3/24/2021 5:30:00 PM 10.86 51.548 0.318 8.06 7.09 10.24
3/24/2021 5:45:00 PM 10.89 51.602 0.316 8.06 6.76 10.24
3/24/2021 6:00:00 PM 10.91 51.638 0.317 8.06 8.38 10.26
3/24/2021 6:15:00 PM 10.93 51.674 0.335 8.07 8.3 10.24
3/24/2021 6:30:00 PM 10.94 51.692 0.347 8.06 7.38 10.23
3/24/2021 6:45:00 PM 10.95 51.71 0.349 8.06 7.6 10.2
3/24/2021 7:00:00 PM 10.95 51.71 0.332 8.06 7.56 10.16
3/24/2021 7:15:00 PM 10.96 51.728 0.332 8.05 8.02 10.13
3/24/2021 7:30:00 PM 10.96 51.728 0.329 8.05 7.82 10.09
3/24/2021 7:45:00 PM 10.96 51.728 0.322 8.04 7.05 10.06
3/24/2021 8:00:00 PM 10.96 51.728 0.33 8.04 9.44 10.01
3/24/2021 8:15:00 PM 10.97 51.746 0.351 8.03 8.23 10
3/24/2021 8:30:00 PM 10.98 51.764 0.312 8.02 7.57 9.99
3/24/2021 8:45:00 PM 10.99 51.782 0.345 8.02 7.46 9.97
3/24/2021 9:00:00 PM 10.99 51.782 0.345 8.02 7.22 9.98
3/24/2021 9:15:00 PM 11 51.8 0.339 8.02 9.02 10
3/24/2021 9:30:00 PM 11.01 51.818 0.34 8.02 9.04 10
3/24/2021 9:45:00 PM 11.02 51.836 0.332 8.03 7.81 10.01
3/24/2021 10:00:00 PM 11.03 51.854 0.335 8.03 9.89 10.02
3/24/2021 10:15:00 PM 11.04 51.872 0.347 8.03 7.98 10.03
3/24/2021 10:30:00 PM 11.04 51.872 0.346 8.03 7.5 10.02
3/24/2021 10:45:00 PM 11.05 51.89 0.351 8.04 7.42 10.06
3/24/2021 11:00:00 PM 11.05 51.89 0.35 8.04 7.95 10.04
3/24/2021 11:15:00 PM 11.05 51.89 0.329 8.04 7.13 10.06
3/24/2021 11:30:00 PM 11.05 51.89 0.341 8.04 7.53 10.04
3/24/2021 11:45:00 PM 11.05 51.89 0.35 8.04 8.46 10.06
3/25/2021 12:00:00 AM 11.05 51.89 0.336 8.03 7.46 10.05
3/25/2021 12:15:00 AM 11.05 51.89 0.351 8.04 8.2 10.07
3/25/2021 12:30:00 AM 11.05 51.89 0.351 8.04 8.24 10.07
3/25/2021 12:45:00 AM 11.05 51.89 0.351 8.04 7.78 10.09
3/25/2021 1:00:00 AM 11.05 51.89 0.351 8.05 7.93 10.08
3/25/2021 1:15:00 AM 11.04 51.872 0.351 8.05 7.77 10.08
3/25/2021 1:30:00 AM 11.03 51.854 0.351 8.04 8.55 10.07
3/25/2021 1:45:00 AM 11.03 51.854 0.351 8.04 10.69 10.06
3/25/2021 2:00:00 AM 11.02 51.836 0.351 8.04 7.77 10.06
3/25/2021 2:15:00 AM 11.02 51.836 0.351 8.04 7.75 10.05
3/25/2021 2:30:00 AM 11.01 51.818 0.351 8.04 8.99 10.05
3/25/2021 2:45:00 AM 11.01 51.818 0.347 8.04 9.91 10.04
3/25/2021 3:00:00 AM 11 51.8 0.347 8.04 8.58 10.04
3/25/2021 3:15:00 AM 10.99 51.782 0.346 8.03 8.82 10.02
3/25/2021 3:30:00 AM 10.98 51.764 0.351 8.02 7.96 10
3/25/2021 3:45:00 AM 10.97 51.746 0.347 8.02 7.93 9.99
3/25/2021 4:00:00 AM 10.96 51.728 0.316 8.02 8.17 9.97
3/25/2021 4:15:00 AM 10.95 51.71 0.325 8.01 8.79 9.97
3/25/2021 4:30:00 AM 10.94 51.692 0.347 8 9.23 9.96
3/25/2021 4:45:00 AM 10.93 51.674 0.337 8 9.83 9.95
3/25/2021 5:00:00 AM 10.92 51.656 0.34 7.99 8.37 9.94
3/25/2021 5:15:00 AM 10.91 51.638 0.321 7.99 9.07 9.94
3/25/2021 5:30:00 AM 10.9 51.62 0.336 7.99 8.49 9.92
3/25/2021 5:45:00 AM 10.89 51.602 0.346 7.98 11.87 9.89
3/25/2021 6:00:00 AM 10.89 51.602 0.349 7.98 9.79 9.9
3/25/2021 6:15:00 AM 10.88 51.584 0.35 7.97 8.21 9.88
3/25/2021 6:30:00 AM 10.87 51.566 0.349 7.97 10.45 9.89
3/25/2021 6:45:00 AM 10.86 51.548 0.349 7.96 10.05 9.87
3/25/2021 7:00:00 AM 10.85 51.53 0.349 7.96 9.28 9.86
3/25/2021 7:15:00 AM 10.85 51.53 0.349 7.96 9.39 9.85
3/25/2021 7:30:00 AM 10.84 51.512 0.349 7.95 9.93 9.84
3/25/2021 7:45:00 AM 10.84 51.512 0.349 7.95 8.66 9.85
3/25/2021 8:00:00 AM 10.84 51.512 0.349 7.95 8.88 9.86
3/25/2021 8:15:00 AM 10.84 51.512 0.349 7.94 8.62 9.86
3/25/2021 8:30:00 AM 10.85 51.53 0.349 7.95 8.78 9.88
3/25/2021 8:45:00 AM 10.86 51.548 0.349 7.95 8.38 9.89
3/25/2021 9:00:00 AM 10.88 51.584 0.349 7.95 8.4 9.94
3/25/2021 9:15:00 AM 10.9 51.62 0.348 7.96 11.64 9.98
3/25/2021 9:30:00 AM 10.93 51.674 0.348 7.96 11.08 10.04
3/25/2021 9:45:00 AM 10.95 51.71 0.348 7.97 8.94 10.07
3/25/2021 10:00:00 AM 10.99 51.782 0.348 7.98 12.65 10.13
3/25/2021 10:15:00 AM 11.02 51.836 0.348 7.99 8.79 10.16
3/25/2021 10:30:00 AM 11.03 51.854 0.348 7.99 9.92 10.17
3/25/2021 10:45:00 AM 11.06 51.908 0.348 7.99 9.74 10.21
3/25/2021 11:00:00 AM 11.08 51.944 0.348 8 9.17 10.24
3/25/2021 11:15:00 AM 11.1 51.98 0.348 8 9.58 10.24
3/25/2021 11:30:00 AM 11.13 52.034 0.348 8 8.44 10.24
3/25/2021 11:45:00 AM 11.18 52.124 0.348 8.01 9.52 10.29
3/25/2021 12:00:00 PM 11.21 52.178 0.348 8.01 11.71 10.3
3/25/2021 12:15:00 PM 11.24 52.232 0.348 8.01 8.92 10.3
3/25/2021 12:30:00 PM 11.27 52.286 0.347 8.01 10.69 10.35
3/25/2021 12:45:00 PM 11.3 52.34 0.347 8.02 10.71 10.36
3/25/2021 1:00:00 PM 11.34 52.412 0.347 8.03 12.69 10.36
3/25/2021 1:15:00 PM 11.4 52.52 0.347 8.03 9.97 10.37
3/25/2021 1:30:00 PM 11.46 52.628 0.347 8.03 13.45 10.4
3/25/2021 1:45:00 PM 11.5 52.7 0.347 8.03 8.97 10.41
3/25/2021 2:00:00 PM 11.54 52.772 0.347 7.99 10.25 10.42
3/25/2021 2:15:00 PM 11.58 52.844 0.347 8.03 11.37 10.44
3/25/2021 2:30:00 PM 11.63 52.934 0.347 8.04 8.66 10.44
3/25/2021 2:45:00 PM 11.69 53.042 0.347 8.04 9.52 10.44
3/25/2021 3:00:00 PM 11.77 53.186 0.347 8.05 9.22 10.48
3/25/2021 3:15:00 PM 11.86 53.348 0.347 8.05 9.67 10.49
3/25/2021 3:30:00 PM 11.94 53.492 0.347 8.06 9.62 10.52
3/25/2021 3:45:00 PM 12.01 53.618 0.347 8.05 9.81 10.53
3/25/2021 4:00:00 PM 12.07 53.726 0.347 8.06 10.2 10.54
3/25/2021 4:15:00 PM 12.12 53.816 0.347 8.07 8.91 10.55
3/25/2021 4:30:00 PM 12.11 53.798 0.347 8.07 9.3 10.52
3/25/2021 4:45:00 PM 12.11 53.798 0.347 8.07 11.2 10.5
3/25/2021 5:00:00 PM 12.13 53.834 0.347 8.08 9.28 10.48
3/25/2021 5:15:00 PM 12.14 53.852 0.347 8.08 9.95 10.46
3/25/2021 5:30:00 PM 12.14 53.852 0.347 8.09 9.41 10.42
3/25/2021 5:45:00 PM 12.14 53.852 0.347 8.08 10.42 10.39
3/25/2021 6:00:00 PM 12.14 53.852 0.347 8.09 9.55 10.35
3/25/2021 6:15:00 PM 12.13 53.834 0.347 8.08 9.3 10.27
3/25/2021 6:30:00 PM 12.12 53.816 0.347 8.08 12.11 10.2
3/25/2021 6:45:00 PM 12.11 53.798 0.347 8.08 10.39 10.14
3/25/2021 7:00:00 PM 12.11 53.798 0.347 8.07 10 10.06
3/25/2021 7:15:00 PM 12.11 53.798 0.347 8.06 9.7 10
3/25/2021 7:30:00 PM 12.12 53.816 0.347 8.06 10.22 9.94
3/25/2021 7:45:00 PM 12.13 53.834 0.347 8.05 12.34 9.92
3/25/2021 8:00:00 PM 12.15 53.87 0.348 8.05 9.28 9.89
3/25/2021 8:15:00 PM 12.18 53.924 0.348 8.05 11.23 9.88
3/25/2021 8:30:00 PM 12.2 53.96 0.348 8.05 15.02 9.88
3/25/2021 8:45:00 PM 12.23 54.014 0.348 8.05 10.62 9.9
3/25/2021 9:00:00 PM 12.25 54.05 0.349 8.06 11 9.91
3/25/2021 9:15:00 PM 12.28 54.104 0.332 8.07 12.06 9.89
3/25/2021 9:30:00 PM 12.29 54.122 0.348 8.08 11.73 9.9
3/25/2021 9:45:00 PM 12.33 54.194 0.343 8.09 10.43 9.93
3/25/2021 10:00:00 PM 12.35 54.23 0.348 8.1 10.7 9.95
3/25/2021 10:15:00 PM 12.37 54.266 0.32 8.11 9.36 9.96
3/25/2021 10:30:00 PM 12.39 54.302 0.348 8.11 11.35 9.95
3/25/2021 10:45:00 PM 12.41 54.338 0.348 8.12 13.62 9.97
3/25/2021 11:00:00 PM 12.42 54.356 0.348 8.13 9.58 9.98
3/25/2021 11:15:00 PM 12.44 54.392 0.347 8.14 10.03 10
3/25/2021 11:30:00 PM 12.45 54.41 0.302 8.14 9.29 9.98
3/25/2021 11:45:00 PM 12.46 54.428 0.348 8.15 10.28 9.98
3/26/2021 12:00:00 AM 12.47 54.446 0.333 8.16 10.72 9.99
3/26/2021 12:15:00 AM 12.48 54.464 0.341 8.16 9.65 9.98
3/26/2021 12:30:00 AM 12.48 54.464 0.344 8.17 13.14 9.98
3/26/2021 12:45:00 AM 12.48 54.464 0.347 8.17 10.93 9.97
3/26/2021 1:00:00 AM 12.48 54.464 0.347 8.17 9.86 9.97
3/26/2021 1:15:00 AM 12.48 54.464 0.329 8.17 9.94 9.94
3/26/2021 1:30:00 AM 12.48 54.464 0.344 8.17 11 9.93
3/26/2021 1:45:00 AM 12.47 54.446 0.339 8.17 10.11 9.92
3/26/2021 2:00:00 AM 12.47 54.446 0.341 8.16 11.19 9.89
3/26/2021 2:15:00 AM 12.46 54.428 0.347 8.15 17.5 9.85
3/26/2021 2:30:00 AM 12.46 54.428 0.347 8.15 10.46 9.84
3/26/2021 2:45:00 AM 12.45 54.41 0.347 8.15 12.34 9.82
3/26/2021 3:00:00 AM 12.44 54.392 0.347 8.15 10.88 9.81
3/26/2021 3:15:00 AM 12.44 54.392 0.315 8.14 11.8 9.76
3/26/2021 3:30:00 AM 12.43 54.374 0.34 8.13 11.5 9.74
3/26/2021 3:45:00 AM 12.42 54.356 0.348 8.13 10.27 9.74
3/26/2021 4:00:00 AM 12.41 54.338 0.347 8.12 10.68 9.72
3/26/2021 4:15:00 AM 12.39 54.302 0.348 8.1 14.85 9.7
3/26/2021 4:30:00 AM 12.38 54.284 0.347 8.1 15.61 9.66
3/26/2021 4:45:00 AM 12.37 54.266 0.347 8.1 10.88 9.64
3/26/2021 5:00:00 AM 12.35 54.23 0.347 8.09 10.56 9.63
3/26/2021 5:15:00 AM 12.34 54.212 0.347 8.08 10.2 9.59
3/26/2021 5:30:00 AM 12.33 54.194 0.336 8.08 18.98 9.57
3/26/2021 5:45:00 AM 12.32 54.176 0.347 8.07 10.63 9.55
3/26/2021 6:00:00 AM 12.31 54.158 0.347 8.06 10.07 9.55
3/26/2021 6:15:00 AM 12.31 54.158 0.347 8.05 10.67 9.51
3/26/2021 6:30:00 AM 12.29 54.122 0.347 8.05 14.54 9.5
3/26/2021 6:45:00 AM 12.28 54.104 0.346 8.04 12.43 9.48
3/26/2021 7:00:00 AM 12.27 54.086 0.346 8.03 11.22 9.44
3/26/2021 7:15:00 AM 12.25 54.05 0.346 8.03 12.79 9.42
3/26/2021 7:30:00 AM 12.25 54.05 0.346 8.02 13.18 9.4
3/26/2021 7:45:00 AM 12.26 54.068 0.345 8.02 13.36 9.42
3/26/2021 8:00:00 AM 12.28 54.104 0.345 8.02 12.51 9.42
3/26/2021 8:15:00 AM 12.3 54.14 0.345 8.02 11.62 9.48
3/26/2021 8:30:00 AM 12.32 54.176 0.344 8.02 16.71 9.48
3/26/2021 8:45:00 AM 12.34 54.212 0.344 8.02 12.55 9.52
3/26/2021 9:00:00 AM 12.36 54.248 0.344 8.03 23.49 9.57
3/26/2021 9:15:00 AM 12.41 54.338 0.344 8.03 12.91 9.61
3/26/2021 9:30:00 AM 12.47 54.446 0.344 8.03 13.91 9.66
3/26/2021 9:45:00 AM 12.53 54.554 0.344 8.04 14.06 9.73
3/26/2021 10:00:00 AM 12.63 54.734 0.344 8.05 13.99 9.79
3/26/2021 10:15:00 AM 12.73 54.914 0.344 8.05 12.69 9.84
3/26/2021 10:30:00 AM 12.85 55.13 0.344 8.06 16.8 9.89
3/26/2021 10:45:00 AM 12.94 55.292 0.344 8.07 13.34 9.94
3/26/2021 11:00:00 AM 13.06 55.508 0.343 8.08 15.83 9.96
3/26/2021 11:15:00 AM 13.16 55.688 0.343 8.08 12.37 10.01
3/26/2021 11:30:00 AM 13.27 55.886 0.343 8.08 13.11 10.03
3/26/2021 11:45:00 AM 13.37 56.066 0.343 8.09 13.32 10.05
3/26/2021 12:00:00 PM 13.48 56.264 0.342 8.09 20.67 10.08
3/26/2021 12:15:00 PM 13.62 56.516 0.342 8.1 14.05 10.09
3/26/2021 12:30:00 PM 13.74 56.732 0.342 8.1 18.04 10.08
3/26/2021 12:45:00 PM 13.9 57.02 0.342 8.11 10.93 10.1
3/26/2021 1:00:00 PM 14.03 57.254 0.342 8.11 16.79 10.13
3/26/2021 1:15:00 PM 14.2 57.56 0.342 8.11 13.07 10.15
3/26/2021 1:30:00 PM 14.35 57.83 0.342 8.11 13.42 10.16
3/26/2021 1:45:00 PM 14.49 58.082 0.342 8.12 17.48 10.18
3/26/2021 2:00:00 PM 14.62 58.316 0.342 8.12 20.32 10.19
3/26/2021 2:15:00 PM 14.75 58.55 0.342 8.13 12.78 10.18
3/26/2021 2:30:00 PM 14.89 58.802 0.343 8.13 19.36 10.21
3/26/2021 2:45:00 PM 14.96 58.928 0.342 8.13 13.91 10.18
3/26/2021 3:00:00 PM 14.98 58.964 0.246 8.13 12.42 10.18
3/26/2021 3:15:00 PM 14.91 58.838 0.343 8.13 24.89 10.1
3/26/2021 3:30:00 PM 14.82 58.676 0.271 8.13 14.56 10.09
3/26/2021 3:45:00 PM 14.9 58.82 0.34 8.14 13.72 10.09
3/26/2021 4:00:00 PM 14.96 58.928 0.326 8.15 20.35 10.07
3/26/2021 4:15:00 PM 15.04 59.072 0.341 8.15 17.83 10.09
3/26/2021 4:30:00 PM 15.08 59.144 0.342 8.16 14.91 10.09
3/26/2021 4:45:00 PM 15.08 59.144 0.3 8.16 24.03 10.07
3/26/2021 5:00:00 PM 15.17 59.306 0.342 8.16 12.81 10.09
3/26/2021 5:15:00 PM 15.19 59.342 0.268 8.16 16.1 10.09
3/26/2021 5:30:00 PM 15.16 59.288 0.34 8.16 29.89 10.06
3/26/2021 5:45:00 PM 15.1 59.18 0.342 8.15 27.75 9.98
3/26/2021 6:00:00 PM 15.05 59.09 0.342 8.16 29.86 9.97
3/26/2021 6:15:00 PM 15 59 0.342 8.15 16.05 9.9
3/26/2021 6:30:00 PM 14.96 58.928 0.342 8.15 16.81 9.83
3/26/2021 6:45:00 PM 14.92 58.856 0.342 8.15 23.73 9.76
3/26/2021 7:00:00 PM 14.89 58.802 0.342 8.15 27 9.69
3/26/2021 7:15:00 PM 14.86 58.748 0.342 8.14 15.04 9.61
3/26/2021 7:30:00 PM 14.84 58.712 0.343 8.14 15.73 9.5
3/26/2021 7:45:00 PM 14.82 58.676 0.342 8.13 25.88 9.41
3/26/2021 8:00:00 PM 14.82 58.676 0.312 8.14 26.05 9.33
3/26/2021 8:15:00 PM 14.84 58.712 0.343 8.15 19.37 9.28
3/26/2021 8:30:00 PM 14.85 58.73 0.343 8.15 24.88 9.23
3/26/2021 8:45:00 PM 14.89 58.802 0.344 8.15 21.76 9.21
3/26/2021 9:00:00 PM 14.9 58.82 0.345 8.16 18.91 9.19
3/26/2021 9:15:00 PM 14.92 58.856 0.332 8.16 18.5 9.19
3/26/2021 9:30:00 PM 14.93 58.874 0.343 8.16 21.74 9.17
3/26/2021 9:45:00 PM 14.94 58.892 0.335 8.17 35.38 9.17
3/26/2021 10:00:00 PM 14.96 58.928 0.331 8.18 15.44 9.2
3/26/2021 10:15:00 PM 14.98 58.964 0.339 8.19 24.33 9.22
3/26/2021 10:30:00 PM 14.98 58.964 0.344 8.2 34.75 9.23
3/26/2021 10:45:00 PM 14.98 58.964 0.344 8.2 23.45 9.2
3/26/2021 11:00:00 PM 14.98 58.964 0.342 8.21 26.67 9.22
3/26/2021 11:15:00 PM 14.98 58.964 0.311 8.21 24.3 9.25
3/26/2021 11:30:00 PM 14.96 58.928 0.313 8.21 46.38 9.24
3/26/2021 11:45:00 PM 14.95 58.91 0.317 8.22 46.48 9.26
3/27/2021 12:00:00 AM 14.92 58.856 0.317 8.23 23.72 9.27
3/27/2021 12:15:00 AM 14.9 58.82 0.342 8.23 39.22 9.25
3/27/2021 12:30:00 AM 14.87 58.766 0.341 8.24 35.9 9.28
3/27/2021 12:45:00 AM 14.83 58.694 0.325 8.24 24.61 9.27
3/27/2021 1:00:00 AM 14.79 58.622 0.341 8.25 23.22 9.29
3/27/2021 1:15:00 AM 14.76 58.568 0.341 8.25 22.32 9.29
3/27/2021 1:30:00 AM 14.7 58.46 0.341 8.25 26.56 9.28
3/27/2021 1:45:00 AM 14.66 58.388 0.341 8.24 22.76 9.3
3/27/2021 2:00:00 AM 14.61 58.298 0.341 8.24 25.22 9.29
3/27/2021 2:15:00 AM 14.55 58.19 0.34 8.24 45.57 9.29
3/27/2021 2:30:00 AM 14.5 58.1 0.34 8.23 45.42 9.26
3/27/2021 2:45:00 AM 14.43 57.974 0.329 8.23 26.16 9.27
3/27/2021 3:00:00 AM 14.37 57.866 0.34 8.21 58.4 9.25
3/27/2021 3:15:00 AM 14.3 57.74 0.34 8.21 28.12 9.25
3/27/2021 3:30:00 AM 14.24 57.632 0.34 8.2 25.22 9.24
3/27/2021 3:45:00 AM 14.18 57.524 0.341 8.19 35.79 9.25
3/27/2021 4:00:00 AM 14.1 57.38 0.341 8.18 58.56 9.21
3/27/2021 4:15:00 AM 14.04 57.272 0.321 8.18 56.55 9.23
3/27/2021 4:30:00 AM 13.97 57.146 0.339 8.17 26.89 9.22
3/27/2021 4:45:00 AM 13.9 57.02 0.342 8.15 30.02 9.2
3/27/2021 5:00:00 AM 13.85 56.93 0.342 8.15 40.53 9.19
3/27/2021 5:15:00 AM 13.78 56.804 0.342 8.14 25.69 9.16
3/27/2021 5:30:00 AM 13.72 56.696 0.342 8.13 31.59 9.17
3/27/2021 5:45:00 AM 13.66 56.588 0.342 8.12 31.33 9.15
3/27/2021 6:00:00 AM 13.59 56.462 0.342 8.11 31.46 9.15
3/27/2021 6:15:00 AM 13.53 56.354 0.337 8.1 34.67 9.14
3/27/2021 6:30:00 AM 13.47 56.246 0.342 8.09 55.41 9.11
3/27/2021 6:45:00 AM 13.41 56.138 0.342 8.08 33.77 9.13
3/27/2021 7:00:00 AM 13.36 56.048 0.342 8.07 36.38 9.1
3/27/2021 7:15:00 AM 13.29 55.922 0.343 8.06 65.92 9.1
3/27/2021 7:30:00 AM 13.24 55.832 0.343 8.05 73.03 9.12
3/27/2021 7:45:00 AM 13.18 55.724 0.343 8.05 47.67 9.15
3/27/2021 8:00:00 AM 13.15 55.67 0.343 8.05 36.15 9.16
3/27/2021 8:15:00 AM 13.13 55.634 0.343 8.05 55.06 9.2
3/27/2021 8:30:00 AM 13.12 55.616 0.344 8.04 51.19 9.21
3/27/2021 8:45:00 AM 13.13 55.634 0.344 8.04 75.96 9.27
3/27/2021 9:00:00 AM 13.15 55.67 0.344 8.05 75.3 9.33
3/27/2021 9:15:00 AM 13.18 55.724 0.344 8.05 45.02 9.4
3/27/2021 9:30:00 AM 13.19 55.742 0.345 8.06 44.88 9.47
3/27/2021 9:45:00 AM 13.23 55.814 0.345 8.07 39.24 9.55
3/27/2021 10:00:00 AM 13.28 55.904 0.345 8.08 64.53 9.64
3/27/2021 10:15:00 AM 13.32 55.976 0.346 8.08 37.49 9.69
3/27/2021 10:30:00 AM 13.37 56.066 0.346 8.09 45.79 9.78
3/27/2021 10:45:00 AM 13.44 56.192 0.346 8.1 53.94 9.82
3/27/2021 11:00:00 AM 13.51 56.318 0.346 8.11 60.78 9.87
3/27/2021 11:15:00 AM 13.57 56.426 0.347 8.11 42.22 9.92
3/27/2021 11:30:00 AM 13.65 56.57 0.347 8.12 50.94 9.96
3/27/2021 11:45:00 AM 13.74 56.732 0.347 8.13 73.97 10.01
3/27/2021 12:00:00 PM 13.84 56.912 0.348 8.13 54.01 10.05
3/27/2021 12:15:00 PM 13.97 57.146 0.348 8.14 59.39 10.09
3/27/2021 12:30:00 PM 14.09 57.362 0.348 8.14 42.3 10.13
3/27/2021 12:45:00 PM 14.23 57.614 0.348 8.14 41.19 10.15
3/27/2021 1:00:00 PM 14.34 57.812 0.349 8.15 38.43 10.2
3/27/2021 1:15:00 PM 14.45 58.01 0.349 8.16 46.97 10.24
3/27/2021 1:30:00 PM 14.56 58.208 0.35 8.16 66.33 10.25
3/27/2021 1:45:00 PM 14.64 58.352 0.35 8.16 39.44 10.29
3/27/2021 2:00:00 PM 14.73 58.514 0.35 8.16 54.44 10.29
3/27/2021 2:15:00 PM 14.82 58.676 0.351 8.17 41.76 10.3
3/27/2021 2:30:00 PM 14.84 58.712 0.351 8.17 38.55 10.31
3/27/2021 2:45:00 PM 14.87 58.766 0.351 8.17 73.96 10.32
3/27/2021 3:00:00 PM 14.87 58.766 0.351 8.17 59.26 10.29
3/27/2021 3:15:00 PM 14.87 58.766 0.351 8.17 42.06 10.3
3/27/2021 3:30:00 PM 14.81 58.658 0.352 8.17 46.74 10.25
3/27/2021 3:45:00 PM 14.73 58.514 0.348 8.17 62.04 10.22
3/27/2021 4:00:00 PM 14.63 58.334 0.348 8.16 66.36 10.09
3/27/2021 4:15:00 PM 14.6 58.28 0.347 8.16 72.01 10.06
3/27/2021 4:30:00 PM 14.54 58.172 0.352 8.15 1236 10.03
3/27/2021 4:45:00 PM 14.49 58.082 0.353 8.15 1250 9.99
3/27/2021 5:00:00 PM 14.45 58.01 0.354 8.15 1282 9.94
3/27/2021 5:15:00 PM 14.44 57.992 0.355 8.15 1269 9.81
3/27/2021 5:30:00 PM 14.42 57.956 0.356 8.14 1291 9.82
3/27/2021 5:45:00 PM 14.41 57.938 0.356 8.15 1276 9.8
3/27/2021 6:00:00 PM 14.4 57.92 0.357 8.14 1285 9.74
3/27/2021 6:15:00 PM 14.4 57.92 0.357 8.14 1293 9.66
3/27/2021 6:30:00 PM 14.41 57.938 0.357 8.13 1311 9.64
3/27/2021 6:45:00 PM 14.42 57.956 0.357 8.14 1312 9.57
3/27/2021 7:00:00 PM 14.44 57.992 0.357 8.13 1327 9.55
3/27/2021 7:15:00 PM 14.47 58.046 0.358 8.13 1291 9.47
3/27/2021 7:30:00 PM 14.49 58.082 0.358 8.13 1290 9.44
3/27/2021 7:45:00 PM 14.52 58.136 0.358 8.13 1290 9.38
3/27/2021 8:00:00 PM 14.55 58.19 0.328 8.12 1318 9.32
3/27/2021 8:15:00 PM 14.6 58.28 0.318 8.12 1332 9.3
3/27/2021 8:30:00 PM 14.63 58.334 0.337 8.11 1341 9.25
3/27/2021 8:45:00 PM 14.65 58.37 0.339 8.11 1306 9.21
3/27/2021 9:00:00 PM 14.69 58.442 0.334 8.11 1365 9.23
3/27/2021 9:15:00 PM 14.72 58.496 0.356 8.11 1379 9.21
3/27/2021 9:30:00 PM 14.76 58.568 0.313 8.12 1424 9.22
3/27/2021 9:45:00 PM 14.78 58.604 0.314 8.13 1398 9.23
3/27/2021 10:00:00 PM 14.81 58.658 0.348 8.14 1425 9.22
3/27/2021 10:15:00 PM 14.83 58.694 0.348 8.15 1439 9.23
3/27/2021 10:30:00 PM 14.84 58.712 0.324 8.15 1424 9.26
3/27/2021 10:45:00 PM 14.84 58.712 0.36 8.16 1429 9.23
3/27/2021 11:00:00 PM 14.86 58.748 0.319 8.17 1438 9.29
3/27/2021 11:15:00 PM 14.86 58.748 0.345 8.18 1459 9.28
3/27/2021 11:30:00 PM 14.86 58.748 0.348 8.19 1456 9.3
3/27/2021 11:45:00 PM 14.85 58.73 0.336 8.2 1472 9.3
3/28/2021 12:00:00 AM 14.84 58.712 0.35 8.21 1467 9.32
3/28/2021 12:15:00 AM 14.83 58.694 0.32 8.22 1456 9.33
3/28/2021 12:30:00 AM 14.79 58.622 0.35 8.22 1465 9.33
3/28/2021 12:45:00 AM 14.78 58.604 0.359 8.23 1455 9.3
3/28/2021 1:00:00 AM 14.76 58.568 0.359 8.23 1480 9.33
3/28/2021 1:15:00 AM 14.74 58.532 0.359 8.24 1469 9.33
3/28/2021 1:30:00 AM 14.7 58.46 0.359 8.24 1486 9.35
3/28/2021 1:45:00 AM 14.68 58.424 0.359 8.24 1491 9.36
3/28/2021 2:00:00 AM 14.65 58.37 0.359 8.24 1477 9.35
3/28/2021 2:15:00 AM 14.61 58.298 0.359 8.24 1527 9.33
3/28/2021 2:30:00 AM 14.58 58.244 0.359 8.24 1523 9.34
3/28/2021 2:45:00 AM 14.57 58.226 0.359 8.24 1524 9.34
3/28/2021 3:00:00 AM 14.56 58.208 0.359 8.24 1511 9.29
3/28/2021 3:15:00 AM 14.56 58.208 0.359 8.24 1529 9.29
3/28/2021 3:30:00 AM 14.56 58.208 0.359 8.24 1533 9.3
3/28/2021 3:45:00 AM 14.54 58.172 0.36 8.23 1531 9.27
3/28/2021 4:00:00 AM 14.52 58.136 0.36 8.22 1537 9.24
3/28/2021 4:15:00 AM 14.51 58.118 0.36 8.22 1535 9.22
3/28/2021 4:30:00 AM 14.47 58.046 0.36 8.21 1538 9.22
3/28/2021 4:45:00 AM 14.45 58.01 0.36 8.2 1539 9.18
3/28/2021 5:00:00 AM 14.42 57.956 0.36 8.19 1549 9.15
3/28/2021 5:15:00 AM 14.39 57.902 0.361 8.18 1549 9.15
3/28/2021 5:30:00 AM 14.36 57.848 0.361 8.17 1576 9.13
3/28/2021 5:45:00 AM 14.32 57.776 0.361 8.16 1594 9.1
3/28/2021 6:00:00 AM 14.28 57.704 0.362 8.15 1573 9.08
3/28/2021 6:15:00 AM 14.25 57.65 0.362 8.14 1604 9.06
3/28/2021 6:30:00 AM 14.21 57.578 0.362 8.14 1590 9.04
3/28/2021 6:45:00 AM 14.17 57.506 0.362 8.13 1614 9.03
3/28/2021 7:00:00 AM 14.12 57.416 0.362 8.11 1627 9.02
3/28/2021 7:15:00 AM 14.08 57.344 0.362 8.1 1629 8.97
3/28/2021 7:30:00 AM 14.03 57.254 0.362 8.09 1645 8.99
3/28/2021 7:45:00 AM 14 57.2 0.362 8.09 1632 8.97
3/28/2021 8:00:00 AM 13.95 57.11 0.362 8.09 1690 8.97
3/28/2021 8:15:00 AM 13.91 57.038 0.363 8.08 1706 8.94
3/28/2021 8:30:00 AM 13.88 56.984 0.363 8.08 1750 8.96
3/28/2021 8:45:00 AM 13.84 56.912 0.363 8.07 1722 8.98
3/28/2021 9:00:00 AM 13.82 56.876 0.363 8.07 1713 9.01
3/28/2021 9:15:00 AM 13.78 56.804 0.364 8.07 1733 9.02
3/28/2021 9:30:00 AM 13.75 56.75 0.364 8.07 1704 9.04
3/28/2021 9:45:00 AM 13.72 56.696 0.365 8.06 1719 9.05
3/28/2021 10:00:00 AM 13.69 56.642 0.365 8.06 1718 9.06
3/28/2021 10:15:00 AM 13.66 56.588 0.365 8.06 1774 9.1
3/28/2021 10:30:00 AM 13.65 56.57 0.364 8.06 1746 9.13
3/28/2021 10:45:00 AM 13.64 56.552 0.364 8.06 1782 9.17
3/28/2021 11:00:00 AM 13.64 56.552 0.364 8.06 1796 9.22
3/28/2021 11:15:00 AM 13.62 56.516 0.365 8.06 1783 9.27
3/28/2021 11:30:00 AM 13.6 56.48 0.365 8.06 1806 9.3
3/28/2021 11:45:00 AM 13.58 56.444 0.365 8.06 1770 9.27
3/28/2021 12:00:00 PM 13.56 56.408 0.365 8.06 1790 9.26
3/28/2021 12:15:00 PM 13.54 56.372 0.366 8.06 1776 9.27
3/28/2021 12:30:00 PM 13.52 56.336 0.366 8.05 1804 9.27
3/28/2021 12:45:00 PM 13.51 56.318 0.366 8.05 1777 9.28
3/28/2021 1:00:00 PM 13.51 56.318 0.366 8.05 1769 9.31
3/28/2021 1:15:00 PM 13.54 56.372 0.366 8.05 1793 9.37
3/28/2021 1:30:00 PM 13.61 56.498 0.366 8.06 1812 9.48
3/28/2021 1:45:00 PM 13.75 56.75 0.366 8.07 1811 9.57
3/28/2021 2:00:00 PM 13.88 56.984 0.366 8.09 1813 9.68
3/28/2021 2:15:00 PM 13.93 57.074 0.366 8.1 1781 9.73
3/28/2021 2:30:00 PM 13.95 57.11 0.366 8.11 1784 9.79
3/28/2021 2:45:00 PM 13.97 57.146 0.366 8.11 1770 9.82
3/28/2021 3:00:00 PM 13.95 57.11 0.366 8.11 1806 9.77
3/28/2021 3:15:00 PM 13.91 57.038 0.366 8.11 1802 9.73
3/28/2021 3:30:00 PM 13.88 56.984 0.366 8.11 1819 9.7
3/28/2021 3:45:00 PM 13.88 56.984 0.366 8.1 1858 9.62
3/28/2021 4:00:00 PM 13.85 56.93 0.366 8.1 1816 9.58
3/28/2021 4:15:00 PM 13.81 56.858 0.366 8.09 1857 9.49
3/28/2021 4:30:00 PM 13.77 56.786 0.364 8.08 1851 9.34
3/28/2021 4:45:00 PM 13.72 56.696 0.361 8.08 1863 9.29
3/28/2021 5:00:00 PM 13.72 56.696 0.361 8.07 1893 9.24
3/28/2021 5:15:00 PM 13.7 56.66 0.359 8.06 1874 9.17
3/28/2021 5:30:00 PM 13.68 56.624 0.358 8.05 1897 9.11
3/28/2021 5:45:00 PM 13.66 56.588 0.357 8.04 1899 9.1
3/28/2021 6:00:00 PM 13.64 56.552 0.358 8.03 1885 9.12
3/28/2021 6:15:00 PM 13.62 56.516 0.359 8.03 1892 9.15
3/28/2021 6:30:00 PM 13.63 56.534 0.359 8.03 1916 9.17
3/28/2021 6:45:00 PM 13.6 56.48 0.36 8.03 1914 9.18
3/28/2021 7:00:00 PM 13.56 56.408 0.361 8.03 1921 9.19
3/28/2021 7:15:00 PM 13.5 56.3 0.361 8.03 1989 9.18
3/28/2021 7:30:00 PM 13.43 56.174 0.362 8.03 2020 9.17
3/28/2021 7:45:00 PM 13.38 56.084 0.363 8.03 2056 9.12
3/28/2021 8:00:00 PM 13.31 55.958 0.364 8.03 2052 9.12
3/28/2021 8:15:00 PM 13.26 55.868 0.349 8.02 2083 9.04
3/28/2021 8:30:00 PM 13.21 55.778 0.365 8.02 2072 9.05
3/28/2021 8:45:00 PM 13.19 55.742 0.366 8.02 2094 9.02
3/28/2021 9:00:00 PM 13.17 55.706 0.366 8.02 2106 9.01
3/28/2021 9:15:00 PM 13.14 55.652 0.366 8.02 2108 9.04
3/28/2021 9:30:00 PM 13.11 55.598 0.366 8.03 2110 9.05
3/28/2021 9:45:00 PM 13.09 55.562 0.366 8.03 2102 9.07
3/28/2021 10:00:00 PM 13.04 55.472 0.367 8.04 2171 9.1
3/28/2021 10:15:00 PM 13.06 55.508 0.368 8.04 2178 9.12
3/28/2021 10:30:00 PM 13.04 55.472 0.368 8.05 2215 9.15
3/28/2021 10:45:00 PM 13.05 55.49 0.368 8.06 43.16 9.14
3/28/2021 11:00:00 PM 13.03 55.454 0.368 8.06 43.29 9.19
3/28/2021 11:15:00 PM 13 55.4 0.345 8.07 43.25 9.25
3/28/2021 11:30:00 PM 12.98 55.364 0.369 8.08 40.86 9.22
3/28/2021 11:45:00 PM 12.93 55.274 0.368 8.08 48.95 9.26
3/29/2021 12:00:00 AM 12.87 55.166 0.368 8.08 38.37 9.28
3/29/2021 12:15:00 AM 12.83 55.094 0.368 8.08 49.26 9.29
3/29/2021 12:30:00 AM 12.79 55.022 0.368 8.08 40.34 9.31
3/29/2021 12:45:00 AM 12.73 54.914 0.369 8.08 34.87 9.32
3/29/2021 1:00:00 AM 12.68 54.824 0.368 8.08 40.47 9.35
3/29/2021 1:15:00 AM 12.62 54.716 0.368 8.08 48.2 9.36
3/29/2021 1:30:00 AM 12.55 54.59 0.367 8.08 36.65 9.38
3/29/2021 1:45:00 AM 12.48 54.464 0.367 8.08 44.5 9.41
3/29/2021 2:00:00 AM 12.43 54.374 0.368 8.07 44.05 9.4
3/29/2021 2:15:00 AM 12.36 54.248 0.367 8.07 45.29 9.41
3/29/2021 2:30:00 AM 12.29 54.122 0.367 8.06 51.31 9.41
3/29/2021 2:45:00 AM 12.23 54.014 0.366 8.05 51.92 9.39
3/29/2021 3:00:00 AM 12.15 53.87 0.366 8.04 54.63 9.39
3/29/2021 3:15:00 AM 12.08 53.744 0.366 8.04 46.3 9.42
3/29/2021 3:30:00 AM 12.01 53.618 0.365 8.04 25.74 9.44
3/29/2021 3:45:00 AM 11.94 53.492 0.365 8.03 34.58 9.44
3/29/2021 4:00:00 AM 11.87 53.366 0.357 8.02 43.35 9.45
3/29/2021 4:15:00 AM 11.79 53.222 0.32 8.01 49.05 9.46
3/29/2021 4:30:00 AM 11.73 53.114 0.342 8.01 36.75 9.47
3/29/2021 4:45:00 AM 11.67 53.006 0.296 8.01 49.44 9.47
3/29/2021 5:00:00 AM 11.59 52.862 0.339 8 43.34 9.46
3/29/2021 5:15:00 AM 11.51 52.718 0.301 8 25.81 9.48
3/29/2021 5:30:00 AM 11.44 52.592 0.307 7.99 20.69 9.48
3/29/2021 5:45:00 AM 11.34 52.412 0.321 7.99 24.17 9.49
3/29/2021 6:00:00 AM 11.27 52.286 0.338 7.98 21.17 9.51
3/29/2021 6:15:00 AM 11.2 52.16 0.335 7.98 21.01 9.52
3/29/2021 6:30:00 AM 11.13 52.034 0.331 7.98 18.48 9.53
3/29/2021 6:45:00 AM 11.07 51.926 0.329 7.98 20.3 9.54
3/29/2021 7:00:00 AM 11 51.8 0.315 7.98 19.44 9.56
3/29/2021 7:15:00 AM 10.93 51.674 0.319 7.98 20.9 9.57
3/29/2021 7:30:00 AM 10.86 51.548 0.322 7.97 17.64 9.58
3/29/2021 7:45:00 AM 10.8 51.44 0.299 7.97 21.69 9.62
3/29/2021 8:00:00 AM 10.77 51.386 0.303 7.97 16.85 9.63
3/29/2021 8:15:00 AM 10.72 51.296 0.317 7.98 15.62 9.7
3/29/2021 8:30:00 AM 10.68 51.224 0.345 7.98 17.8 9.74
3/29/2021 8:45:00 AM 10.63 51.134 0.337 7.99 16.7 9.79
3/29/2021 9:00:00 AM 10.55 50.99 0.343 7.99 16.04 9.85
3/29/2021 9:15:00 AM 10.48 50.864 0.338 7.99 18.42 9.87
3/29/2021 9:30:00 AM 10.43 50.774 0.288 7.99 16.83 9.9
3/29/2021 9:45:00 AM 10.39 50.702 0.313 7.99 16.03 9.94
3/29/2021 10:00:00 AM 10.37 50.666 0.322 7.99 16.54 9.94
3/29/2021 10:15:00 AM 10.41 50.738 0.334 8 17.31 10.04
3/29/2021 10:30:00 AM 10.49 50.882 0.336 7.99 15.48 10.11
3/29/2021 10:45:00 AM 10.57 51.026 0.329 8 13.91 10.17
3/29/2021 11:00:00 AM 10.61 51.098 0.334 8.01 13.93 10.24
3/29/2021 11:15:00 AM 10.64 51.152 0.335 8.01 14.72 10.27
3/29/2021 11:30:00 AM 10.71 51.278 0.335 8.01 14.72 10.31
3/29/2021 11:45:00 AM 10.75 51.35 0.316 8.02 12.17 10.33
3/29/2021 12:00:00 PM 10.81 51.458 0.275 8.01 11 10.36
3/29/2021 12:15:00 PM 10.85 51.53 0.323 8.02 14.52 10.39
3/29/2021 12:30:00 PM 10.9 51.62 0.31 8.02 14.32 10.42
3/29/2021 12:45:00 PM 11 51.8 0.287 8.03 12.98 10.41
3/29/2021 1:00:00 PM 11.1 51.98 0.308 8.03 13.92 10.45
3/29/2021 1:15:00 PM 11.21 52.178 0.289 8.04 15.44 10.48
3/29/2021 1:30:00 PM 11.34 52.412 0.314 8.04 15.05 10.5
3/29/2021 1:45:00 PM 11.42 52.556 0.292 8.04 15.44 10.53
3/29/2021 2:00:00 PM 11.51 52.718 0.274 8.04 12.95 10.54
3/29/2021 2:15:00 PM 11.6 52.88 0.249 8.04 12.53 10.54
3/29/2021 2:30:00 PM 11.7 53.06 0.326 8.05 15.52 10.58
3/29/2021 2:45:00 PM 11.76 53.168 0.322 8.05 13.05 10.59
3/29/2021 3:00:00 PM 11.87 53.366 0.323 8.06 15.46 10.59
3/29/2021 3:15:00 PM 11.91 53.438 0.32 8.06 18.05 10.61
3/29/2021 3:30:00 PM 12 53.6 0.324 8.07 14.12 10.61
3/29/2021 3:45:00 PM 12.04 53.672 0.317 8.08 18.72 10.62
3/29/2021 4:00:00 PM 12.12 53.816 0.322 8.09 15.93 10.62
3/29/2021 4:15:00 PM 12.1 53.78 0.321 8.09 15.68 10.62
3/29/2021 4:30:00 PM 12.18 53.924 0.32 8.1 16.85 10.62
3/29/2021 4:45:00 PM 12.2 53.96 0.32 8.1 19.58 10.62
3/29/2021 5:00:00 PM 12.22 53.996 0.319 8.11 15.92 10.61
3/29/2021 5:15:00 PM 12.24 54.032 0.317 8.11 16.25 10.61
3/29/2021 5:30:00 PM 12.2 53.96 0.318 8.12 14.36 10.58
3/29/2021 5:45:00 PM 12.19 53.942 0.317 8.12 17.57 10.56
3/29/2021 6:00:00 PM 12.14 53.852 0.321 8.12 15.8 10.52
3/29/2021 6:15:00 PM 12.08 53.744 0.288 8.13 14.11 10.48
3/29/2021 6:30:00 PM 12.03 53.654 0.32 8.13 17.38 10.46
3/29/2021 6:45:00 PM 11.99 53.582 0.316 8.12 18.94 10.41
3/29/2021 7:00:00 PM 11.96 53.528 0.319 8.12 16.23 10.35
3/29/2021 7:15:00 PM 11.93 53.474 0.316 8.13 19.91 10.33
3/29/2021 7:30:00 PM 11.92 53.456 0.318 8.13 16.09 10.29
3/29/2021 7:45:00 PM 11.9 53.42 0.317 8.13 20.97 10.28
3/29/2021 8:00:00 PM 11.9 53.42 0.318 8.13 19.2 10.26
3/29/2021 8:15:00 PM 11.88 53.384 0.319 8.13 15.4 10.25
3/29/2021 8:30:00 PM 11.88 53.384 0.318 8.12 14.3 10.25
3/29/2021 8:45:00 PM 11.87 53.366 0.317 8.13 16.03 10.25
3/29/2021 9:00:00 PM 11.85 53.33 0.317 8.13 20.18 10.24
3/29/2021 9:15:00 PM 11.83 53.294 0.284 8.14 17.28 10.26
3/29/2021 9:30:00 PM 11.81 53.258 0.317 8.14 16.96 10.28
3/29/2021 9:45:00 PM 11.79 53.222 0.317 8.15 16.94 10.28
3/29/2021 10:00:00 PM 11.74 53.132 0.312 8.15 16.85 10.29
3/29/2021 10:15:00 PM 11.71 53.078 0.312 8.15 17.55 10.29
3/29/2021 10:30:00 PM 11.68 53.024 0.252 8.15 17.97 10.3
3/29/2021 10:45:00 PM 11.64 52.952 0.315 8.15 17.18 10.3
3/29/2021 11:00:00 PM 11.61 52.898 0.315 8.15 15.09 10.3
3/29/2021 11:15:00 PM 11.56 52.808 0.275 8.15 14.93 10.3
3/29/2021 11:30:00 PM 11.52 52.736 0.277 8.14 16.17 10.3
3/29/2021 11:45:00 PM 11.46 52.628 0.268 8.14 13.19 10.3
3/30/2021 12:00:00 AM 11.42 52.556 0.302 8.13 16.64 10.3
3/30/2021 12:15:00 AM 11.37 52.466 0.255 8.13 17.49 10.27
3/30/2021 12:30:00 AM 11.3 52.34 0.29 8.11 14.83 10.26
3/30/2021 12:45:00 AM 11.26 52.268 0.298 8.1 17.42 10.25
3/30/2021 1:00:00 AM 11.21 52.178 0.285 8.1 15.44 10.24
3/30/2021 1:15:00 AM 11.16 52.088 0.261 8.09 18.02 10.22
3/30/2021 1:30:00 AM 11.11 51.998 0.259 8.09 17.97 10.2
3/30/2021 1:45:00 AM 11.06 51.908 0.273 8.08 13.19 10.2
3/30/2021 2:00:00 AM 11 51.8 0.296 8.07 17.89 10.19
3/30/2021 2:15:00 AM 10.94 51.692 0.306 8.06 17.25 10.17
3/30/2021 2:30:00 AM 10.89 51.602 0.286 8.05 16.26 10.18
3/30/2021 2:45:00 AM 10.83 51.494 0.3 8.04 13.45 10.15
3/30/2021 3:00:00 AM 10.78 51.404 0.308 8.03 14.9 10.12
3/30/2021 3:15:00 AM 10.72 51.296 0.261 8.03 12.85 10.12
3/30/2021 3:30:00 AM 10.68 51.224 0.304 8.02 13.36 10.1
3/30/2021 3:45:00 AM 10.62 51.116 0.292 8.01 14.38 10.08
3/30/2021 4:00:00 AM 10.58 51.044 0.304 8 13.88 10.06
3/30/2021 4:15:00 AM 10.53 50.954 0.274 8 13.29 10.08
3/30/2021 4:30:00 AM 10.46 50.828 0.272 8 14.02 10.07
3/30/2021 4:45:00 AM 10.42 50.756 0.3 7.99 12.24 10.06
3/30/2021 5:00:00 AM 10.37 50.666 0.279 7.99 11.47 10.07
3/30/2021 5:15:00 AM 10.32 50.576 0.275 7.98 12.25 10.05
3/30/2021 5:30:00 AM 10.26 50.468 0.299 7.98 13.97 10.04
3/30/2021 5:45:00 AM 10.22 50.396 0.274 7.97 13.48 10.05
3/30/2021 6:00:00 AM 10.17 50.306 0.297 7.97 12.25 10.03
3/30/2021 6:15:00 AM 10.13 50.234 0.26 7.96 11.94 10.04
3/30/2021 6:30:00 AM 10.08 50.144 0.28 7.95 15.49 10.02
3/30/2021 6:45:00 AM 10.05 50.09 0.289 7.95 11.76 10.02
3/30/2021 7:00:00 AM 10 50 0.292 7.95 12.76 10.03
3/30/2021 7:15:00 AM 9.97 49.946 0.279 7.95 13.39 10.03
3/30/2021 7:30:00 AM 9.93 49.874 0.285 7.94 11.72 10.03
3/30/2021 7:45:00 AM 9.89 49.802 0.275 7.94 14.76 10.02
3/30/2021 8:00:00 AM 9.86 49.748 0.294 7.94 11.99 10.07
3/30/2021 8:15:00 AM 9.86 49.748 0.288 7.94 11.69 10.08
3/30/2021 8:30:00 AM 9.85 49.73 0.28 7.94 11.29 10.11
3/30/2021 8:45:00 AM 9.85 49.73 0.265 7.94 13.43 10.14
3/30/2021 9:00:00 AM 9.86 49.748 0.302 7.93 12 10.18
3/30/2021 9:15:00 AM 9.89 49.802 0.272 7.94 12.6 10.23
3/30/2021 9:30:00 AM 9.92 49.856 0.269 7.95 13.92 10.29
3/30/2021 9:45:00 AM 9.95 49.91 0.272 7.95 13.25 10.33
3/30/2021 10:00:00 AM 10.02 50.036 0.249 7.96 13.66 10.39
3/30/2021 10:15:00 AM 10.07 50.126 0.254 7.96 12.02 10.43
3/30/2021 10:30:00 AM 10.13 50.234 0.256 7.97 12.34 10.47
3/30/2021 10:45:00 AM 10.19 50.342 0.257 7.97 14.1 10.5
3/30/2021 11:00:00 AM 10.26 50.468 0.271 7.98 11.91 10.55
3/30/2021 11:15:00 AM 10.32 50.576 0.285 7.97 13.67 10.58
3/30/2021 11:30:00 AM 10.4 50.72 0.267 7.98 12.86 10.59
3/30/2021 11:45:00 AM 10.51 50.918 0.271 7.98 11.33 10.63
3/30/2021 12:00:00 PM 10.6 51.08 0.292 7.99 11.89 10.66
3/30/2021 12:15:00 PM 10.72 51.296 0.287 7.99 11.36 10.67
3/30/2021 12:30:00 PM 10.85 51.53 0.271 8 13.21 10.69
3/30/2021 12:45:00 PM 10.97 51.746 0.288 8 13.05 10.71
3/30/2021 1:00:00 PM 11.1 51.98 0.275 8.01 11.94 10.71
3/30/2021 1:15:00 PM 11.25 52.25 0.29 8.01 13.53 10.73
3/30/2021 1:30:00 PM 11.41 52.538 0.256 8.02 11 10.75
3/30/2021 1:45:00 PM 11.54 52.772 0.269 8.03 10.46 10.76
3/30/2021 2:00:00 PM 11.67 53.006 0.268 8.03 12.13 10.78
3/30/2021 2:15:00 PM 11.82 53.276 0.276 8.04 11.42 10.77
3/30/2021 2:30:00 PM 11.94 53.492 0.262 8.05 13.11 10.79
3/30/2021 2:45:00 PM 12.07 53.726 0.269 8.05 10.68 10.79
3/30/2021 3:00:00 PM 12.15 53.87 0.267 8.06 13.24 10.82
3/30/2021 3:15:00 PM 12.24 54.032 0.264 8.07 12.14 10.82
3/30/2021 3:30:00 PM 12.31 54.158 0.276 8.07 11.7 10.83
3/30/2021 3:45:00 PM 12.39 54.302 0.28 8.08 13.07 10.84
3/30/2021 4:00:00 PM 12.45 54.41 0.295 8.09 10.48 10.82
3/30/2021 4:15:00 PM 12.5 54.5 0.3 8.11 10.27 10.82
3/30/2021 4:30:00 PM 12.53 54.554 0.283 8.12 11.22 10.82
3/30/2021 4:45:00 PM 12.55 54.59 0.277 8.13 9.83 10.8
3/30/2021 5:00:00 PM 12.54 54.572 0.268 8.15 11.4 10.8
3/30/2021 5:15:00 PM 12.58 54.644 0.274 8.16 10.81 10.79
3/30/2021 5:30:00 PM 12.57 54.626 0.266 8.16 10.98 10.75
3/30/2021 5:45:00 PM 12.52 54.536 0.278 8.17 10.43 10.74
3/30/2021 6:00:00 PM 12.49 54.482 0.272 8.17 10.42 10.7
3/30/2021 6:15:00 PM 12.46 54.428 0.27 8.18 12.27 10.65
3/30/2021 6:30:00 PM 12.42 54.356 0.282 8.17 11.89 10.56
3/30/2021 6:45:00 PM 12.39 54.302 0.283 8.17 12.1 10.5
3/30/2021 7:00:00 PM 12.38 54.284 0.276 8.17 11.03 10.42
3/30/2021 7:15:00 PM 12.37 54.266 0.28 8.17 9.97 10.37
3/30/2021 7:30:00 PM 12.38 54.284 0.279 8.17 11.99 10.32
3/30/2021 7:45:00 PM 12.38 54.284 0.246 8.17 11.86 10.26
3/30/2021 8:00:00 PM 12.39 54.302 0.288 8.16 9 10.21
3/30/2021 8:15:00 PM 12.4 54.32 0.29 8.16 10.36 10.16
3/30/2021 8:30:00 PM 12.41 54.338 0.289 8.16 10.94 10.12
3/30/2021 8:45:00 PM 12.44 54.392 0.288 8.16 11.87 10.1
3/30/2021 9:00:00 PM 12.45 54.41 0.247 8.15 12.97 10.1
3/30/2021 9:15:00 PM 12.47 54.446 0.278 8.15 10.05 10.1
3/30/2021 9:30:00 PM 12.48 54.464 0.3 8.16 13.57 10.1
3/30/2021 9:45:00 PM 12.49 54.482 0.294 8.16 12.18 10.1
3/30/2021 10:00:00 PM 12.51 54.518 0.246 8.16 11.12 10.12
3/30/2021 10:15:00 PM 12.5 54.5 0.286 8.16 11.25 10.1
3/30/2021 10:30:00 PM 12.51 54.518 0.286 8.17 16.11 10.1
3/30/2021 10:45:00 PM 12.5 54.5 0.283 8.18 14.3 10.11
3/30/2021 11:00:00 PM 12.49 54.482 0.278 8.19 12.48 10.12
3/30/2021 11:15:00 PM 12.46 54.428 0.268 8.2 13.33 10.12
3/30/2021 11:30:00 PM 12.45 54.41 0.286 8.2 13.53 10.09
3/30/2021 11:45:00 PM 12.42 54.356 0.291 8.2 13.26 10.1
3/31/2021 12:00:00 AM 12.4 54.32 0.293 8.2 14.91 10.1
3/31/2021 12:15:00 AM 12.37 54.266 0.295 8.19 11.27 10.09
3/31/2021 12:30:00 AM 12.33 54.194 0.263 8.2 11.16 10.1
3/31/2021 12:45:00 AM 12.29 54.122 0.267 8.19 14.99 10.1
3/31/2021 1:00:00 AM 12.25 54.05 0.275 8.19 11.86 10.07
3/31/2021 1:15:00 AM 12.22 53.996 0.268 8.18 10.2 10.05
3/31/2021 1:30:00 AM 12.18 53.924 0.262 8.18 11.73 10.06
3/31/2021 1:45:00 AM 12.14 53.852 0.276 8.17 10.89 10.03
3/31/2021 2:00:00 AM 12.09 53.762 0.255 8.16 11.68 10.01
3/31/2021 2:15:00 AM 12.05 53.69 0.281 8.15 12.07 10
3/31/2021 2:30:00 AM 12.01 53.618 0.272 8.15 11.58 9.99
3/31/2021 2:45:00 AM 11.97 53.546 0.276 8.14 12.39 9.96
3/31/2021 3:00:00 AM 11.93 53.474 0.277 8.13 12.42 9.95
3/31/2021 3:15:00 AM 11.89 53.402 0.276 8.12 12.71 9.94
3/31/2021 3:30:00 AM 11.86 53.348 0.257 8.11 16.95 9.91
3/31/2021 3:45:00 AM 11.82 53.276 0.254 8.1 12.44 9.9
3/31/2021 4:00:00 AM 11.79 53.222 0.27 8.09 11.46 9.87
3/31/2021 4:15:00 AM 11.76 53.168 0.271 8.08 14.21 9.84
3/31/2021 4:30:00 AM 11.73 53.114 0.237 8.06 13.81 9.84
3/31/2021 4:45:00 AM 11.69 53.042 0.252 8.05 13.71 9.82
3/31/2021 5:00:00 AM 11.65 52.97 0.257 8.04 12.56 9.78
3/31/2021 5:15:00 AM 11.61 52.898 0.257 8.03 13.51 9.78
3/31/2021 5:30:00 AM 11.57 52.826 0.255 8.03 18.5 9.75
3/31/2021 5:45:00 AM 11.53 52.754 0.245 8.02 13.39 9.74
3/31/2021 6:00:00 AM 11.5 52.7 0.282 8.01 17.18 9.73
3/31/2021 6:15:00 AM 11.46 52.628 0.283 8.01 3.62 9.72
3/31/2021 6:30:00 AM 11.43 52.574 0.3 8 4.78 9.7
3/31/2021 6:45:00 AM 11.4 52.52 0.28 8 4.08 9.67
3/31/2021 7:00:00 AM 11.36 52.448 0.27 7.99 4.67 9.66
3/31/2021 7:15:00 AM 11.33 52.394 0.27 7.98 4.73 9.66
3/31/2021 7:30:00 AM 11.31 52.358 0.284 7.98 3.86 9.67
3/31/2021 7:45:00 AM 11.29 52.322 0.266 7.98 3.84 9.69
3/31/2021 8:00:00 AM 11.29 52.322 0.256 7.98 4.26 9.72
3/31/2021 8:15:00 AM 11.3 52.34 0.263 7.99 3.89 9.78
3/31/2021 8:30:00 AM 11.32 52.376 0.286 7.99 3.95 9.83
3/31/2021 8:45:00 AM 11.35 52.43 0.262 8 3.92 9.9
3/31/2021 9:00:00 AM 11.38 52.484 0.257 8.01 4.07 9.97
3/31/2021 9:15:00 AM 11.42 52.556 0.289 8.01 4.43 10.03
3/31/2021 9:30:00 AM 11.48 52.664 0.268 8.02 3.99 10.1
3/31/2021 9:45:00 AM 11.56 52.808 0.277 8.03 3.61 10.18
3/31/2021 10:00:00 AM 11.6 52.88 0.272 8.04 4.58 10.23
3/31/2021 10:15:00 AM 11.65 52.97 0.261 8.05 5.9 10.28
3/31/2021 10:30:00 AM 11.69 53.042 0.263 8.05 4.61 10.3
3/31/2021 10:45:00 AM 11.74 53.132 0.267 8.06 4.97 10.34
3/31/2021 11:00:00 AM 11.77 53.186 0.251 8.06 4.45 10.34
3/31/2021 11:15:00 AM 11.76 53.168 0.257 8.06 5 10.32
3/31/2021 11:30:00 AM 11.74 53.132 0.262 8.06 4.93 10.28
3/31/2021 11:45:00 AM 11.71 53.078 0.251 8.06 4.23 10.22
3/31/2021 12:00:00 PM 11.69 53.042 0.249 8.05 4.44 10.18
3/31/2021 12:15:00 PM 11.66 52.988 0.242 8.04 4.29 10.12
3/31/2021 12